Mississippi River (Missouri), Chester (07020500)

StateMissouriLatestUnknown (263000 cfs)
RiverMississippi RiverRatingObservedEstimated
Updated2021-03-03 15:00 (10 minutes ago)Flood - The river is flooding. Obstacles can be treacherous or deadly. The river should be avoided at this stage for casual trips and definitely for the inexperienced. Trips should be attempted only with protective gear and equipment.Flood(none)(none)
Discharge263000 cfs (median: 183000 cfs)High - The river is high and potentially dangerous, especially for the young and / or inexperienced. Normal stream obstacles are sometimes difficult to navigate. Extended distances can be attempted, but canoe travel may not be advisable.High(none)(none)
Height17.18 feetGood - Conditions are ideal for a canoe or kayak. Boats typically will drag on fewer than one-quarter of riffles, if at all, and portages are unnecessary or rare. Normal float lengths can be attempted without a problem.Good(none)(none)
TrendFalling (rising over 24 hours)Low - River is low but can still be floated. Some riffles are okay but most come with significant dragging and might need a portage. Float lengths should be reduced to accommodate low flow, dragging, and portages.Low(none)(none)
USGSExternal icon USGS Site (External icon Google Maps)Poor - River is too low to float comfortably. Most or all riffles will drag or must be portaged and some obstacles (such as slick shelf rock) cause undue problems. Avoid the river at this stage for casual paddling trips.Poor(none)(none)

Trending Data

Plot Image

Trips for Mississippi River (Missouri), Chester (07020500)

DateStartEndDistanceConditionDischargeHeightFishingDetails

A total of 0 rows are displayed.

Condition Descriptions

Fishing Conditions

Fish Species

Notes

Classic Trip List

The classic River Trips application is still available for use. It is updated with the new system using a data retrofit. It is no longer maintained. The original River Trips application is no longer updated (as of 1 Dec 2016) but can be checked for errors or for the condition of the data before it was converted to the new system.

Gauge Data Table

ObservationHeightDischargeMaximum
Discharge
Minimum
Discharge
Mean
Discharge
P05P10P20P25P50
(Median)
P75P80P90P95
2021-03-03 15:00 17.18 263000 645000 (1985) 48800 (1964) 212000 78700 90300 129000 138000 183000 275000 289000 361000 427000
2021-03-03 14:30 17.31 265000 645000 (1985) 48800 (1964) 212000 78700 90300 129000 138000 183000 275000 289000 361000 427000
2021-03-03 14:00 17.32 265000 645000 (1985) 48800 (1964) 212000 78700 90300 129000 138000 183000 275000 289000 361000 427000
2021-03-03 13:30 17.28 265000 645000 (1985) 48800 (1964) 212000 78700 90300 129000 138000 183000 275000 289000 361000 427000
2021-03-03 13:00 17.29 265000 645000 (1985) 48800 (1964) 212000 78700 90300 129000 138000 183000 275000 289000 361000 427000
2021-03-03 12:30 17.13 262000 645000 (1985) 48800 (1964) 212000 78700 90300 129000 138000 183000 275000 289000 361000 427000
2021-03-03 12:00 17.29 265000 645000 (1985) 48800 (1964) 212000 78700 90300 129000 138000 183000 275000 289000 361000 427000
2021-03-03 11:30 17.24 264000 645000 (1985) 48800 (1964) 212000 78700 90300 129000 138000 183000 275000 289000 361000 427000
2021-03-03 11:00 17.22 264000 645000 (1985) 48800 (1964) 212000 78700 90300 129000 138000 183000 275000 289000 361000 427000
2021-03-03 10:30 17.10 262000 645000 (1985) 48800 (1964) 212000 78700 90300 129000 138000 183000 275000 289000 361000 427000
2021-03-03 10:00 17.14 262000 645000 (1985) 48800 (1964) 212000 78700 90300 129000 138000 183000 275000 289000 361000 427000
2021-03-03 09:30 17.08 261000 645000 (1985) 48800 (1964) 212000 78700 90300 129000 138000 183000 275000 289000 361000 427000
2021-03-03 09:00 17.08 261000 645000 (1985) 48800 (1964) 212000 78700 90300 129000 138000 183000 275000 289000 361000 427000
2021-03-03 08:30 17.07 261000 645000 (1985) 48800 (1964) 212000 78700 90300 129000 138000 183000 275000 289000 361000 427000
2021-03-03 08:00 17.11 262000 645000 (1985) 48800 (1964) 212000 78700 90300 129000 138000 183000 275000 289000 361000 427000
2021-03-03 07:30 17.14 262000 645000 (1985) 48800 (1964) 212000 78700 90300 129000 138000 183000 275000 289000 361000 427000
2021-03-03 07:00 17.08 261000 645000 (1985) 48800 (1964) 212000 78700 90300 129000 138000 183000 275000 289000 361000 427000
2021-03-03 06:30 17.00 260000 645000 (1985) 48800 (1964) 212000 78700 90300 129000 138000 183000 275000 289000 361000 427000
2021-03-03 06:00 17.07 261000 645000 (1985) 48800 (1964) 212000 78700 90300 129000 138000 183000 275000 289000 361000 427000
2021-03-03 05:30 17.12 262000 645000 (1985) 48800 (1964) 212000 78700 90300 129000 138000 183000 275000 289000 361000 427000
2021-03-03 05:00 17.10 262000 645000 (1985) 48800 (1964) 212000 78700 90300 129000 138000 183000 275000 289000 361000 427000
2021-03-03 04:30 17.14 262000 645000 (1985) 48800 (1964) 212000 78700 90300 129000 138000 183000 275000 289000 361000 427000
2021-03-03 04:00 17.15 263000 645000 (1985) 48800 (1964) 212000 78700 90300 129000 138000 183000 275000 289000 361000 427000
2021-03-03 03:30 17.10 262000 645000 (1985) 48800 (1964) 212000 78700 90300 129000 138000 183000 275000 289000 361000 427000
2021-03-03 03:00 17.12 262000 645000 (1985) 48800 (1964) 212000 78700 90300 129000 138000 183000 275000 289000 361000 427000
2021-03-03 02:30 17.12 262000 645000 (1985) 48800 (1964) 212000 78700 90300 129000 138000 183000 275000 289000 361000 427000
2021-03-03 02:00 17.16 263000 645000 (1985) 48800 (1964) 212000 78700 90300 129000 138000 183000 275000 289000 361000 427000
2021-03-03 01:30 17.02 261000 645000 (1985) 48800 (1964) 212000 78700 90300 129000 138000 183000 275000 289000 361000 427000
2021-03-03 01:00 17.08 261000 645000 (1985) 48800 (1964) 212000 78700 90300 129000 138000 183000 275000 289000 361000 427000
2021-03-03 00:30 17.07 261000 645000 (1985) 48800 (1964) 212000 78700 90300 129000 138000 183000 275000 289000 361000 427000
2021-03-03 00:00 17.14 262000 645000 (1985) 48800 (1964) 212000 78700 90300 129000 138000 183000 275000 289000 361000 427000
2021-03-02 23:30 17.07 261000 694000 (1985) 47400 (1964) 212000 80500 87700 118000 138000 180000 273000 292000 364000 452000
2021-03-02 23:00 17.05 261000 694000 (1985) 47400 (1964) 212000 80500 87700 118000 138000 180000 273000 292000 364000 452000
2021-03-02 22:30 17.07 261000 694000 (1985) 47400 (1964) 212000 80500 87700 118000 138000 180000 273000 292000 364000 452000
2021-03-02 22:00 16.90 259000 694000 (1985) 47400 (1964) 212000 80500 87700 118000 138000 180000 273000 292000 364000 452000
2021-03-02 21:30 17.01 260000 694000 (1985) 47400 (1964) 212000 80500 87700 118000 138000 180000 273000 292000 364000 452000
2021-03-02 21:00 16.98 260000 694000 (1985) 47400 (1964) 212000 80500 87700 118000 138000 180000 273000 292000 364000 452000
2021-03-02 20:30 16.99 260000 694000 (1985) 47400 (1964) 212000 80500 87700 118000 138000 180000 273000 292000 364000 452000
2021-03-02 20:00 16.96 260000 694000 (1985) 47400 (1964) 212000 80500 87700 118000 138000 180000 273000 292000 364000 452000
2021-03-02 19:30 16.98 260000 694000 (1985) 47400 (1964) 212000 80500 87700 118000 138000 180000 273000 292000 364000 452000
2021-03-02 19:00 16.89 258000 694000 (1985) 47400 (1964) 212000 80500 87700 118000 138000 180000 273000 292000 364000 452000
2021-03-02 18:30 17.02 261000 694000 (1985) 47400 (1964) 212000 80500 87700 118000 138000 180000 273000 292000 364000 452000
2021-03-02 18:00 16.96 260000 694000 (1985) 47400 (1964) 212000 80500 87700 118000 138000 180000 273000 292000 364000 452000
2021-03-02 17:30 17.05 261000 694000 (1985) 47400 (1964) 212000 80500 87700 118000 138000 180000 273000 292000 364000 452000
2021-03-02 17:00 16.94 259000 694000 (1985) 47400 (1964) 212000 80500 87700 118000 138000 180000 273000 292000 364000 452000
2021-03-02 16:30 16.99 260000 694000 (1985) 47400 (1964) 212000 80500 87700 118000 138000 180000 273000 292000 364000 452000
2021-03-02 16:00 16.87 258000 694000 (1985) 47400 (1964) 212000 80500 87700 118000 138000 180000 273000 292000 364000 452000
2021-03-02 15:30 16.94 259000 694000 (1985) 47400 (1964) 212000 80500 87700 118000 138000 180000 273000 292000 364000 452000
2021-03-02 15:00 16.92 259000 694000 (1985) 47400 (1964) 212000 80500 87700 118000 138000 180000 273000 292000 364000 452000
2021-03-02 14:30 16.90 259000 694000 (1985) 47400 (1964) 212000 80500 87700 118000 138000 180000 273000 292000 364000 452000
2021-03-02 14:00 16.82 257000 694000 (1985) 47400 (1964) 212000 80500 87700 118000 138000 180000 273000 292000 364000 452000
2021-03-02 13:30 16.66 255000 694000 (1985) 47400 (1964) 212000 80500 87700 118000 138000 180000 273000 292000 364000 452000
2021-03-02 13:00 16.60 254000 694000 (1985) 47400 (1964) 212000 80500 87700 118000 138000 180000 273000 292000 364000 452000
2021-03-02 12:30 16.51 253000 694000 (1985) 47400 (1964) 212000 80500 87700 118000 138000 180000 273000 292000 364000 452000
2021-03-02 12:00 16.41 251000 694000 (1985) 47400 (1964) 212000 80500 87700 118000 138000 180000 273000 292000 364000 452000
2021-03-02 11:30 16.47 252000 694000 (1985) 47400 (1964) 212000 80500 87700 118000 138000 180000 273000 292000 364000 452000
2021-03-02 11:00 16.37 250000 694000 (1985) 47400 (1964) 212000 80500 87700 118000 138000 180000 273000 292000 364000 452000
2021-03-02 10:30 16.31 249000 694000 (1985) 47400 (1964) 212000 80500 87700 118000 138000 180000 273000 292000 364000 452000
2021-03-02 10:00 16.11 246000 694000 (1985) 47400 (1964) 212000 80500 87700 118000 138000 180000 273000 292000 364000 452000
2021-03-02 09:30 16.10 246000 694000 (1985) 47400 (1964) 212000 80500 87700 118000 138000 180000 273000 292000 364000 452000
2021-03-02 09:00 16.07 246000 694000 (1985) 47400 (1964) 212000 80500 87700 118000 138000 180000 273000 292000 364000 452000
2021-03-02 08:30 16.01 245000 694000 (1985) 47400 (1964) 212000 80500 87700 118000 138000 180000 273000 292000 364000 452000
2021-03-02 08:00 15.94 244000 694000 (1985) 47400 (1964) 212000 80500 87700 118000 138000 180000 273000 292000 364000 452000
2021-03-02 07:30 15.94 244000 694000 (1985) 47400 (1964) 212000 80500 87700 118000 138000 180000 273000 292000 364000 452000
2021-03-02 07:00 15.93 244000 694000 (1985) 47400 (1964) 212000 80500 87700 118000 138000 180000 273000 292000 364000 452000
2021-03-02 06:30 15.87 243000 694000 (1985) 47400 (1964) 212000 80500 87700 118000 138000 180000 273000 292000 364000 452000
2021-03-02 06:00 15.83 242000 694000 (1985) 47400 (1964) 212000 80500 87700 118000 138000 180000 273000 292000 364000 452000
2021-03-02 05:30 15.76 241000 694000 (1985) 47400 (1964) 212000 80500 87700 118000 138000 180000 273000 292000 364000 452000
2021-03-02 05:00 15.76 241000 694000 (1985) 47400 (1964) 212000 80500 87700 118000 138000 180000 273000 292000 364000 452000
2021-03-02 04:30 15.72 240000 694000 (1985) 47400 (1964) 212000 80500 87700 118000 138000 180000 273000 292000 364000 452000
2021-03-02 04:00 15.70 240000 694000 (1985) 47400 (1964) 212000 80500 87700 118000 138000 180000 273000 292000 364000 452000
2021-03-02 03:30 15.51 237000 694000 (1985) 47400 (1964) 212000 80500 87700 118000 138000 180000 273000 292000 364000 452000
2021-03-02 03:00 15.69 240000 694000 (1985) 47400 (1964) 212000 80500 87700 118000 138000 180000 273000 292000 364000 452000
2021-03-02 02:30 15.64 239000 694000 (1985) 47400 (1964) 212000 80500 87700 118000 138000 180000 273000 292000 364000 452000
2021-03-02 02:00 15.60 239000 694000 (1985) 47400 (1964) 212000 80500 87700 118000 138000 180000 273000 292000 364000 452000
2021-03-02 01:30 15.63 239000 694000 (1985) 47400 (1964) 212000 80500 87700 118000 138000 180000 273000 292000 364000 452000
2021-03-02 01:00 15.63 239000 694000 (1985) 47400 (1964) 212000 80500 87700 118000 138000 180000 273000 292000 364000 452000
2021-03-02 00:30 15.56 238000 694000 (1985) 47400 (1964) 212000 80500 87700 118000 138000 180000 273000 292000 364000 452000
2021-03-02 00:00 15.53 238000 694000 (1985) 47400 (1964) 212000 80500 87700 118000 138000 180000 273000 292000 364000 452000
2021-03-01 23:30 15.54 238000 728000 (1985) 49500 (1964) 213000 82200 88000 114000 140000 184000 261000 292000 374000 443000
2021-03-01 23:00 15.51 237000 728000 (1985) 49500 (1964) 213000 82200 88000 114000 140000 184000 261000 292000 374000 443000
2021-03-01 22:30 15.44 236000 728000 (1985) 49500 (1964) 213000 82200 88000 114000 140000 184000 261000 292000 374000 443000
2021-03-01 22:00 15.50 237000 728000 (1985) 49500 (1964) 213000 82200 88000 114000 140000 184000 261000 292000 374000 443000
2021-03-01 21:30 15.53 238000 728000 (1985) 49500 (1964) 213000 82200 88000 114000 140000 184000 261000 292000 374000 443000
2021-03-01 21:00 15.44 236000 728000 (1985) 49500 (1964) 213000 82200 88000 114000 140000 184000 261000 292000 374000 443000
2021-03-01 20:30 15.46 237000 728000 (1985) 49500 (1964) 213000 82200 88000 114000 140000 184000 261000 292000 374000 443000
2021-03-01 20:00 15.44 236000 728000 (1985) 49500 (1964) 213000 82200 88000 114000 140000 184000 261000 292000 374000 443000
2021-03-01 19:30 15.52 237000 728000 (1985) 49500 (1964) 213000 82200 88000 114000 140000 184000 261000 292000 374000 443000
2021-03-01 19:00 15.51 237000 728000 (1985) 49500 (1964) 213000 82200 88000 114000 140000 184000 261000 292000 374000 443000
2021-03-01 18:30 15.44 236000 728000 (1985) 49500 (1964) 213000 82200 88000 114000 140000 184000 261000 292000 374000 443000
2021-03-01 18:00 15.55 238000 728000 (1985) 49500 (1964) 213000 82200 88000 114000 140000 184000 261000 292000 374000 443000
2021-03-01 17:30 15.53 238000 728000 (1985) 49500 (1964) 213000 82200 88000 114000 140000 184000 261000 292000 374000 443000
2021-03-01 17:00 15.50 237000 728000 (1985) 49500 (1964) 213000 82200 88000 114000 140000 184000 261000 292000 374000 443000
2021-03-01 16:30 15.47 237000 728000 (1985) 49500 (1964) 213000 82200 88000 114000 140000 184000 261000 292000 374000 443000
2021-03-01 16:00 15.43 236000 728000 (1985) 49500 (1964) 213000 82200 88000 114000 140000 184000 261000 292000 374000 443000
2021-03-01 15:30 15.41 236000 728000 (1985) 49500 (1964) 213000 82200 88000 114000 140000 184000 261000 292000 374000 443000
2021-03-01 15:00 15.40 236000 728000 (1985) 49500 (1964) 213000 82200 88000 114000 140000 184000 261000 292000 374000 443000
2021-03-01 14:30 15.11 231000 728000 (1985) 49500 (1964) 213000 82200 88000 114000 140000 184000 261000 292000 374000 443000
2021-03-01 14:00 15.14 232000 728000 (1985) 49500 (1964) 213000 82200 88000 114000 140000 184000 261000 292000 374000 443000
2021-03-01 13:30 15.10 231000 728000 (1985) 49500 (1964) 213000 82200 88000 114000 140000 184000 261000 292000 374000 443000
2021-03-01 13:00 15.11 231000 728000 (1985) 49500 (1964) 213000 82200 88000 114000 140000 184000 261000 292000 374000 443000
2021-03-01 12:30 15.04 230000 728000 (1985) 49500 (1964) 213000 82200 88000 114000 140000 184000 261000 292000 374000 443000
2021-03-01 12:00 15.03 230000 728000 (1985) 49500 (1964) 213000 82200 88000 114000 140000 184000 261000 292000 374000 443000
2021-03-01 11:30 15.03 230000 728000 (1985) 49500 (1964) 213000 82200 88000 114000 140000 184000 261000 292000 374000 443000
2021-03-01 11:00 14.85 228000 728000 (1985) 49500 (1964) 213000 82200 88000 114000 140000 184000 261000 292000 374000 443000
2021-03-01 10:30 14.89 228000 728000 (1985) 49500 (1964) 213000 82200 88000 114000 140000 184000 261000 292000 374000 443000
2021-03-01 10:00 14.79 227000 728000 (1985) 49500 (1964) 213000 82200 88000 114000 140000 184000 261000 292000 374000 443000
2021-03-01 09:30 14.75 226000 728000 (1985) 49500 (1964) 213000 82200 88000 114000 140000 184000 261000 292000 374000 443000
2021-03-01 09:00 14.74 226000 728000 (1985) 49500 (1964) 213000 82200 88000 114000 140000 184000 261000 292000 374000 443000
2021-03-01 08:30 14.65 225000 728000 (1985) 49500 (1964) 213000 82200 88000 114000 140000 184000 261000 292000 374000 443000
2021-03-01 08:00 14.61 224000 728000 (1985) 49500 (1964) 213000 82200 88000 114000 140000 184000 261000 292000 374000 443000
2021-03-01 07:30 14.48 222000 728000 (1985) 49500 (1964) 213000 82200 88000 114000 140000 184000 261000 292000 374000 443000
2021-03-01 07:00 14.44 222000 728000 (1985) 49500 (1964) 213000 82200 88000 114000 140000 184000 261000 292000 374000 443000
2021-03-01 06:30 14.33 220000 728000 (1985) 49500 (1964) 213000 82200 88000 114000 140000 184000 261000 292000 374000 443000
2021-03-01 06:00 14.42 221000 728000 (1985) 49500 (1964) 213000 82200 88000 114000 140000 184000 261000 292000 374000 443000
2021-03-01 05:30 14.35 220000 728000 (1985) 49500 (1964) 213000 82200 88000 114000 140000 184000 261000 292000 374000 443000
2021-03-01 05:00 14.19 218000 728000 (1985) 49500 (1964) 213000 82200 88000 114000 140000 184000 261000 292000 374000 443000
2021-03-01 04:30 14.35 220000 728000 (1985) 49500 (1964) 213000 82200 88000 114000 140000 184000 261000 292000 374000 443000
2021-03-01 04:00 14.08 217000 728000 (1985) 49500 (1964) 213000 82200 88000 114000 140000 184000 261000 292000 374000 443000
2021-03-01 03:30 14.17 218000 728000 (1985) 49500 (1964) 213000 82200 88000 114000 140000 184000 261000 292000 374000 443000
2021-03-01 03:00 14.19 218000 728000 (1985) 49500 (1964) 213000 82200 88000 114000 140000 184000 261000 292000 374000 443000
2021-03-01 02:30 14.05 216000 728000 (1985) 49500 (1964) 213000 82200 88000 114000 140000 184000 261000 292000 374000 443000
2021-03-01 02:00 14.02 216000 728000 (1985) 49500 (1964) 213000 82200 88000 114000 140000 184000 261000 292000 374000 443000
2021-03-01 01:30 13.99 215000 728000 (1985) 49500 (1964) 213000 82200 88000 114000 140000 184000 261000 292000 374000 443000
2021-03-01 01:00 13.97 215000 728000 (1985) 49500 (1964) 213000 82200 88000 114000 140000 184000 261000 292000 374000 443000
2021-03-01 00:30 13.88 214000 728000 (1985) 49500 (1964) 213000 82200 88000 114000 140000 184000 261000 292000 374000 443000
2021-03-01 00:00 13.89 214000 728000 (1985) 49500 (1964) 213000 82200 88000 114000 140000 184000 261000 292000 374000 443000
2021-02-28 23:30 13.83 213000 744000 (1985) 49500 (1964) 210000 79000 88500 113000 139000 177000 282000 295000 382000 446000
2021-02-28 23:00 13.79 213000 744000 (1985) 49500 (1964) 210000 79000 88500 113000 139000 177000 282000 295000 382000 446000
2021-02-28 22:30 13.71 211000 744000 (1985) 49500 (1964) 210000 79000 88500 113000 139000 177000 282000 295000 382000 446000
2021-02-28 22:00 13.72 212000 744000 (1985) 49500 (1964) 210000 79000 88500 113000 139000 177000 282000 295000 382000 446000
2021-02-28 21:30 13.74 212000 744000 (1985) 49500 (1964) 210000 79000 88500 113000 139000 177000 282000 295000 382000 446000
2021-02-28 21:00 13.63 210000 744000 (1985) 49500 (1964) 210000 79000 88500 113000 139000 177000 282000 295000 382000 446000
2021-02-28 20:30 13.62 210000 744000 (1985) 49500 (1964) 210000 79000 88500 113000 139000 177000 282000 295000 382000 446000
2021-02-28 20:00 13.57 209000 744000 (1985) 49500 (1964) 210000 79000 88500 113000 139000 177000 282000 295000 382000 446000
2021-02-28 19:30 13.52 209000 744000 (1985) 49500 (1964) 210000 79000 88500 113000 139000 177000 282000 295000 382000 446000
2021-02-28 19:00 13.48 208000 744000 (1985) 49500 (1964) 210000 79000 88500 113000 139000 177000 282000 295000 382000 446000
2021-02-28 18:30 13.34 206000 744000 (1985) 49500 (1964) 210000 79000 88500 113000 139000 177000 282000 295000 382000 446000
2021-02-28 18:00 13.45 208000 744000 (1985) 49500 (1964) 210000 79000 88500 113000 139000 177000 282000 295000 382000 446000
2021-02-28 17:30 13.40 207000 744000 (1985) 49500 (1964) 210000 79000 88500 113000 139000 177000 282000 295000 382000 446000
2021-02-28 17:00 13.38 207000 744000 (1985) 49500 (1964) 210000 79000 88500 113000 139000 177000 282000 295000 382000 446000
2021-02-28 16:30 13.26 205000 744000 (1985) 49500 (1964) 210000 79000 88500 113000 139000 177000 282000 295000 382000 446000
2021-02-28 16:00 13.27 205000 744000 (1985) 49500 (1964) 210000 79000 88500 113000 139000 177000 282000 295000 382000 446000
2021-02-28 15:30 13.20 204000 744000 (1985) 49500 (1964) 210000 79000 88500 113000 139000 177000 282000 295000 382000 446000
2021-02-28 15:00 13.20 204000 744000 (1985) 49500 (1964) 210000 79000 88500 113000 139000 177000 282000 295000 382000 446000
2021-02-28 14:30 13.16 204000 744000 (1985) 49500 (1964) 210000 79000 88500 113000 139000 177000 282000 295000 382000 446000
2021-02-28 14:00 13.06 203000 744000 (1985) 49500 (1964) 210000 79000 88500 113000 139000 177000 282000 295000 382000 446000
2021-02-28 13:30 13.07 203000 744000 (1985) 49500 (1964) 210000 79000 88500 113000 139000 177000 282000 295000 382000 446000
2021-02-28 13:00 12.99 202000 744000 (1985) 49500 (1964) 210000 79000 88500 113000 139000 177000 282000 295000 382000 446000
2021-02-28 12:30 12.94 201000 744000 (1985) 49500 (1964) 210000 79000 88500 113000 139000 177000 282000 295000 382000 446000
2021-02-28 12:00 12.89 200000 744000 (1985) 49500 (1964) 210000 79000 88500 113000 139000 177000 282000 295000 382000 446000
2021-02-28 11:30 12.81 199000 744000 (1985) 49500 (1964) 210000 79000 88500 113000 139000 177000 282000 295000 382000 446000
2021-02-28 11:00 12.76 198000 744000 (1985) 49500 (1964) 210000 79000 88500 113000 139000 177000 282000 295000 382000 446000
2021-02-28 10:30 12.73 198000 744000 (1985) 49500 (1964) 210000 79000 88500 113000 139000 177000 282000 295000 382000 446000
2021-02-28 10:00 12.61 197000 744000 (1985) 49500 (1964) 210000 79000 88500 113000 139000 177000 282000 295000 382000 446000
2021-02-28 09:30 12.61 197000 744000 (1985) 49500 (1964) 210000 79000 88500 113000 139000 177000 282000 295000 382000 446000
2021-02-28 09:00 12.55 196000 744000 (1985) 49500 (1964) 210000 79000 88500 113000 139000 177000 282000 295000 382000 446000
2021-02-28 08:30 12.48 195000 744000 (1985) 49500 (1964) 210000 79000 88500 113000 139000 177000 282000 295000 382000 446000
2021-02-28 08:00 12.35 193000 744000 (1985) 49500 (1964) 210000 79000 88500 113000 139000 177000 282000 295000 382000 446000
2021-02-28 07:30 12.37 193000 744000 (1985) 49500 (1964) 210000 79000 88500 113000 139000 177000 282000 295000 382000 446000
2021-02-28 07:00 12.29 192000 744000 (1985) 49500 (1964) 210000 79000 88500 113000 139000 177000 282000 295000 382000 446000
2021-02-28 06:30 12.30 192000 744000 (1985) 49500 (1964) 210000 79000 88500 113000 139000 177000 282000 295000 382000 446000
2021-02-28 06:00 12.15 190000 744000 (1985) 49500 (1964) 210000 79000 88500 113000 139000 177000 282000 295000 382000 446000
2021-02-28 05:30 12.15 190000 744000 (1985) 49500 (1964) 210000 79000 88500 113000 139000 177000 282000 295000 382000 446000
2021-02-28 05:00 12.18 191000 744000 (1985) 49500 (1964) 210000 79000 88500 113000 139000 177000 282000 295000 382000 446000
2021-02-28 04:30 12.14 190000 744000 (1985) 49500 (1964) 210000 79000 88500 113000 139000 177000 282000 295000 382000 446000
2021-02-28 04:00 12.09 190000 744000 (1985) 49500 (1964) 210000 79000 88500 113000 139000 177000 282000 295000 382000 446000
2021-02-28 03:30 12.11 190000 744000 (1985) 49500 (1964) 210000 79000 88500 113000 139000 177000 282000 295000 382000 446000
2021-02-28 03:00 12.05 189000 744000 (1985) 49500 (1964) 210000 79000 88500 113000 139000 177000 282000 295000 382000 446000
2021-02-28 02:30 12.04 189000 744000 (1985) 49500 (1964) 210000 79000 88500 113000 139000 177000 282000 295000 382000 446000
2021-02-28 02:00 12.04 189000 744000 (1985) 49500 (1964) 210000 79000 88500 113000 139000 177000 282000 295000 382000 446000
2021-02-28 01:30 12.06 189000 744000 (1985) 49500 (1964) 210000 79000 88500 113000 139000 177000 282000 295000 382000 446000
2021-02-28 01:00 12.06 189000 744000 (1985) 49500 (1964) 210000 79000 88500 113000 139000 177000 282000 295000 382000 446000
2021-02-28 00:30 12.02 189000 744000 (1985) 49500 (1964) 210000 79000 88500 113000 139000 177000 282000 295000 382000 446000
2021-02-28 00:00 11.98 188000 744000 (1985) 49500 (1964) 210000 79000 88500 113000 139000 177000 282000 295000 382000 446000
2021-02-27 23:30 12.02 189000 711000 (1985) 53000 (1964) 209000 79700 90600 111000 120000 184000 265000 302000 380000 436000
2021-02-27 23:00 11.96 188000 711000 (1985) 53000 (1964) 209000 79700 90600 111000 120000 184000 265000 302000 380000 436000
2021-02-27 22:30 11.91 187000 711000 (1985) 53000 (1964) 209000 79700 90600 111000 120000 184000 265000 302000 380000 436000
2021-02-27 22:00 11.95 188000 711000 (1985) 53000 (1964) 209000 79700 90600 111000 120000 184000 265000 302000 380000 436000
2021-02-27 21:30 11.94 188000 711000 (1985) 53000 (1964) 209000 79700 90600 111000 120000 184000 265000 302000 380000 436000
2021-02-27 21:00 11.86 187000 711000 (1985) 53000 (1964) 209000 79700 90600 111000 120000 184000 265000 302000 380000 436000
2021-02-27 20:30 11.94 188000 711000 (1985) 53000 (1964) 209000 79700 90600 111000 120000 184000 265000 302000 380000 436000
2021-02-27 20:00 11.89 187000 711000 (1985) 53000 (1964) 209000 79700 90600 111000 120000 184000 265000 302000 380000 436000
2021-02-27 19:30 11.90 187000 711000 (1985) 53000 (1964) 209000 79700 90600 111000 120000 184000 265000 302000 380000 436000
2021-02-27 19:00 11.87 187000 711000 (1985) 53000 (1964) 209000 79700 90600 111000 120000 184000 265000 302000 380000 436000
2021-02-27 18:30 11.91 187000 711000 (1985) 53000 (1964) 209000 79700 90600 111000 120000 184000 265000 302000 380000 436000
2021-02-27 18:00 11.75 185000 711000 (1985) 53000 (1964) 209000 79700 90600 111000 120000 184000 265000 302000 380000 436000
2021-02-27 17:30 11.82 186000 711000 (1985) 53000 (1964) 209000 79700 90600 111000 120000 184000 265000 302000 380000 436000
2021-02-27 17:00 11.85 187000 711000 (1985) 53000 (1964) 209000 79700 90600 111000 120000 184000 265000 302000 380000 436000
2021-02-27 16:30 11.85 187000 711000 (1985) 53000 (1964) 209000 79700 90600 111000 120000 184000 265000 302000 380000 436000
2021-02-27 16:00 11.87 187000 711000 (1985) 53000 (1964) 209000 79700 90600 111000 120000 184000 265000 302000 380000 436000
2021-02-27 15:30 11.69 185000 711000 (1985) 53000 (1964) 209000 79700 90600 111000 120000 184000 265000 302000 380000 436000
2021-02-27 15:00 11.83 186000 711000 (1985) 53000 (1964) 209000 79700 90600 111000 120000 184000 265000 302000 380000 436000
2021-02-27 14:30 11.82 186000 711000 (1985) 53000 (1964) 209000 79700 90600 111000 120000 184000 265000 302000 380000 436000
2021-02-27 14:00 11.82 186000 711000 (1985) 53000 (1964) 209000 79700 90600 111000 120000 184000 265000 302000 380000 436000
2021-02-27 13:30 11.80 186000 711000 (1985) 53000 (1964) 209000 79700 90600 111000 120000 184000 265000 302000 380000 436000
2021-02-27 13:00 11.78 186000 711000 (1985) 53000 (1964) 209000 79700 90600 111000 120000 184000 265000 302000 380000 436000
2021-02-27 12:30 11.78 186000 711000 (1985) 53000 (1964) 209000 79700 90600 111000 120000 184000 265000 302000 380000 436000
2021-02-27 12:00 11.75 185000 711000 (1985) 53000 (1964) 209000 79700 90600 111000 120000 184000 265000 302000 380000 436000
2021-02-27 11:30 11.73 185000 711000 (1985) 53000 (1964) 209000 79700 90600 111000 120000 184000 265000 302000 380000 436000
2021-02-27 11:00 11.74 185000 711000 (1985) 53000 (1964) 209000 79700 90600 111000 120000 184000 265000 302000 380000 436000
2021-02-27 10:30 11.68 184000 711000 (1985) 53000 (1964) 209000 79700 90600 111000 120000 184000 265000 302000 380000 436000
2021-02-27 10:00 11.70 185000 711000 (1985) 53000 (1964) 209000 79700 90600 111000 120000 184000 265000 302000 380000 436000
2021-02-27 09:30 11.58 183000 711000 (1985) 53000 (1964) 209000 79700 90600 111000 120000 184000 265000 302000 380000 436000
2021-02-27 09:00 11.63 184000 711000 (1985) 53000 (1964) 209000 79700 90600 111000 120000 184000 265000 302000 380000 436000
2021-02-27 08:30 11.60 183000 711000 (1985) 53000 (1964) 209000 79700 90600 111000 120000 184000 265000 302000 380000 436000
2021-02-27 08:00 11.61 184000 711000 (1985) 53000 (1964) 209000 79700 90600 111000 120000 184000 265000 302000 380000 436000
2021-02-27 07:30 11.56 183000 711000 (1985) 53000 (1964) 209000 79700 90600 111000 120000 184000 265000 302000 380000 436000
2021-02-27 07:00 11.63 184000 711000 (1985) 53000 (1964) 209000 79700 90600 111000 120000 184000 265000 302000 380000 436000
2021-02-27 06:30 11.63 184000 711000 (1985) 53000 (1964) 209000 79700 90600 111000 120000 184000 265000 302000 380000 436000
2021-02-27 06:00 11.55 183000 711000 (1985) 53000 (1964) 209000 79700 90600 111000 120000 184000 265000 302000 380000 436000
2021-02-27 05:30 11.61 184000 711000 (1985) 53000 (1964) 209000 79700 90600 111000 120000 184000 265000 302000 380000 436000
2021-02-27 05:00 11.58 183000 711000 (1985) 53000 (1964) 209000 79700 90600 111000 120000 184000 265000 302000 380000 436000
2021-02-27 04:30 11.62 184000 711000 (1985) 53000 (1964) 209000 79700 90600 111000 120000 184000 265000 302000 380000 436000
2021-02-27 04:00 11.53 183000 711000 (1985) 53000 (1964) 209000 79700 90600 111000 120000 184000 265000 302000 380000 436000
2021-02-27 03:30 11.58 183000 711000 (1985) 53000 (1964) 209000 79700 90600 111000 120000 184000 265000 302000 380000 436000
2021-02-27 03:00 11.61 184000 711000 (1985) 53000 (1964) 209000 79700 90600 111000 120000 184000 265000 302000 380000 436000
2021-02-27 02:30 11.56 183000 711000 (1985) 53000 (1964) 209000 79700 90600 111000 120000 184000 265000 302000 380000 436000
2021-02-27 02:00 11.52 182000 711000 (1985) 53000 (1964) 209000 79700 90600 111000 120000 184000 265000 302000 380000 436000
2021-02-27 01:30 11.56 183000 711000 (1985) 53000 (1964) 209000 79700 90600 111000 120000 184000 265000 302000 380000 436000
2021-02-27 01:00 11.54 183000 711000 (1985) 53000 (1964) 209000 79700 90600 111000 120000 184000 265000 302000 380000 436000
2021-02-27 00:30 11.55 183000 711000 (1985) 53000 (1964) 209000 79700 90600 111000 120000 184000 265000 302000 380000 436000
2021-02-27 00:00 11.48 182000 711000 (1985) 53000 (1964) 209000 79700 90600 111000 120000 184000 265000 302000 380000 436000
2021-02-26 23:30 11.36 180000 653000 (1985) 52300 (1964) 207000 75800 85800 99000 114000 181000 261000 306000 374000 429000
2021-02-26 23:00 11.50 182000 653000 (1985) 52300 (1964) 207000 75800 85800 99000 114000 181000 261000 306000 374000 429000
2021-02-26 22:30 11.40 181000 653000 (1985) 52300 (1964) 207000 75800 85800 99000 114000 181000 261000 306000 374000 429000
2021-02-26 22:00 11.40 181000 653000 (1985) 52300 (1964) 207000 75800 85800 99000 114000 181000 261000 306000 374000 429000
2021-02-26 21:30 11.38 181000 653000 (1985) 52300 (1964) 207000 75800 85800 99000 114000 181000 261000 306000 374000 429000
2021-02-26 21:00 11.31 180000 653000 (1985) 52300 (1964) 207000 75800 85800 99000 114000 181000 261000 306000 374000 429000
2021-02-26 20:30 11.27 179000 653000 (1985) 52300 (1964) 207000 75800 85800 99000 114000 181000 261000 306000 374000 429000
2021-02-26 20:00 11.32 180000 653000 (1985) 52300 (1964) 207000 75800 85800 99000 114000 181000 261000 306000 374000 429000
2021-02-26 19:30 11.28 179000 653000 (1985) 52300 (1964) 207000 75800 85800 99000 114000 181000 261000 306000 374000 429000
2021-02-26 19:00 11.26 179000 653000 (1985) 52300 (1964) 207000 75800 85800 99000 114000 181000 261000 306000 374000 429000
2021-02-26 18:30 11.20 178000 653000 (1985) 52300 (1964) 207000 75800 85800 99000 114000 181000 261000 306000 374000 429000
2021-02-26 18:00 11.22 179000 653000 (1985) 52300 (1964) 207000 75800 85800 99000 114000 181000 261000 306000 374000 429000
2021-02-26 17:30 11.15 178000 653000 (1985) 52300 (1964) 207000 75800 85800 99000 114000 181000 261000 306000 374000 429000
2021-02-26 17:00 11.14 178000 653000 (1985) 52300 (1964) 207000 75800 85800 99000 114000 181000 261000 306000 374000 429000
2021-02-26 16:30 11.09 177000 653000 (1985) 52300 (1964) 207000 75800 85800 99000 114000 181000 261000 306000 374000 429000
2021-02-26 16:00 11.08 177000 653000 (1985) 52300 (1964) 207000 75800 85800 99000 114000 181000 261000 306000 374000 429000
2021-02-26 15:30 11.09 177000 653000 (1985) 52300 (1964) 207000 75800 85800 99000 114000 181000 261000 306000 374000 429000
2021-02-26 15:00 11.00 176000 653000 (1985) 52300 (1964) 207000 75800 85800 99000 114000 181000 261000 306000 374000 429000
2021-02-26 14:30 10.97 176000 653000 (1985) 52300 (1964) 207000 75800 85800 99000 114000 181000 261000 306000 374000 429000
2021-02-26 14:00 10.95 175000 653000 (1985) 52300 (1964) 207000 75800 85800 99000 114000 181000 261000 306000 374000 429000
2021-02-26 13:30 10.95 175000 653000 (1985) 52300 (1964) 207000 75800 85800 99000 114000 181000 261000 306000 374000 429000
2021-02-26 13:00 10.86 174000 653000 (1985) 52300 (1964) 207000 75800 85800 99000 114000 181000 261000 306000 374000 429000
2021-02-26 12:30 10.82 174000 653000 (1985) 52300 (1964) 207000 75800 85800 99000 114000 181000 261000 306000 374000 429000
2021-02-26 12:00 10.77 173000 653000 (1985) 52300 (1964) 207000 75800 85800 99000 114000 181000 261000 306000 374000 429000
2021-02-26 11:30 10.73 173000 653000 (1985) 52300 (1964) 207000 75800 85800 99000 114000 181000 261000 306000 374000 429000
2021-02-26 11:00 10.59 171000 653000 (1985) 52300 (1964) 207000 75800 85800 99000 114000 181000 261000 306000 374000 429000
2021-02-26 10:30 10.56 171000 653000 (1985) 52300 (1964) 207000 75800 85800 99000 114000 181000 261000 306000 374000 429000
2021-02-26 10:00 10.52 170000 653000 (1985) 52300 (1964) 207000 75800 85800 99000 114000 181000 261000 306000 374000 429000
2021-02-26 09:30 10.40 169000 653000 (1985) 52300 (1964) 207000 75800 85800 99000 114000 181000 261000 306000 374000 429000
2021-02-26 09:00 10.36 168000 653000 (1985) 52300 (1964) 207000 75800 85800 99000 114000 181000 261000 306000 374000 429000
2021-02-26 08:30 10.29 167000 653000 (1985) 52300 (1964) 207000 75800 85800 99000 114000 181000 261000 306000 374000 429000
2021-02-26 08:00 10.22 166000 653000 (1985) 52300 (1964) 207000 75800 85800 99000 114000 181000 261000 306000 374000 429000
2021-02-26 07:30 10.15 166000 653000 (1985) 52300 (1964) 207000 75800 85800 99000 114000 181000 261000 306000 374000 429000
2021-02-26 07:00 10.06 165000 653000 (1985) 52300 (1964) 207000 75800 85800 99000 114000 181000 261000 306000 374000 429000
2021-02-26 06:30 1 164000 653000 (1985) 52300 (1964) 207000 75800 85800 99000 114000 181000 261000 306000 374000 429000
2021-02-26 06:00 9.94 163000 653000 (1985) 52300 (1964) 207000 75800 85800 99000 114000 181000 261000 306000 374000 429000
2021-02-26 05:30 9.83 162000 653000 (1985) 52300 (1964) 207000 75800 85800 99000 114000 181000 261000 306000 374000 429000
2021-02-26 05:00 9.70 160000 653000 (1985) 52300 (1964) 207000 75800 85800 99000 114000 181000 261000 306000 374000 429000
2021-02-26 04:30 9.59 159000 653000 (1985) 52300 (1964) 207000 75800 85800 99000 114000 181000 261000 306000 374000 429000
2021-02-26 04:00 9.53 158000 653000 (1985) 52300 (1964) 207000 75800 85800 99000 114000 181000 261000 306000 374000 429000
2021-02-26 03:30 9.41 157000 653000 (1985) 52300 (1964) 207000 75800 85800 99000 114000 181000 261000 306000 374000 429000
2021-02-26 03:00 9.37 157000 653000 (1985) 52300 (1964) 207000 75800 85800 99000 114000 181000 261000 306000 374000 429000
2021-02-26 02:30 9.21 155000 653000 (1985) 52300 (1964) 207000 75800 85800 99000 114000 181000 261000 306000 374000 429000
2021-02-26 02:00 9.16 154000 653000 (1985) 52300 (1964) 207000 75800 85800 99000 114000 181000 261000 306000 374000 429000
2021-02-26 01:30 9.02 153000 653000 (1985) 52300 (1964) 207000 75800 85800 99000 114000 181000 261000 306000 374000 429000
2021-02-26 01:00 8.92 152000 653000 (1985) 52300 (1964) 207000 75800 85800 99000 114000 181000 261000 306000 374000 429000
2021-02-26 00:30 8.83 151000 653000 (1985) 52300 (1964) 207000 75800 85800 99000 114000 181000 261000 306000 374000 429000
2021-02-26 00:00 8.71 149000 653000 (1985) 52300 (1964) 207000 75800 85800 99000 114000 181000 261000 306000 374000 429000
2021-02-25 23:30 8.61 148000 589000 (1985) 51600 (1964) 205000 72700 80500 98700 108000 183000 268000 292000 379000 425000
2021-02-25 23:00 8.51 147000 589000 (1985) 51600 (1964) 205000 72700 80500 98700 108000 183000 268000 292000 379000 425000
2021-02-25 22:30 8.41 146000 589000 (1985) 51600 (1964) 205000 72700 80500 98700 108000 183000 268000 292000 379000 425000
2021-02-25 22:00 8.27 145000 589000 (1985) 51600 (1964) 205000 72700 80500 98700 108000 183000 268000 292000 379000 425000
2021-02-25 21:30 8.16 144000 589000 (1985) 51600 (1964) 205000 72700 80500 98700 108000 183000 268000 292000 379000 425000
2021-02-25 21:00 8.04 143000 589000 (1985) 51600 (1964) 205000 72700 80500 98700 108000 183000 268000 292000 379000 425000
2021-02-25 20:30 7.92 141000 589000 (1985) 51600 (1964) 205000 72700 80500 98700 108000 183000 268000 292000 379000 425000
2021-02-25 20:00 7.82 140000 589000 (1985) 51600 (1964) 205000 72700 80500 98700 108000 183000 268000 292000 379000 425000
2021-02-25 19:30 7.71 139000 589000 (1985) 51600 (1964) 205000 72700 80500 98700 108000 183000 268000 292000 379000 425000
2021-02-25 19:00 7.60 138000 589000 (1985) 51600 (1964) 205000 72700 80500 98700 108000 183000 268000 292000 379000 425000
2021-02-25 18:30 7.48 137000 589000 (1985) 51600 (1964) 205000 72700 80500 98700 108000 183000 268000 292000 379000 425000
2021-02-25 18:00 7.35 136000 589000 (1985) 51600 (1964) 205000 72700 80500 98700 108000 183000 268000 292000 379000 425000
2021-02-25 17:30 7.24 135000 589000 (1985) 51600 (1964) 205000 72700 80500 98700 108000 183000 268000 292000 379000 425000
2021-02-25 17:00 7.14 134000 589000 (1985) 51600 (1964) 205000 72700 80500 98700 108000 183000 268000 292000 379000 425000
2021-02-25 16:30 7.04 133000 589000 (1985) 51600 (1964) 205000 72700 80500 98700 108000 183000 268000 292000 379000 425000
2021-02-25 16:00 6.89 131000 589000 (1985) 51600 (1964) 205000 72700 80500 98700 108000 183000 268000 292000 379000 425000
2021-02-25 15:30 6.81 131000 589000 (1985) 51600 (1964) 205000 72700 80500 98700 108000 183000 268000 292000 379000 425000
2021-02-25 15:00 6.70 129000 589000 (1985) 51600 (1964) 205000 72700 80500 98700 108000 183000 268000 292000 379000 425000
2021-02-25 14:30 6.61 129000 589000 (1985) 51600 (1964) 205000 72700 80500 98700 108000 183000 268000 292000 379000 425000
2021-02-25 14:00 6.52 128000 589000 (1985) 51600 (1964) 205000 72700 80500 98700 108000 183000 268000 292000 379000 425000
2021-02-25 13:30 6.39 127000 589000 (1985) 51600 (1964) 205000 72700 80500 98700 108000 183000 268000 292000 379000 425000
2021-02-25 13:00 6.31 126000 589000 (1985) 51600 (1964) 205000 72700 80500 98700 108000 183000 268000 292000 379000 425000
2021-02-25 12:30 6.23 125000 589000 (1985) 51600 (1964) 205000 72700 80500 98700 108000 183000 268000 292000 379000 425000
2021-02-25 12:00 6.13 124000 589000 (1985) 51600 (1964) 205000 72700 80500 98700 108000 183000 268000 292000 379000 425000
2021-02-25 11:30 6.04 123000 589000 (1985) 51600 (1964) 205000 72700 80500 98700 108000 183000 268000 292000 379000 425000
2021-02-25 11:00 5.94 122000 589000 (1985) 51600 (1964) 205000 72700 80500 98700 108000 183000 268000 292000 379000 425000
2021-02-25 10:30 5.86 122000 589000 (1985) 51600 (1964) 205000 72700 80500 98700 108000 183000 268000 292000 379000 425000
2021-02-25 10:00 5.80 121000 589000 (1985) 51600 (1964) 205000 72700 80500 98700 108000 183000 268000 292000 379000 425000
2021-02-25 09:30 5.70 120000 589000 (1985) 51600 (1964) 205000 72700 80500 98700 108000 183000 268000 292000 379000 425000
2021-02-25 09:00 5.64 120000 589000 (1985) 51600 (1964) 205000 72700 80500 98700 108000 183000 268000 292000 379000 425000
2021-02-25 08:30 5.59 119000 589000 (1985) 51600 (1964) 205000 72700 80500 98700 108000 183000 268000 292000 379000 425000
2021-02-25 08:00 5.54 119000 589000 (1985) 51600 (1964) 205000 72700 80500 98700 108000 183000 268000 292000 379000 425000
2021-02-25 07:30 5.52 119000 589000 (1985) 51600 (1964) 205000 72700 80500 98700 108000 183000 268000 292000 379000 425000
2021-02-25 07:00 5.45 118000 589000 (1985) 51600 (1964) 205000 72700 80500 98700 108000 183000 268000 292000 379000 425000
2021-02-25 06:30 5.41 118000 589000 (1985) 51600 (1964) 205000 72700 80500 98700 108000 183000 268000 292000 379000 425000
2021-02-25 06:00 5.39 117000 589000 (1985) 51600 (1964) 205000 72700 80500 98700 108000 183000 268000 292000 379000 425000
2021-02-25 05:30 5.37 117000 589000 (1985) 51600 (1964) 205000 72700 80500 98700 108000 183000 268000 292000 379000 425000
2021-02-25 05:00 5.34 117000 589000 (1985) 51600 (1964) 205000 72700 80500 98700 108000 183000 268000 292000 379000 425000
2021-02-25 04:30 5.33 117000 589000 (1985) 51600 (1964) 205000 72700 80500 98700 108000 183000 268000 292000 379000 425000
2021-02-25 04:00 5.33 117000 589000 (1985) 51600 (1964) 205000 72700 80500 98700 108000 183000 268000 292000 379000 425000
2021-02-25 03:30 5.30 117000 589000 (1985) 51600 (1964) 205000 72700 80500 98700 108000 183000 268000 292000 379000 425000
2021-02-25 03:00 5.29 116000 589000 (1985) 51600 (1964) 205000 72700 80500 98700 108000 183000 268000 292000 379000 425000
2021-02-25 02:30 5.27 116000 589000 (1985) 51600 (1964) 205000 72700 80500 98700 108000 183000 268000 292000 379000 425000
2021-02-25 02:00 5.26 116000 589000 (1985) 51600 (1964) 205000 72700 80500 98700 108000 183000 268000 292000 379000 425000
2021-02-25 01:30 5.26 116000 589000 (1985) 51600 (1964) 205000 72700 80500 98700 108000 183000 268000 292000 379000 425000
2021-02-25 01:00 5.27 116000 589000 (1985) 51600 (1964) 205000 72700 80500 98700 108000 183000 268000 292000 379000 425000
2021-02-25 00:30 5.25 116000 589000 (1985) 51600 (1964) 205000 72700 80500 98700 108000 183000 268000 292000 379000 425000
2021-02-25 00:00 5.25 116000 589000 (1985) 51600 (1964) 205000 72700 80500 98700 108000 183000 268000 292000 379000 425000
2021-02-24 23:30 5.23 116000 514000 (1985) 53700 (1964) 201000 69200 76700 99800 112000 183000 261000 287000 380000 428000
2021-02-24 23:00 5.24 116000 514000 (1985) 53700 (1964) 201000 69200 76700 99800 112000 183000 261000 287000 380000 428000
2021-02-24 22:30 5.27 116000 514000 (1985) 53700 (1964) 201000 69200 76700 99800 112000 183000 261000 287000 380000 428000
2021-02-24 22:00 5.24 116000 514000 (1985) 53700 (1964) 201000 69200 76700 99800 112000 183000 261000 287000 380000 428000
2021-02-24 21:30 5.24 116000 514000 (1985) 53700 (1964) 201000 69200 76700 99800 112000 183000 261000 287000 380000 428000
2021-02-24 21:00 5.23 116000 514000 (1985) 53700 (1964) 201000 69200 76700 99800 112000 183000 261000 287000 380000 428000
2021-02-24 20:30 5.24 116000 514000 (1985) 53700 (1964) 201000 69200 76700 99800 112000 183000 261000 287000 380000 428000
2021-02-24 20:00 5.25 116000 514000 (1985) 53700 (1964) 201000 69200 76700 99800 112000 183000 261000 287000 380000 428000
2021-02-24 19:30 5.24 116000 514000 (1985) 53700 (1964) 201000 69200 76700 99800 112000 183000 261000 287000 380000 428000
2021-02-24 19:00 5.25 116000 514000 (1985) 53700 (1964) 201000 69200 76700 99800 112000 183000 261000 287000 380000 428000
2021-02-24 18:30 5.24 116000 514000 (1985) 53700 (1964) 201000 69200 76700 99800 112000 183000 261000 287000 380000 428000
2021-02-24 18:00 5.25 116000 514000 (1985) 53700 (1964) 201000 69200 76700 99800 112000 183000 261000 287000 380000 428000
2021-02-24 17:30 5.25 116000 514000 (1985) 53700 (1964) 201000 69200 76700 99800 112000 183000 261000 287000 380000 428000
2021-02-24 17:00 5.23 116000 514000 (1985) 53700 (1964) 201000 69200 76700 99800 112000 183000 261000 287000 380000 428000
2021-02-24 16:30 5.23 116000 514000 (1985) 53700 (1964) 201000 69200 76700 99800 112000 183000 261000 287000 380000 428000
2021-02-24 16:00 5.14 115000 514000 (1985) 53700 (1964) 201000 69200 76700 99800 112000 183000 261000 287000 380000 428000
2021-02-24 15:30 5.20 116000 514000 (1985) 53700 (1964) 201000 69200 76700 99800 112000 183000 261000 287000 380000 428000
2021-02-24 15:00 5.12 115000 514000 (1985) 53700 (1964) 201000 69200 76700 99800 112000 183000 261000 287000 380000 428000
2021-02-24 14:30 5.14 115000 514000 (1985) 53700 (1964) 201000 69200 76700 99800 112000 183000 261000 287000 380000 428000
2021-02-24 14:00 5.13 115000 514000 (1985) 53700 (1964) 201000 69200 76700 99800 112000 183000 261000 287000 380000 428000
2021-02-24 13:30 5.12 115000 514000 (1985) 53700 (1964) 201000 69200 76700 99800 112000 183000 261000 287000 380000 428000
2021-02-24 13:00 5.13 115000 514000 (1985) 53700 (1964) 201000 69200 76700 99800 112000 183000 261000 287000 380000 428000
2021-02-24 12:30 5.07 115000 514000 (1985) 53700 (1964) 201000 69200 76700 99800 112000 183000 261000 287000 380000 428000
2021-02-24 12:00 5.07 115000 514000 (1985) 53700 (1964) 201000 69200 76700 99800 112000 183000 261000 287000 380000 428000
2021-02-24 11:30 5.07 115000 514000 (1985) 53700 (1964) 201000 69200 76700 99800 112000 183000 261000 287000 380000 428000
2021-02-24 11:00 5.06 114000 514000 (1985) 53700 (1964) 201000 69200 76700 99800 112000 183000 261000 287000 380000 428000
2021-02-24 10:30 5.01 114000 514000 (1985) 53700 (1964) 201000 69200 76700 99800 112000 183000 261000 287000 380000 428000
2021-02-24 10:00 5.02 114000 514000 (1985) 53700 (1964) 201000 69200 76700 99800 112000 183000 261000 287000 380000 428000
2021-02-24 09:30 4.98 114000 514000 (1985) 53700 (1964) 201000 69200 76700 99800 112000 183000 261000 287000 380000 428000
2021-02-24 09:00 4.95 113000 514000 (1985) 53700 (1964) 201000 69200 76700 99800 112000 183000 261000 287000 380000 428000
2021-02-24 08:30 4.96 114000 514000 (1985) 53700 (1964) 201000 69200 76700 99800 112000 183000 261000 287000 380000 428000
2021-02-24 08:00 4.94 113000 514000 (1985) 53700 (1964) 201000 69200 76700 99800 112000 183000 261000 287000 380000 428000
2021-02-24 07:30 4.92 113000 514000 (1985) 53700 (1964) 201000 69200 76700 99800 112000 183000 261000 287000 380000 428000
2021-02-24 07:00 4.92 113000 514000 (1985) 53700 (1964) 201000 69200 76700 99800 112000 183000 261000 287000 380000 428000
2021-02-24 06:30 4.87 113000 514000 (1985) 53700 (1964) 201000 69200 76700 99800 112000 183000 261000 287000 380000 428000
2021-02-24 06:00 4.88 113000 514000 (1985) 53700 (1964) 201000 69200 76700 99800 112000 183000 261000 287000 380000 428000
2021-02-24 05:30 4.87 113000 514000 (1985) 53700 (1964) 201000 69200 76700 99800 112000 183000 261000 287000 380000 428000
2021-02-24 05:00 4.83 112000 514000 (1985) 53700 (1964) 201000 69200 76700 99800 112000 183000 261000 287000 380000 428000
2021-02-24 04:30 4.82 112000 514000 (1985) 53700 (1964) 201000 69200 76700 99800 112000 183000 261000 287000 380000 428000
2021-02-24 04:00 4.80 112000 514000 (1985) 53700 (1964) 201000 69200 76700 99800 112000 183000 261000 287000 380000 428000
2021-02-24 03:30 4.76 112000 514000 (1985) 53700 (1964) 201000 69200 76700 99800 112000 183000 261000 287000 380000 428000
2021-02-24 03:00 4.75 112000 514000 (1985) 53700 (1964) 201000 69200 76700 99800 112000 183000 261000 287000 380000 428000
2021-02-24 02:30 4.73 112000 514000 (1985) 53700 (1964) 201000 69200 76700 99800 112000 183000 261000 287000 380000 428000
2021-02-24 02:00 4.68 111000 514000 (1985) 53700 (1964) 201000 69200 76700 99800 112000 183000 261000 287000 380000 428000
2021-02-24 01:30 4.65 111000 514000 (1985) 53700 (1964) 201000 69200 76700 99800 112000 183000 261000 287000 380000 428000
2021-02-24 01:00 4.64 111000 514000 (1985) 53700 (1964) 201000 69200 76700 99800 112000 183000 261000 287000 380000 428000
2021-02-24 00:30 4.60 110000 514000 (1985) 53700 (1964) 201000 69200 76700 99800 112000 183000 261000 287000 380000 428000
2021-02-24 00:00 4.57 110000 514000 (1985) 53700 (1964) 201000 69200 76700 99800 112000 183000 261000 287000 380000 428000
2021-02-23 23:30 4.60 110000 471000 (1982) 53000 (1964) 194000 65400 74700 105000 110000 180000 258000 270000 362000 414000
2021-02-23 23:00 4.55 110000 471000 (1982) 53000 (1964) 194000 65400 74700 105000 110000 180000 258000 270000 362000 414000
2021-02-23 22:30 4.50 110000 471000 (1982) 53000 (1964) 194000 65400 74700 105000 110000 180000 258000 270000 362000 414000
2021-02-23 22:00 4.46 109000 471000 (1982) 53000 (1964) 194000 65400 74700 105000 110000 180000 258000 270000 362000 414000
2021-02-23 21:30 4.41 109000 471000 (1982) 53000 (1964) 194000 65400 74700 105000 110000 180000 258000 270000 362000 414000
2021-02-23 21:00 4.40 109000 471000 (1982) 53000 (1964) 194000 65400 74700 105000 110000 180000 258000 270000 362000 414000
2021-02-23 20:30 4.36 108000 471000 (1982) 53000 (1964) 194000 65400 74700 105000 110000 180000 258000 270000 362000 414000
2021-02-23 20:00 4.32 108000 471000 (1982) 53000 (1964) 194000 65400 74700 105000 110000 180000 258000 270000 362000 414000
2021-02-23 19:30 4.29 108000 471000 (1982) 53000 (1964) 194000 65400 74700 105000 110000 180000 258000 270000 362000 414000
2021-02-23 19:00 4.31 108000 471000 (1982) 53000 (1964) 194000 65400 74700 105000 110000 180000 258000 270000 362000 414000
2021-02-23 18:30 4.26 108000 471000 (1982) 53000 (1964) 194000 65400 74700 105000 110000 180000 258000 270000 362000 414000
2021-02-23 18:00 4.24 107000 471000 (1982) 53000 (1964) 194000 65400 74700 105000 110000 180000 258000 270000 362000 414000
2021-02-23 17:30 4.23 107000 471000 (1982) 53000 (1964) 194000 65400 74700 105000 110000 180000 258000 270000 362000 414000
2021-02-23 17:00 4.24 107000 471000 (1982) 53000 (1964) 194000 65400 74700 105000 110000 180000 258000 270000 362000 414000
2021-02-23 16:30 4.24 107000 471000 (1982) 53000 (1964) 194000 65400 74700 105000 110000 180000 258000 270000 362000 414000
2021-02-23 16:00 4.19 107000 471000 (1982) 53000 (1964) 194000 65400 74700 105000 110000 180000 258000 270000 362000 414000
2021-02-23 15:30 4.15 107000 471000 (1982) 53000 (1964) 194000 65400 74700 105000 110000 180000 258000 270000 362000 414000
2021-02-23 15:00 4.12 106000 471000 (1982) 53000 (1964) 194000 65400 74700 105000 110000 180000 258000 270000 362000 414000
2021-02-23 14:30 4.13 106000 471000 (1982) 53000 (1964) 194000 65400 74700 105000 110000 180000 258000 270000 362000 414000
2021-02-23 14:00 4.11 106000 471000 (1982) 53000 (1964) 194000 65400 74700 105000 110000 180000 258000 270000 362000 414000
2021-02-23 13:30 4.11 106000 471000 (1982) 53000 (1964) 194000 65400 74700 105000 110000 180000 258000 270000 362000 414000
2021-02-23 13:00 4.11 106000 471000 (1982) 53000 (1964) 194000 65400 74700 105000 110000 180000 258000 270000 362000 414000
2021-02-23 12:30 4.13 106000 471000 (1982) 53000 (1964) 194000 65400 74700 105000 110000 180000 258000 270000 362000 414000
2021-02-23 12:00 4.11 106000 471000 (1982) 53000 (1964) 194000 65400 74700 105000 110000 180000 258000 270000 362000 414000
2021-02-23 11:30 4.08 106000 471000 (1982) 53000 (1964) 194000 65400 74700 105000 110000 180000 258000 270000 362000 414000
2021-02-23 11:00 4.09 106000 471000 (1982) 53000 (1964) 194000 65400 74700 105000 110000 180000 258000 270000 362000 414000
2021-02-23 10:30 4.10 106000 471000 (1982) 53000 (1964) 194000 65400 74700 105000 110000 180000 258000 270000 362000 414000
2021-02-23 10:00 4.09 106000 471000 (1982) 53000 (1964) 194000 65400 74700 105000 110000 180000 258000 270000 362000 414000
2021-02-23 09:30 4.10 106000 471000 (1982) 53000 (1964) 194000 65400 74700 105000 110000 180000 258000 270000 362000 414000
2021-02-23 09:00 4.04 106000 471000 (1982) 53000 (1964) 194000 65400 74700 105000 110000 180000 258000 270000 362000 414000
2021-02-23 08:30 4.03 106000 471000 (1982) 53000 (1964) 194000 65400 74700 105000 110000 180000 258000 270000 362000 414000
2021-02-23 08:00 4.00 105000 471000 (1982) 53000 (1964) 194000 65400 74700 105000 110000 180000 258000 270000 362000 414000
2021-02-23 07:30 4.00 105000 471000 (1982) 53000 (1964) 194000 65400 74700 105000 110000 180000 258000 270000 362000 414000
2021-02-23 07:00 3.99 105000 471000 (1982) 53000 (1964) 194000 65400 74700 105000 110000 180000 258000 270000 362000 414000
2021-02-23 06:30 3.97 105000 471000 (1982) 53000 (1964) 194000 65400 74700 105000 110000 180000 258000 270000 362000 414000
2021-02-23 06:00 3.98 105000 471000 (1982) 53000 (1964) 194000 65400 74700 105000 110000 180000 258000 270000 362000 414000
2021-02-23 05:30 3.98 105000 471000 (1982) 53000 (1964) 194000 65400 74700 105000 110000 180000 258000 270000 362000 414000
2021-02-23 05:00 3.97 105000 471000 (1982) 53000 (1964) 194000 65400 74700 105000 110000 180000 258000 270000 362000 414000
2021-02-23 04:30 3.96 105000 471000 (1982) 53000 (1964) 194000 65400 74700 105000 110000 180000 258000 270000 362000 414000
2021-02-23 04:00 3.96 105000 471000 (1982) 53000 (1964) 194000 65400 74700 105000 110000 180000 258000 270000 362000 414000
2021-02-23 03:30 3.95 105000 471000 (1982) 53000 (1964) 194000 65400 74700 105000 110000 180000 258000 270000 362000 414000
2021-02-23 03:00 3.95 105000 471000 (1982) 53000 (1964) 194000 65400 74700 105000 110000 180000 258000 270000 362000 414000
2021-02-23 02:30 3.93 105000 471000 (1982) 53000 (1964) 194000 65400 74700 105000 110000 180000 258000 270000 362000 414000
2021-02-23 02:00 3.91 105000 471000 (1982) 53000 (1964) 194000 65400 74700 105000 110000 180000 258000 270000 362000 414000
2021-02-23 01:30 3.91 105000 471000 (1982) 53000 (1964) 194000 65400 74700 105000 110000 180000 258000 270000 362000 414000
2021-02-23 01:00 3.89 104000 471000 (1982) 53000 (1964) 194000 65400 74700 105000 110000 180000 258000 270000 362000 414000
2021-02-23 00:30 3.86 104000 471000 (1982) 53000 (1964) 194000 65400 74700 105000 110000 180000 258000 270000 362000 414000
2021-02-23 00:00 3.81 104000 471000 (1982) 53000 (1964) 194000 65400 74700 105000 110000 180000 258000 270000 362000 414000
2021-02-22 23:30 3.64 102000 439000 (1982) 55800 (1964) 182000 63400 75000 108000 111000 172000 236000 255000 320000 386000
2021-02-22 23:00 3.80 104000 439000 (1982) 55800 (1964) 182000 63400 75000 108000 111000 172000 236000 255000 320000 386000
2021-02-22 22:30 3.78 104000 439000 (1982) 55800 (1964) 182000 63400 75000 108000 111000 172000 236000 255000 320000 386000
2021-02-22 22:00 3.76 103000 439000 (1982) 55800 (1964) 182000 63400 75000 108000 111000 172000 236000 255000 320000 386000
2021-02-22 21:30 3.76 103000 439000 (1982) 55800 (1964) 182000 63400 75000 108000 111000 172000 236000 255000 320000 386000
2021-02-22 21:00 3.72 103000 439000 (1982) 55800 (1964) 182000 63400 75000 108000 111000 172000 236000 255000 320000 386000
2021-02-22 20:30 3.72 103000 439000 (1982) 55800 (1964) 182000 63400 75000 108000 111000 172000 236000 255000 320000 386000
2021-02-22 20:00 3.71 103000 439000 (1982) 55800 (1964) 182000 63400 75000 108000 111000 172000 236000 255000 320000 386000
2021-02-22 19:30 3.71 103000 439000 (1982) 55800 (1964) 182000 63400 75000 108000 111000 172000 236000 255000 320000 386000
2021-02-22 19:00 3.73 103000 439000 (1982) 55800 (1964) 182000 63400 75000 108000 111000 172000 236000 255000 320000 386000
2021-02-22 18:30 3.73 103000 439000 (1982) 55800 (1964) 182000 63400 75000 108000 111000 172000 236000 255000 320000 386000
2021-02-22 18:00 3.74 103000 439000 (1982) 55800 (1964) 182000 63400 75000 108000 111000 172000 236000 255000 320000 386000
2021-02-22 17:30 3.75 103000 439000 (1982) 55800 (1964) 182000 63400 75000 108000 111000 172000 236000 255000 320000 386000
2021-02-22 17:00 3.75 103000 439000 (1982) 55800 (1964) 182000 63400 75000 108000 111000 172000 236000 255000 320000 386000
2021-02-22 16:30 3.77 103000 439000 (1982) 55800 (1964) 182000 63400 75000 108000 111000 172000 236000 255000 320000 386000
2021-02-22 16:00 3.77 103000 439000 (1982) 55800 (1964) 182000 63400 75000 108000 111000 172000 236000 255000 320000 386000
2021-02-22 15:30 3.78 104000 439000 (1982) 55800 (1964) 182000 63400 75000 108000 111000 172000 236000 255000 320000 386000
2021-02-22 15:00 3.80 104000 439000 (1982) 55800 (1964) 182000 63400 75000 108000 111000 172000 236000 255000 320000 386000
2021-02-22 14:30 3.80 104000 439000 (1982) 55800 (1964) 182000 63400 75000 108000 111000 172000 236000 255000 320000 386000
2021-02-22 14:00 3.83 104000 439000 (1982) 55800 (1964) 182000 63400 75000 108000 111000 172000 236000 255000 320000 386000
2021-02-22 13:30 3.83 104000 439000 (1982) 55800 (1964) 182000 63400 75000 108000 111000 172000 236000 255000 320000 386000
2021-02-22 13:00 3.83 104000 439000 (1982) 55800 (1964) 182000 63400 75000 108000 111000 172000 236000 255000 320000 386000
2021-02-22 12:30 3.85 104000 439000 (1982) 55800 (1964) 182000 63400 75000 108000 111000 172000 236000 255000 320000 386000
2021-02-22 12:00 3.88 104000 439000 (1982) 55800 (1964) 182000 63400 75000 108000 111000 172000 236000 255000 320000 386000
2021-02-22 11:30 3.90 104000 439000 (1982) 55800 (1964) 182000 63400 75000 108000 111000 172000 236000 255000 320000 386000
2021-02-22 11:00 3.87 104000 439000 (1982) 55800 (1964) 182000 63400 75000 108000 111000 172000 236000 255000 320000 386000
2021-02-22 10:30 3.90 104000 439000 (1982) 55800 (1964) 182000 63400 75000 108000 111000 172000 236000 255000 320000 386000
2021-02-22 10:00 3.93 105000 439000 (1982) 55800 (1964) 182000 63400 75000 108000 111000 172000 236000 255000 320000 386000
2021-02-22 09:30 3.93 105000 439000 (1982) 55800 (1964) 182000 63400 75000 108000 111000 172000 236000 255000 320000 386000
2021-02-22 09:00 3.92 105000 439000 (1982) 55800 (1964) 182000 63400 75000 108000 111000 172000 236000 255000 320000 386000
2021-02-22 08:30 3.94 105000 439000 (1982) 55800 (1964) 182000 63400 75000 108000 111000 172000 236000 255000 320000 386000
2021-02-22 08:00 3.96 105000 439000 (1982) 55800 (1964) 182000 63400 75000 108000 111000 172000 236000 255000 320000 386000
2021-02-22 07:30 3.98 105000 439000 (1982) 55800 (1964) 182000 63400 75000 108000 111000 172000 236000 255000 320000 386000
2021-02-22 07:00 4.00 105000 439000 (1982) 55800 (1964) 182000 63400 75000 108000 111000 172000 236000 255000 320000 386000
2021-02-22 06:30 4.03 106000 439000 (1982) 55800 (1964) 182000 63400 75000 108000 111000 172000 236000 255000 320000 386000
2021-02-22 06:00 4.04 106000 439000 (1982) 55800 (1964) 182000 63400 75000 108000 111000 172000 236000 255000 320000 386000
2021-02-22 05:30 4.05 106000 439000 (1982) 55800 (1964) 182000 63400 75000 108000 111000 172000 236000 255000 320000 386000
2021-02-22 05:00 4.11 106000 439000 (1982) 55800 (1964) 182000 63400 75000 108000 111000 172000 236000 255000 320000 386000
2021-02-22 04:30 4.11 106000 439000 (1982) 55800 (1964) 182000 63400 75000 108000 111000 172000 236000 255000 320000 386000
2021-02-22 04:00 4.14 107000 439000 (1982) 55800 (1964) 182000 63400 75000 108000 111000 172000 236000 255000 320000 386000
2021-02-22 03:30 4.14 107000 439000 (1982) 55800 (1964) 182000 63400 75000 108000 111000 172000 236000 255000 320000 386000
2021-02-22 03:00 4.14 107000 439000 (1982) 55800 (1964) 182000 63400 75000 108000 111000 172000 236000 255000 320000 386000
2021-02-22 02:30 4.22 107000 439000 (1982) 55800 (1964) 182000 63400 75000 108000 111000 172000 236000 255000 320000 386000
2021-02-22 02:00 4.21 107000 439000 (1982) 55800 (1964) 182000 63400 75000 108000 111000 172000 236000 255000 320000 386000
2021-02-22 01:30 4.22 107000 439000 (1982) 55800 (1964) 182000 63400 75000 108000 111000 172000 236000 255000 320000 386000
2021-02-22 01:00 4.22 107000 439000 (1982) 55800 (1964) 182000 63400 75000 108000 111000 172000 236000 255000 320000 386000
2021-02-22 00:30 4.24 107000 439000 (1982) 55800 (1964) 182000 63400 75000 108000 111000 172000 236000 255000 320000 386000
2021-02-22 00:00 4.26 108000 439000 (1982) 55800 (1964) 182000 63400 75000 108000 111000 172000 236000 255000 320000 386000
2021-02-21 23:30 4.28 108000 406000 (1982) 53700 (1964) 172000 61300 75800 97800 103000 158000 215000 252000 301000 356000
2021-02-21 23:00 4.29 108000 406000 (1982) 53700 (1964) 172000 61300 75800 97800 103000 158000 215000 252000 301000 356000
2021-02-21 22:30 4.32 108000 406000 (1982) 53700 (1964) 172000 61300 75800 97800 103000 158000 215000 252000 301000 356000
2021-02-21 22:00 4.35 108000 406000 (1982) 53700 (1964) 172000 61300 75800 97800 103000 158000 215000 252000 301000 356000
2021-02-21 21:30 4.36 108000 406000 (1982) 53700 (1964) 172000 61300 75800 97800 103000 158000 215000 252000 301000 356000
2021-02-21 21:00 4.38 109000 406000 (1982) 53700 (1964) 172000 61300 75800 97800 103000 158000 215000 252000 301000 356000
2021-02-21 20:30 4.41 109000 406000 (1982) 53700 (1964) 172000 61300 75800 97800 103000 158000 215000 252000 301000 356000
2021-02-21 20:00 4.42 109000 406000 (1982) 53700 (1964) 172000 61300 75800 97800 103000 158000 215000 252000 301000 356000
2021-02-21 19:30 4.46 109000 406000 (1982) 53700 (1964) 172000 61300 75800 97800 103000 158000 215000 252000 301000 356000
2021-02-21 19:00 4.48 109000 406000 (1982) 53700 (1964) 172000 61300 75800 97800 103000 158000 215000 252000 301000 356000
2021-02-21 18:30 4.49 109000 406000 (1982) 53700 (1964) 172000 61300 75800 97800 103000 158000 215000 252000 301000 356000
2021-02-21 18:00 4.52 110000 406000 (1982) 53700 (1964) 172000 61300 75800 97800 103000 158000 215000 252000 301000 356000
2021-02-21 17:30 4.55 110000 406000 (1982) 53700 (1964) 172000 61300 75800 97800 103000 158000 215000 252000 301000 356000
2021-02-21 17:00 4.60 110000 406000 (1982) 53700 (1964) 172000 61300 75800 97800 103000 158000 215000 252000 301000 356000
2021-02-21 16:30 4.61 111000 406000 (1982) 53700 (1964) 172000 61300 75800 97800 103000 158000 215000 252000 301000 356000
2021-02-21 16:00 4.64 111000 406000 (1982) 53700 (1964) 172000 61300 75800 97800 103000 158000 215000 252000 301000 356000
2021-02-21 15:30 4.69 111000 406000 (1982) 53700 (1964) 172000 61300 75800 97800 103000 158000 215000 252000 301000 356000
2021-02-21 15:00 4.73 112000 406000 (1982) 53700 (1964) 172000 61300 75800 97800 103000 158000 215000 252000 301000 356000
2021-02-21 14:30 4.75 112000 406000 (1982) 53700 (1964) 172000 61300 75800 97800 103000 158000 215000 252000 301000 356000
2021-02-21 14:00 4.76 112000 406000 (1982) 53700 (1964) 172000 61300 75800 97800 103000 158000 215000 252000 301000 356000
2021-02-21 13:30 4.77 112000 406000 (1982) 53700 (1964) 172000 61300 75800 97800 103000 158000 215000 252000 301000 356000
2021-02-21 13:00 4.80 112000 406000 (1982) 53700 (1964) 172000 61300 75800 97800 103000 158000 215000 252000 301000 356000
2021-02-21 12:30 4.85 113000 406000 (1982) 53700 (1964) 172000 61300 75800 97800 103000 158000 215000 252000 301000 356000
2021-02-21 12:00 4.89 113000 406000 (1982) 53700 (1964) 172000 61300 75800 97800 103000 158000 215000 252000 301000 356000
2021-02-21 11:30 4.92 113000 406000 (1982) 53700 (1964) 172000 61300 75800 97800 103000 158000 215000 252000 301000 356000
2021-02-21 11:00 4.95 113000 406000 (1982) 53700 (1964) 172000 61300 75800 97800 103000 158000 215000 252000 301000 356000
2021-02-21 10:30 4.99 114000 406000 (1982) 53700 (1964) 172000 61300 75800 97800 103000 158000 215000 252000 301000 356000
2021-02-21 10:00 4.99 114000 406000 (1982) 53700 (1964) 172000 61300 75800 97800 103000 158000 215000 252000 301000 356000
2021-02-21 09:30 5.05 114000 406000 (1982) 53700 (1964) 172000 61300 75800 97800 103000 158000 215000 252000 301000 356000
2021-02-21 09:00 5.09 115000 406000 (1982) 53700 (1964) 172000 61300 75800 97800 103000 158000 215000 252000 301000 356000
2021-02-21 08:30 5.09 115000 406000 (1982) 53700 (1964) 172000 61300 75800 97800 103000 158000 215000 252000 301000 356000
2021-02-21 08:00 5.17 115000 406000 (1982) 53700 (1964) 172000 61300 75800 97800 103000 158000 215000 252000 301000 356000
2021-02-21 07:30 5.18 116000 406000 (1982) 53700 (1964) 172000 61300 75800 97800 103000 158000 215000 252000 301000 356000
2021-02-21 07:00 5.20 116000 406000 (1982) 53700 (1964) 172000 61300 75800 97800 103000 158000 215000 252000 301000 356000
2021-02-21 06:30 5.23 116000 406000 (1982) 53700 (1964) 172000 61300 75800 97800 103000 158000 215000 252000 301000 356000
2021-02-21 06:00 5.25 116000 406000 (1982) 53700 (1964) 172000 61300 75800 97800 103000 158000 215000 252000 301000 356000
2021-02-21 05:30 5.29 116000 406000 (1982) 53700 (1964) 172000 61300 75800 97800 103000 158000 215000 252000 301000 356000
2021-02-21 05:00 5.33 117000 406000 (1982) 53700 (1964) 172000 61300 75800 97800 103000 158000 215000 252000 301000 356000
2021-02-21 04:30 5.34 117000 406000 (1982) 53700 (1964) 172000 61300 75800 97800 103000 158000 215000 252000 301000 356000
2021-02-21 04:00 5.43 118000 406000 (1982) 53700 (1964) 172000 61300 75800 97800 103000 158000 215000 252000 301000 356000
2021-02-21 03:30 5.43 118000 406000 (1982) 53700 (1964) 172000 61300 75800 97800 103000 158000 215000 252000 301000 356000
2021-02-21 03:00 5.46 118000 406000 (1982) 53700 (1964) 172000 61300 75800 97800 103000 158000 215000 252000 301000 356000
2021-02-21 02:30 5.48 118000 406000 (1982) 53700 (1964) 172000 61300 75800 97800 103000 158000 215000 252000 301000 356000
2021-02-21 02:00 5.53 119000 406000 (1982) 53700 (1964) 172000 61300 75800 97800 103000 158000 215000 252000 301000 356000
2021-02-21 01:30 5.55 119000 406000 (1982) 53700 (1964) 172000 61300 75800 97800 103000 158000 215000 252000 301000 356000
2021-02-21 01:00 5.59 119000 406000 (1982) 53700 (1964) 172000 61300 75800 97800 103000 158000 215000 252000 301000 356000
2021-02-21 00:30 5.64 120000 406000 (1982) 53700 (1964) 172000 61300 75800 97800 103000 158000 215000 252000 301000 356000
2021-02-21 00:00 5.66 120000 406000 (1982) 53700 (1964) 172000 61300 75800 97800 103000 158000 215000 252000 301000 356000
2021-02-20 23:30 5.71 120000 370000 (1982) 53000 (1964) 167000 62700 72300 93000 102000 144000 208000 254000 292000 349000
2021-02-20 23:00 5.72 120000 370000 (1982) 53000 (1964) 167000 62700 72300 93000 102000 144000 208000 254000 292000 349000
2021-02-20 22:30 5.77 121000 370000 (1982) 53000 (1964) 167000 62700 72300 93000 102000 144000 208000 254000 292000 349000
2021-02-20 22:00 5.79 121000 370000 (1982) 53000 (1964) 167000 62700 72300 93000 102000 144000 208000 254000 292000 349000
2021-02-20 21:30 5.82 121000 370000 (1982) 53000 (1964) 167000 62700 72300 93000 102000 144000 208000 254000 292000 349000
2021-02-20 21:00 5.86 122000 370000 (1982) 53000 (1964) 167000 62700 72300 93000 102000 144000 208000 254000 292000 349000
2021-02-20 20:30 5.88 122000 370000 (1982) 53000 (1964) 167000 62700 72300 93000 102000 144000 208000 254000 292000 349000
2021-02-20 20:00 5.93 122000 370000 (1982) 53000 (1964) 167000 62700 72300 93000 102000 144000 208000 254000 292000 349000
2021-02-20 19:30 5.95 122000 370000 (1982) 53000 (1964) 167000 62700 72300 93000 102000 144000 208000 254000 292000 349000
2021-02-20 19:00 5.95 122000 370000 (1982) 53000 (1964) 167000 62700 72300 93000 102000 144000 208000 254000 292000 349000
2021-02-20 18:30 6.01 123000 370000 (1982) 53000 (1964) 167000 62700 72300 93000 102000 144000 208000 254000 292000 349000
2021-02-20 18:00 6.02 123000 370000 (1982) 53000 (1964) 167000 62700 72300 93000 102000 144000 208000 254000 292000 349000
2021-02-20 17:30 6.05 123000 370000 (1982) 53000 (1964) 167000 62700 72300 93000 102000 144000 208000 254000 292000 349000
2021-02-20 17:00 6.09 124000 370000 (1982) 53000 (1964) 167000 62700 72300 93000 102000 144000 208000 254000 292000 349000
2021-02-20 16:30 6.09 124000 370000 (1982) 53000 (1964) 167000 62700 72300 93000 102000 144000 208000 254000 292000 349000
2021-02-20 16:00 6.12 124000 370000 (1982) 53000 (1964) 167000 62700 72300 93000 102000 144000 208000 254000 292000 349000
2021-02-20 15:30 6.18 125000 370000 (1982) 53000 (1964) 167000 62700 72300 93000 102000 144000 208000 254000 292000 349000
2021-02-20 15:00 6.17 124000 370000 (1982) 53000 (1964) 167000 62700 72300 93000 102000 144000 208000 254000 292000 349000
2021-02-20 14:30 6.21 125000 370000 (1982) 53000 (1964) 167000 62700 72300 93000 102000 144000 208000 254000 292000 349000
2021-02-20 14:00 6.22 125000 370000 (1982) 53000 (1964) 167000 62700 72300 93000 102000 144000 208000 254000 292000 349000
2021-02-20 13:30 6.24 125000 370000 (1982) 53000 (1964) 167000 62700 72300 93000 102000 144000 208000 254000 292000 349000
2021-02-20 13:00 6.26 125000 370000 (1982) 53000 (1964) 167000 62700 72300 93000 102000 144000 208000 254000 292000 349000
2021-02-20 12:30 6.26 125000 370000 (1982) 53000 (1964) 167000 62700 72300 93000 102000 144000 208000 254000 292000 349000
2021-02-20 12:00 6.29 126000 370000 (1982) 53000 (1964) 167000 62700 72300 93000 102000 144000 208000 254000 292000 349000
2021-02-20 11:30 6.29 126000 370000 (1982) 53000 (1964) 167000 62700 72300 93000 102000 144000 208000 254000 292000 349000
2021-02-20 11:00 6.31 126000 370000 (1982) 53000 (1964) 167000 62700 72300 93000 102000 144000 208000 254000 292000 349000
2021-02-20 10:30 6.31 126000 370000 (1982) 53000 (1964) 167000 62700 72300 93000 102000 144000 208000 254000 292000 349000
2021-02-20 10:00 6.32 126000 370000 (1982) 53000 (1964) 167000 62700 72300 93000 102000 144000 208000 254000 292000 349000
2021-02-20 09:30 6.31 126000 370000 (1982) 53000 (1964) 167000 62700 72300 93000 102000 144000 208000 254000 292000 349000
2021-02-20 09:00 6.32 126000 370000 (1982) 53000 (1964) 167000 62700 72300 93000 102000 144000 208000 254000 292000 349000
2021-02-20 08:30 6.33 126000 370000 (1982) 53000 (1964) 167000 62700 72300 93000 102000 144000 208000 254000 292000 349000
2021-02-20 08:00 6.36 126000 370000 (1982) 53000 (1964) 167000 62700 72300 93000 102000 144000 208000 254000 292000 349000
2021-02-20 07:30 6.36 126000 370000 (1982) 53000 (1964) 167000 62700 72300 93000 102000 144000 208000 254000 292000 349000
2021-02-20 07:00 6.37 126000 370000 (1982) 53000 (1964) 167000 62700 72300 93000 102000 144000 208000 254000 292000 349000
2021-02-20 06:30 6.38 126000 370000 (1982) 53000 (1964) 167000 62700 72300 93000 102000 144000 208000 254000 292000 349000
2021-02-20 06:00 6.37 126000 370000 (1982) 53000 (1964) 167000 62700 72300 93000 102000 144000 208000 254000 292000 349000
2021-02-20 05:30 6.39 127000 370000 (1982) 53000 (1964) 167000 62700 72300 93000 102000 144000 208000 254000 292000 349000
2021-02-20 05:00 6.41 127000 370000 (1982) 53000 (1964) 167000 62700 72300 93000 102000 144000 208000 254000 292000 349000
2021-02-20 04:30 6.38 126000 370000 (1982) 53000 (1964) 167000 62700 72300 93000 102000 144000 208000 254000 292000 349000
2021-02-20 04:00 6.40 127000 370000 (1982) 53000 (1964) 167000 62700 72300 93000 102000 144000 208000 254000 292000 349000
2021-02-20 03:30 6.40 127000 370000 (1982) 53000 (1964) 167000 62700 72300 93000 102000 144000 208000 254000 292000 349000
2021-02-20 03:00 6.42 127000 370000 (1982) 53000 (1964) 167000 62700 72300 93000 102000 144000 208000 254000 292000 349000
2021-02-20 02:30 6.45 127000 370000 (1982) 53000 (1964) 167000 62700 72300 93000 102000 144000 208000 254000 292000 349000
2021-02-20 02:00 6.41 127000 370000 (1982) 53000 (1964) 167000 62700 72300 93000 102000 144000 208000 254000 292000 349000
2021-02-20 01:30 6.43 127000 370000 (1982) 53000 (1964) 167000 62700 72300 93000 102000 144000 208000 254000 292000 349000
2021-02-20 01:00 6.43 127000 370000 (1982) 53000 (1964) 167000 62700 72300 93000 102000 144000 208000 254000 292000 349000
2021-02-20 00:30 6.43 127000 370000 (1982) 53000 (1964) 167000 62700 72300 93000 102000 144000 208000 254000 292000 349000
2021-02-20 00:00 6.45 127000 370000 (1982) 53000 (1964) 167000 62700 72300 93000 102000 144000 208000 254000 292000 349000
2021-02-19 23:30 6.44 127000 381000 (2005) 54400 (1964) 164000 64000 74600 94000 102000 145000 218000 238000 291000 312000
2021-02-19 23:00 6.44 127000 381000 (2005) 54400 (1964) 164000 64000 74600 94000 102000 145000 218000 238000 291000 312000
2021-02-19 22:30 6.43 127000 381000 (2005) 54400 (1964) 164000 64000 74600 94000 102000 145000 218000 238000 291000 312000
2021-02-19 22:00 6.45 127000 381000 (2005) 54400 (1964) 164000 64000 74600 94000 102000 145000 218000 238000 291000 312000
2021-02-19 21:30 6.45 127000 381000 (2005) 54400 (1964) 164000 64000 74600 94000 102000 145000 218000 238000 291000 312000
2021-02-19 21:00 6.45 127000 381000 (2005) 54400 (1964) 164000 64000 74600 94000 102000 145000 218000 238000 291000 312000
2021-02-19 20:30 6.44 127000 381000 (2005) 54400 (1964) 164000 64000 74600 94000 102000 145000 218000 238000 291000 312000
2021-02-19 20:00 6.46 127000 381000 (2005) 54400 (1964) 164000 64000 74600 94000 102000 145000 218000 238000 291000 312000
2021-02-19 19:30 6.46 127000 381000 (2005) 54400 (1964) 164000 64000 74600 94000 102000 145000 218000 238000 291000 312000
2021-02-19 19:00 6.47 127000 381000 (2005) 54400 (1964) 164000 64000 74600 94000 102000 145000 218000 238000 291000 312000
2021-02-19 18:30 6.48 127000 381000 (2005) 54400 (1964) 164000 64000 74600 94000 102000 145000 218000 238000 291000 312000
2021-02-19 18:00 6.48 127000 381000 (2005) 54400 (1964) 164000 64000 74600 94000 102000 145000 218000 238000 291000 312000
2021-02-19 17:30 6.50 128000 381000 (2005) 54400 (1964) 164000 64000 74600 94000 102000 145000 218000 238000 291000 312000
2021-02-19 17:00 6.50 128000 381000 (2005) 54400 (1964) 164000 64000 74600 94000 102000 145000 218000 238000 291000 312000
2021-02-19 16:30 6.52 128000 381000 (2005) 54400 (1964) 164000 64000 74600 94000 102000 145000 218000 238000 291000 312000
2021-02-19 16:00 6.51 128000 381000 (2005) 54400 (1964) 164000 64000 74600 94000 102000 145000 218000 238000 291000 312000
2021-02-19 15:30 6.51 128000 381000 (2005) 54400 (1964) 164000 64000 74600 94000 102000 145000 218000 238000 291000 312000
2021-02-19 15:00 6.51 128000 381000 (2005) 54400 (1964) 164000 64000 74600 94000 102000 145000 218000 238000 291000 312000
2021-02-19 14:30 6.52 128000 381000 (2005) 54400 (1964) 164000 64000 74600 94000 102000 145000 218000 238000 291000 312000
2021-02-19 14:00 6.49 127000 381000 (2005) 54400 (1964) 164000 64000 74600 94000 102000 145000 218000 238000 291000 312000
2021-02-19 13:30 6.48 127000 381000 (2005) 54400 (1964) 164000 64000 74600 94000 102000 145000 218000 238000 291000 312000
2021-02-19 13:00 6.48 127000 381000 (2005) 54400 (1964) 164000 64000 74600 94000 102000 145000 218000 238000 291000 312000
2021-02-19 12:30 6.47 127000 381000 (2005) 54400 (1964) 164000 64000 74600 94000 102000 145000 218000 238000 291000 312000
2021-02-19 12:00 6.53 128000 381000 (2005) 54400 (1964) 164000 64000 74600 94000 102000 145000 218000 238000 291000 312000
2021-02-19 11:30 6.55 128000 381000 (2005) 54400 (1964) 164000 64000 74600 94000 102000 145000 218000 238000 291000 312000
2021-02-19 11:00 6.54 128000 381000 (2005) 54400 (1964) 164000 64000 74600 94000 102000 145000 218000 238000 291000 312000
2021-02-19 10:30 6.57 128000 381000 (2005) 54400 (1964) 164000 64000 74600 94000 102000 145000 218000 238000 291000 312000
2021-02-19 10:00 6.57 128000 381000 (2005) 54400 (1964) 164000 64000 74600 94000 102000 145000 218000 238000 291000 312000
2021-02-19 09:30 6.56 128000 381000 (2005) 54400 (1964) 164000 64000 74600 94000 102000 145000 218000 238000 291000 312000
2021-02-19 09:00 6.55 128000 381000 (2005) 54400 (1964) 164000 64000 74600 94000 102000 145000 218000 238000 291000 312000
2021-02-19 08:30 6.55 128000 381000 (2005) 54400 (1964) 164000 64000 74600 94000 102000 145000 218000 238000 291000 312000
2021-02-19 08:00 6.54 128000 381000 (2005) 54400 (1964) 164000 64000 74600 94000 102000 145000 218000 238000 291000 312000
2021-02-19 07:30 6.58 128000 381000 (2005) 54400 (1964) 164000 64000 74600 94000 102000 145000 218000 238000 291000 312000
2021-02-19 07:00 6.56 128000 381000 (2005) 54400 (1964) 164000 64000 74600 94000 102000 145000 218000 238000 291000 312000
2021-02-19 06:30 6.55 128000 381000 (2005) 54400 (1964) 164000 64000 74600 94000 102000 145000 218000 238000 291000 312000
2021-02-19 06:00 6.55 128000 381000 (2005) 54400 (1964) 164000 64000 74600 94000 102000 145000 218000 238000 291000 312000
2021-02-19 05:30 6.55 128000 381000 (2005) 54400 (1964) 164000 64000 74600 94000 102000 145000 218000 238000 291000 312000
2021-02-19 05:00 6.56 128000 381000 (2005) 54400 (1964) 164000 64000 74600 94000 102000 145000 218000 238000 291000 312000
2021-02-19 04:30 6.56 128000 381000 (2005) 54400 (1964) 164000 64000 74600 94000 102000 145000 218000 238000 291000 312000
2021-02-19 04:00 6.55 128000 381000 (2005) 54400 (1964) 164000 64000 74600 94000 102000 145000 218000 238000 291000 312000
2021-02-19 03:30 6.55 128000 381000 (2005) 54400 (1964) 164000 64000 74600 94000 102000 145000 218000 238000 291000 312000
2021-02-19 03:00 6.55 128000 381000 (2005) 54400 (1964) 164000 64000 74600 94000 102000 145000 218000 238000 291000 312000
2021-02-19 02:30 6.56 128000 381000 (2005) 54400 (1964) 164000 64000 74600 94000 102000 145000 218000 238000 291000 312000
2021-02-19 02:00 6.56 128000 381000 (2005) 54400 (1964) 164000 64000 74600 94000 102000 145000 218000 238000 291000 312000
2021-02-19 01:30 6.58 128000 381000 (2005) 54400 (1964) 164000 64000 74600 94000 102000 145000 218000 238000 291000 312000
2021-02-19 01:00 6.55 128000 381000 (2005) 54400 (1964) 164000 64000 74600 94000 102000 145000 218000 238000 291000 312000
2021-02-19 00:30 6.56 128000 381000 (2005) 54400 (1964) 164000 64000 74600 94000 102000 145000 218000 238000 291000 312000
2021-02-19 00:00 6.55 128000 381000 (2005) 54400 (1964) 164000 64000 74600 94000 102000 145000 218000 238000 291000 312000
2021-02-18 23:30 6.56 128000 393000 (2005) 50900 (1964) 160000 64100 73400 85500 96000 150000 222000 234000 276000 303000
2021-02-18 23:00 6.56 128000 393000 (2005) 50900 (1964) 160000 64100 73400 85500 96000 150000 222000 234000 276000 303000
2021-02-18 22:30 6.61 129000 393000 (2005) 50900 (1964) 160000 64100 73400 85500 96000 150000 222000 234000 276000 303000
2021-02-18 22:00 6.58 128000 393000 (2005) 50900 (1964) 160000 64100 73400 85500 96000 150000 222000 234000 276000 303000
2021-02-18 21:30 6.58 128000 393000 (2005) 50900 (1964) 160000 64100 73400 85500 96000 150000 222000 234000 276000 303000
2021-02-18 21:00 6.60 129000 393000 (2005) 50900 (1964) 160000 64100 73400 85500 96000 150000 222000 234000 276000 303000
2021-02-18 20:30 6.59 128000 393000 (2005) 50900 (1964) 160000 64100 73400 85500 96000 150000 222000 234000 276000 303000
2021-02-18 20:00 6.60 129000 393000 (2005) 50900 (1964) 160000 64100 73400 85500 96000 150000 222000 234000 276000 303000
2021-02-18 19:30 6.58 128000 393000 (2005) 50900 (1964) 160000 64100 73400 85500 96000 150000 222000 234000 276000 303000
2021-02-18 19:00 6.57 128000 393000 (2005) 50900 (1964) 160000 64100 73400 85500 96000 150000 222000 234000 276000 303000
2021-02-18 18:30 6.58 128000 393000 (2005) 50900 (1964) 160000 64100 73400 85500 96000 150000 222000 234000 276000 303000
2021-02-18 18:00 6.57 128000 393000 (2005) 50900 (1964) 160000 64100 73400 85500 96000 150000 222000 234000 276000 303000
2021-02-18 17:30 6.57 128000 393000 (2005) 50900 (1964) 160000 64100 73400 85500 96000 150000 222000 234000 276000 303000
2021-02-18 17:00 6.57 128000 393000 (2005) 50900 (1964) 160000 64100 73400 85500 96000 150000 222000 234000 276000 303000
2021-02-18 16:30 6.59 128000 393000 (2005) 50900 (1964) 160000 64100 73400 85500 96000 150000 222000 234000 276000 303000
2021-02-18 16:00 6.58 128000 393000 (2005) 50900 (1964) 160000 64100 73400 85500 96000 150000 222000 234000 276000 303000
2021-02-18 15:30 6.58 128000 393000 (2005) 50900 (1964) 160000 64100 73400 85500 96000 150000 222000 234000 276000 303000
2021-02-18 15:00 6.59 128000 393000 (2005) 50900 (1964) 160000 64100 73400 85500 96000 150000 222000 234000 276000 303000
2021-02-18 14:30 6.58 128000 393000 (2005) 50900 (1964) 160000 64100 73400 85500 96000 150000 222000 234000 276000 303000
2021-02-18 14:00 6.58 128000 393000 (2005) 50900 (1964) 160000 64100 73400 85500 96000 150000 222000 234000 276000 303000
2021-02-18 13:30 6.58 128000 393000 (2005) 50900 (1964) 160000 64100 73400 85500 96000 150000 222000 234000 276000 303000
2021-02-18 13:00 6.59 128000 393000 (2005) 50900 (1964) 160000 64100 73400 85500 96000 150000 222000 234000 276000 303000
2021-02-18 12:30 6.59 128000 393000 (2005) 50900 (1964) 160000 64100 73400 85500 96000 150000 222000 234000 276000 303000
2021-02-18 12:00 6.59 128000 393000 (2005) 50900 (1964) 160000 64100 73400 85500 96000 150000 222000 234000 276000 303000
2021-02-18 11:30 6.59 128000 393000 (2005) 50900 (1964) 160000 64100 73400 85500 96000 150000 222000 234000 276000 303000
2021-02-18 11:00 6.59 128000 393000 (2005) 50900 (1964) 160000 64100 73400 85500 96000 150000 222000 234000 276000 303000
2021-02-18 10:30 6.58 128000 393000 (2005) 50900 (1964) 160000 64100 73400 85500 96000 150000 222000 234000 276000 303000
2021-02-18 10:00 6.59 128000 393000 (2005) 50900 (1964) 160000 64100 73400 85500 96000 150000 222000 234000 276000 303000
2021-02-18 09:30 6.58 128000 393000 (2005) 50900 (1964) 160000 64100 73400 85500 96000 150000 222000 234000 276000 303000
2021-02-18 09:00 6.58 128000 393000 (2005) 50900 (1964) 160000 64100 73400 85500 96000 150000 222000 234000 276000 303000
2021-02-18 08:30 6.58 128000 393000 (2005) 50900 (1964) 160000 64100 73400 85500 96000 150000 222000 234000 276000 303000
2021-02-18 08:00 6.57 128000 393000 (2005) 50900 (1964) 160000 64100 73400 85500 96000 150000 222000 234000 276000 303000
2021-02-18 07:30 6.56 128000 393000 (2005) 50900 (1964) 160000 64100 73400 85500 96000 150000 222000 234000 276000 303000
2021-02-18 07:00 6.56 128000 393000 (2005) 50900 (1964) 160000 64100 73400 85500 96000 150000 222000 234000 276000 303000
2021-02-18 06:30 6.57 128000 393000 (2005) 50900 (1964) 160000 64100 73400 85500 96000 150000 222000 234000 276000 303000
2021-02-18 06:00 6.55 128000 393000 (2005) 50900 (1964) 160000 64100 73400 85500 96000 150000 222000 234000 276000 303000
2021-02-18 05:30 6.53 128000 393000 (2005) 50900 (1964) 160000 64100 73400 85500 96000 150000 222000 234000 276000 303000
2021-02-18 05:00 6.55 128000 393000 (2005) 50900 (1964) 160000 64100 73400 85500 96000 150000 222000 234000 276000 303000
2021-02-18 04:30 6.55 128000 393000 (2005) 50900 (1964) 160000 64100 73400 85500 96000 150000 222000 234000 276000 303000
2021-02-18 04:00 6.54 128000 393000 (2005) 50900 (1964) 160000 64100 73400 85500 96000 150000 222000 234000 276000 303000
2021-02-18 03:30 6.43 127000 393000 (2005) 50900 (1964) 160000 64100 73400 85500 96000 150000 222000 234000 276000 303000
2021-02-18 03:00 6.54 128000 393000 (2005) 50900 (1964) 160000 64100 73400 85500 96000 150000 222000 234000 276000 303000
2021-02-18 02:30 6.53 128000 393000 (2005) 50900 (1964) 160000 64100 73400 85500 96000 150000 222000 234000 276000 303000
2021-02-18 02:00 6.50 128000 393000 (2005) 50900 (1964) 160000 64100 73400 85500 96000 150000 222000 234000 276000 303000
2021-02-18 01:30 6.48 127000 393000 (2005) 50900 (1964) 160000 64100 73400 85500 96000 150000 222000 234000 276000 303000
2021-02-18 01:00 6.49 127000 393000 (2005) 50900 (1964) 160000 64100 73400 85500 96000 150000 222000 234000 276000 303000
2021-02-18 00:30 6.47 127000 393000 (2005) 50900 (1964) 160000 64100 73400 85500 96000 150000 222000 234000 276000 303000
2021-02-18 00:00 6.46 127000 393000 (2005) 50900 (1964) 160000 64100 73400 85500 96000 150000 222000 234000 276000 303000
2021-02-17 23:30 6.43 127000 403000 (2005) 53700 (1964) 158000 65700 71500 85700 93100 142000 205000 228000 277000 334000
2021-02-17 23:00 6.41 127000 403000 (2005) 53700 (1964) 158000 65700 71500 85700 93100 142000 205000 228000 277000 334000
2021-02-17 22:30 6.41 127000 403000 (2005) 53700 (1964) 158000 65700 71500 85700 93100 142000 205000 228000 277000 334000
2021-02-17 22:00 6.39 127000 403000 (2005) 53700 (1964) 158000 65700 71500 85700 93100 142000 205000 228000 277000 334000
2021-02-17 21:30 6.37 126000 403000 (2005) 53700 (1964) 158000 65700 71500 85700 93100 142000 205000 228000 277000 334000
2021-02-17 21:00 6.35 126000 403000 (2005) 53700 (1964) 158000 65700 71500 85700 93100 142000 205000 228000 277000 334000
2021-02-17 20:30 6.34 126000 403000 (2005) 53700 (1964) 158000 65700 71500 85700 93100 142000 205000 228000 277000 334000
2021-02-17 20:00 6.31 126000 403000 (2005) 53700 (1964) 158000 65700 71500 85700 93100 142000 205000 228000 277000 334000
2021-02-17 19:30 6.31 126000 403000 (2005) 53700 (1964) 158000 65700 71500 85700 93100 142000 205000 228000 277000 334000
2021-02-17 19:00 6.26 125000 403000 (2005) 53700 (1964) 158000 65700 71500 85700 93100 142000 205000 228000 277000 334000
2021-02-17 18:30 6.25 125000 403000 (2005) 53700 (1964) 158000 65700 71500 85700 93100 142000 205000 228000 277000 334000
2021-02-17 18:00 6.24 125000 403000 (2005) 53700 (1964) 158000 65700 71500 85700 93100 142000 205000 228000 277000 334000
2021-02-17 17:30 6.21 125000 403000 (2005) 53700 (1964) 158000 65700 71500 85700 93100 142000 205000 228000 277000 334000
2021-02-17 17:00 6.19 125000 403000 (2005) 53700 (1964) 158000 65700 71500 85700 93100 142000 205000 228000 277000 334000
2021-02-17 16:30 6.19 125000 403000 (2005) 53700 (1964) 158000 65700 71500 85700 93100 142000 205000 228000 277000 334000
2021-02-17 16:00 6.16 124000 403000 (2005) 53700 (1964) 158000 65700 71500 85700 93100 142000 205000 228000 277000 334000
2021-02-17 15:30 6.16 124000 403000 (2005) 53700 (1964) 158000 65700 71500 85700 93100 142000 205000 228000 277000 334000
2021-02-17 15:00 6.14 124000 403000 (2005) 53700 (1964) 158000 65700 71500 85700 93100 142000 205000 228000 277000 334000
2021-02-17 14:30 6.12 124000 403000 (2005) 53700 (1964) 158000 65700 71500 85700 93100 142000 205000 228000 277000 334000
2021-02-17 14:00 6.11 124000 403000 (2005) 53700 (1964) 158000 65700 71500 85700 93100 142000 205000 228000 277000 334000
2021-02-17 13:30 6.08 124000 403000 (2005) 53700 (1964) 158000 65700 71500 85700 93100 142000 205000 228000 277000 334000
2021-02-17 13:00 6.07 124000 403000 (2005) 53700 (1964) 158000 65700 71500 85700 93100 142000 205000 228000 277000 334000
2021-02-17 12:30 6.02 123000 403000 (2005) 53700 (1964) 158000 65700 71500 85700 93100 142000 205000 228000 277000 334000
2021-02-17 12:00 5.99 123000 403000 (2005) 53700 (1964) 158000 65700 71500 85700 93100 142000 205000 228000 277000 334000
2021-02-17 11:30 5.96 123000 403000 (2005) 53700 (1964) 158000 65700 71500 85700 93100 142000 205000 228000 277000 334000
2021-02-17 11:00 5.93 122000 403000 (2005) 53700 (1964) 158000 65700 71500 85700 93100 142000 205000 228000 277000 334000
2021-02-17 10:30 5.90 122000 403000 (2005) 53700 (1964) 158000 65700 71500 85700 93100 142000 205000 228000 277000 334000
2021-02-17 10:00 5.86 122000 403000 (2005) 53700 (1964) 158000 65700 71500 85700 93100 142000 205000 228000 277000 334000
2021-02-17 09:30 5.85 122000 403000 (2005) 53700 (1964) 158000 65700 71500 85700 93100 142000 205000 228000 277000 334000
2021-02-17 09:00 5.81 121000 403000 (2005) 53700 (1964) 158000 65700 71500 85700 93100 142000 205000 228000 277000 334000
2021-02-17 08:30 5.78 121000 403000 (2005) 53700 (1964) 158000 65700 71500 85700 93100 142000 205000 228000 277000 334000
2021-02-17 08:00 5.74 121000 403000 (2005) 53700 (1964) 158000 65700 71500 85700 93100 142000 205000 228000 277000 334000
2021-02-17 07:30 5.71 120000 403000 (2005) 53700 (1964) 158000 65700 71500 85700 93100 142000 205000 228000 277000 334000
2021-02-17 07:00 5.69 120000 403000 (2005) 53700 (1964) 158000 65700 71500 85700 93100 142000 205000 228000 277000 334000
2021-02-17 06:30 5.66 120000 403000 (2005) 53700 (1964) 158000 65700 71500 85700 93100 142000 205000 228000 277000 334000
2021-02-17 06:00 5.63 120000 403000 (2005) 53700 (1964) 158000 65700 71500 85700 93100 142000 205000 228000 277000 334000
2021-02-17 05:30 5.60 119000 403000 (2005) 53700 (1964) 158000 65700 71500 85700 93100 142000 205000 228000 277000 334000
2021-02-17 05:00 5.58 119000 403000 (2005) 53700 (1964) 158000 65700 71500 85700 93100 142000 205000 228000 277000 334000
2021-02-17 04:30 5.54 119000 403000 (2005) 53700 (1964) 158000 65700 71500 85700 93100 142000 205000 228000 277000 334000
2021-02-17 04:00 5.51 118000 403000 (2005) 53700 (1964) 158000 65700 71500 85700 93100 142000 205000 228000 277000 334000
2021-02-17 03:30 5.49 118000 403000 (2005) 53700 (1964) 158000 65700 71500 85700 93100 142000 205000 228000 277000 334000
2021-02-17 03:00 5.47 118000 403000 (2005) 53700 (1964) 158000 65700 71500 85700 93100 142000 205000 228000 277000 334000
2021-02-17 02:30 5.42 118000 403000 (2005) 53700 (1964) 158000 65700 71500 85700 93100 142000 205000 228000 277000 334000
2021-02-17 02:00 5.40 117000 403000 (2005) 53700 (1964) 158000 65700 71500 85700 93100 142000 205000 228000 277000 334000
2021-02-17 01:30 5.37 117000 403000 (2005) 53700 (1964) 158000 65700 71500 85700 93100 142000 205000 228000 277000 334000
2021-02-17 01:00 5.34 117000 403000 (2005) 53700 (1964) 158000 65700 71500 85700 93100 142000 205000 228000 277000 334000
2021-02-17 00:30 5.31 117000 403000 (2005) 53700 (1964) 158000 65700 71500 85700 93100 142000 205000 228000 277000 334000
2021-02-17 00:00 5.29 116000 403000 (2005) 53700 (1964) 158000 65700 71500 85700 93100 142000 205000 228000 277000 334000
2021-02-16 23:30 5.26 116000 384000 (2005) 50200 (1964) 158000 63600 70500 85900 90800 139000 200000 242000 290000 335000
2021-02-16 23:00 5.24 116000 384000 (2005) 50200 (1964) 158000 63600 70500 85900 90800 139000 200000 242000 290000 335000
2021-02-16 22:30 5.23 116000 384000 (2005) 50200 (1964) 158000 63600 70500 85900 90800 139000 200000 242000 290000 335000
2021-02-16 22:00 5.23 116000 384000 (2005) 50200 (1964) 158000 63600 70500 85900 90800 139000 200000 242000 290000 335000
2021-02-16 21:30 5.22 116000 384000 (2005) 50200 (1964) 158000 63600 70500 85900 90800 139000 200000 242000 290000 335000
2021-02-16 21:00 5.19 116000 384000 (2005) 50200 (1964) 158000 63600 70500 85900 90800 139000 200000 242000 290000 335000
2021-02-16 20:30 5.19 116000 384000 (2005) 50200 (1964) 158000 63600 70500 85900 90800 139000 200000 242000 290000 335000
2021-02-16 20:00 5.19 116000 384000 (2005) 50200 (1964) 158000 63600 70500 85900 90800 139000 200000 242000 290000 335000
2021-02-16 19:30 5.18 116000 384000 (2005) 50200 (1964) 158000 63600 70500 85900 90800 139000 200000 242000 290000 335000
2021-02-16 19:00 5.17 115000 384000 (2005) 50200 (1964) 158000 63600 70500 85900 90800 139000 200000 242000 290000 335000
2021-02-16 18:30 5.17 115000 384000 (2005) 50200 (1964) 158000 63600 70500 85900 90800 139000 200000 242000 290000 335000
2021-02-16 18:00 5.17 115000 384000 (2005) 50200 (1964) 158000 63600 70500 85900 90800 139000 200000 242000 290000 335000
2021-02-16 17:30 5.16 115000 384000 (2005) 50200 (1964) 158000 63600 70500 85900 90800 139000 200000 242000 290000 335000
2021-02-16 17:00 5.16 115000 384000 (2005) 50200 (1964) 158000 63600 70500 85900 90800 139000 200000 242000 290000 335000
2021-02-16 16:30 5.13 115000 384000 (2005) 50200 (1964) 158000 63600 70500 85900 90800 139000 200000 242000 290000 335000
2021-02-16 16:00 5.15 115000 384000 (2005) 50200 (1964) 158000 63600 70500 85900 90800 139000 200000 242000 290000 335000
2021-02-16 15:30 5.15 115000 384000 (2005) 50200 (1964) 158000 63600 70500 85900 90800 139000 200000 242000 290000 335000
2021-02-16 15:00 5.14 115000 384000 (2005) 50200 (1964) 158000 63600 70500 85900 90800 139000 200000 242000 290000 335000
2021-02-16 14:30 5.14 115000 384000 (2005) 50200 (1964) 158000 63600 70500 85900 90800 139000 200000 242000 290000 335000
2021-02-16 14:00 5.14 115000 384000 (2005) 50200 (1964) 158000 63600 70500 85900 90800 139000 200000 242000 290000 335000
2021-02-16 13:30 5.14 115000 384000 (2005) 50200 (1964) 158000 63600 70500 85900 90800 139000 200000 242000 290000 335000
2021-02-16 13:00 5.15 115000 384000 (2005) 50200 (1964) 158000 63600 70500 85900 90800 139000 200000 242000 290000 335000
2021-02-16 12:30 5.15 115000 384000 (2005) 50200 (1964) 158000 63600 70500 85900 90800 139000 200000 242000 290000 335000
2021-02-16 12:00 5.15 115000 384000 (2005) 50200 (1964) 158000 63600 70500 85900 90800 139000 200000 242000 290000 335000
2021-02-16 11:30 5.16 115000 384000 (2005) 50200 (1964) 158000 63600 70500 85900 90800 139000 200000 242000 290000 335000
2021-02-16 11:00 5.16 115000 384000 (2005) 50200 (1964) 158000 63600 70500 85900 90800 139000 200000 242000 290000 335000
2021-02-16 10:30 5.15 115000 384000 (2005) 50200 (1964) 158000 63600 70500 85900 90800 139000 200000 242000 290000 335000
2021-02-16 10:00 5.17 115000 384000 (2005) 50200 (1964) 158000 63600 70500 85900 90800 139000 200000 242000 290000 335000
2021-02-16 09:30 5.16 115000 384000 (2005) 50200 (1964) 158000 63600 70500 85900 90800 139000 200000 242000 290000 335000
2021-02-16 09:00 5.17 115000 384000 (2005) 50200 (1964) 158000 63600 70500 85900 90800 139000 200000 242000 290000 335000
2021-02-16 08:30 5.18 116000 384000 (2005) 50200 (1964) 158000 63600 70500 85900 90800 139000 200000 242000 290000 335000
2021-02-16 08:00 5.20 116000 384000 (2005) 50200 (1964) 158000 63600 70500 85900 90800 139000 200000 242000 290000 335000
2021-02-16 07:30 5.19 116000 384000 (2005) 50200 (1964) 158000 63600 70500 85900 90800 139000 200000 242000 290000 335000
2021-02-16 07:00 5.21 116000 384000 (2005) 50200 (1964) 158000 63600 70500 85900 90800 139000 200000 242000 290000 335000
2021-02-16 06:30 5.23 116000 384000 (2005) 50200 (1964) 158000 63600 70500 85900 90800 139000 200000 242000 290000 335000
2021-02-16 06:00 5.23 116000 384000 (2005) 50200 (1964) 158000 63600 70500 85900 90800 139000 200000 242000 290000 335000
2021-02-16 05:30 5.26 116000 384000 (2005) 50200 (1964) 158000 63600 70500 85900 90800 139000 200000 242000 290000 335000
2021-02-16 05:00 5.27 116000 384000 (2005) 50200 (1964) 158000 63600 70500 85900 90800 139000 200000 242000 290000 335000
2021-02-16 04:30 5.29 116000 384000 (2005) 50200 (1964) 158000 63600 70500 85900 90800 139000 200000 242000 290000 335000
2021-02-16 04:00 5.34 117000 384000 (2005) 50200 (1964) 158000 63600 70500 85900 90800 139000 200000 242000 290000 335000
2021-02-16 03:30 5.35 117000 384000 (2005) 50200 (1964) 158000 63600 70500 85900 90800 139000 200000 242000 290000 335000
2021-02-16 03:00 5.35 117000 384000 (2005) 50200 (1964) 158000 63600 70500 85900 90800 139000 200000 242000 290000 335000
2021-02-16 02:30 5.39 117000 384000 (2005) 50200 (1964) 158000 63600 70500 85900 90800 139000 200000 242000 290000 335000
2021-02-16 02:00 5.41 118000 384000 (2005) 50200 (1964) 158000 63600 70500 85900 90800 139000 200000 242000 290000 335000
2021-02-16 01:30 5.45 118000 384000 (2005) 50200 (1964) 158000 63600 70500 85900 90800 139000 200000 242000 290000 335000
2021-02-16 01:00 5.48 118000 384000 (2005) 50200 (1964) 158000 63600 70500 85900 90800 139000 200000 242000 290000 335000
2021-02-16 00:30 5.50 118000 384000 (2005) 50200 (1964) 158000 63600 70500 85900 90800 139000 200000 242000 290000 335000
2021-02-16 00:00 5.50 118000 384000 (2005) 50200 (1964) 158000 63600 70500 85900 90800 139000 200000 242000 290000 335000
2021-02-15 23:30 5.52 119000 355000 (2019) 48800 (1964) 156000 59700 68800 82400 88700 133000 210000 244000 290000 321000
2021-02-15 23:00 5.55 119000 355000 (2019) 48800 (1964) 156000 59700 68800 82400 88700 133000 210000 244000 290000 321000
2021-02-15 22:30 5.55 119000 355000 (2019) 48800 (1964) 156000 59700 68800 82400 88700 133000 210000 244000 290000 321000
2021-02-15 22:00 5.59 119000 355000 (2019) 48800 (1964) 156000 59700 68800 82400 88700 133000 210000 244000 290000 321000
2021-02-15 21:30 5.60 119000 355000 (2019) 48800 (1964) 156000 59700 68800 82400 88700 133000 210000 244000 290000 321000
2021-02-15 21:00 5.62 119000 355000 (2019) 48800 (1964) 156000 59700 68800 82400 88700 133000 210000 244000 290000 321000
2021-02-15 20:30 5.61 119000 355000 (2019) 48800 (1964) 156000 59700 68800 82400 88700 133000 210000 244000 290000 321000
2021-02-15 20:00 5.62 119000 355000 (2019) 48800 (1964) 156000 59700 68800 82400 88700 133000 210000 244000 290000 321000
2021-02-15 19:30 5.61 119000 355000 (2019) 48800 (1964) 156000 59700 68800 82400 88700 133000 210000 244000 290000 321000
2021-02-15 19:00 5.60 119000 355000 (2019) 48800 (1964) 156000 59700 68800 82400 88700 133000 210000 244000 290000 321000
2021-02-15 18:30 5.62 119000 355000 (2019) 48800 (1964) 156000 59700 68800 82400 88700 133000 210000 244000 290000 321000
2021-02-15 18:00 5.62 119000 355000 (2019) 48800 (1964) 156000 59700 68800 82400 88700 133000 210000 244000 290000 321000
2021-02-15 17:30 5.63 120000 355000 (2019) 48800 (1964) 156000 59700 68800 82400 88700 133000 210000 244000 290000 321000
2021-02-15 17:00 5.60 119000 355000 (2019) 48800 (1964) 156000 59700 68800 82400 88700 133000 210000 244000 290000 321000
2021-02-15 16:30 5.60 119000 355000 (2019) 48800 (1964) 156000 59700 68800 82400 88700 133000 210000 244000 290000 321000
2021-02-15 16:00 5.60 119000 355000 (2019) 48800 (1964) 156000 59700 68800 82400 88700 133000 210000 244000 290000 321000
2021-02-15 15:30 5.59 119000 355000 (2019) 48800 (1964) 156000 59700 68800 82400 88700 133000 210000 244000 290000 321000
2021-02-15 15:00 5.60 119000 355000 (2019) 48800 (1964) 156000 59700 68800 82400 88700 133000 210000 244000 290000 321000
2021-02-15 14:30 5.60 119000 355000 (2019) 48800 (1964) 156000 59700 68800 82400 88700 133000 210000 244000 290000 321000
2021-02-15 14:00 5.58 119000 355000 (2019) 48800 (1964) 156000 59700 68800 82400 88700 133000 210000 244000 290000 321000
2021-02-15 13:30 5.60 119000 355000 (2019) 48800 (1964) 156000 59700 68800 82400 88700 133000 210000 244000 290000 321000
2021-02-15 13:00 5.60 119000 355000 (2019) 48800 (1964) 156000 59700 68800 82400 88700 133000 210000 244000 290000 321000
2021-02-15 12:30 5.59 119000 355000 (2019) 48800 (1964) 156000 59700 68800 82400 88700 133000 210000 244000 290000 321000
2021-02-15 12:00 5.58 119000 355000 (2019) 48800 (1964) 156000 59700 68800 82400 88700 133000 210000 244000 290000 321000
2021-02-15 11:30 5.59 119000 355000 (2019) 48800 (1964) 156000 59700 68800 82400 88700 133000 210000 244000 290000 321000
2021-02-15 11:00 5.60 119000 355000 (2019) 48800 (1964) 156000 59700 68800 82400 88700 133000 210000 244000 290000 321000
2021-02-15 10:30 5.60 119000 355000 (2019) 48800 (1964) 156000 59700 68800 82400 88700 133000 210000 244000 290000 321000
2021-02-15 10:00 5.61 119000 355000 (2019) 48800 (1964) 156000 59700 68800 82400 88700 133000 210000 244000 290000 321000
2021-02-15 09:30 5.58 119000 355000 (2019) 48800 (1964) 156000 59700 68800 82400 88700 133000 210000 244000 290000 321000
2021-02-15 09:00 5.58 119000 355000 (2019) 48800 (1964) 156000 59700 68800 82400 88700 133000 210000 244000 290000 321000
2021-02-15 08:30 5.65 120000 355000 (2019) 48800 (1964) 156000 59700 68800 82400 88700 133000 210000 244000 290000 321000
2021-02-15 08:00 5.60 119000 355000 (2019) 48800 (1964) 156000 59700 68800 82400 88700 133000 210000 244000 290000 321000
2021-02-15 07:30 5.61 119000 355000 (2019) 48800 (1964) 156000 59700 68800 82400 88700 133000 210000 244000 290000 321000
2021-02-15 07:00 5.61 119000 355000 (2019) 48800 (1964) 156000 59700 68800 82400 88700 133000 210000 244000 290000 321000
2021-02-15 06:30 5.59 119000 355000 (2019) 48800 (1964) 156000 59700 68800 82400 88700 133000 210000 244000 290000 321000
2021-02-15 06:00 5.58 119000 355000 (2019) 48800 (1964) 156000 59700 68800 82400 88700 133000 210000 244000 290000 321000
2021-02-15 05:30 5.59 119000 355000 (2019) 48800 (1964) 156000 59700 68800 82400 88700 133000 210000 244000 290000 321000
2021-02-15 05:00 5.60 119000 355000 (2019) 48800 (1964) 156000 59700 68800 82400 88700 133000 210000 244000 290000 321000
2021-02-15 04:30 5.60 119000 355000 (2019) 48800 (1964) 156000 59700 68800 82400 88700 133000 210000 244000 290000 321000
2021-02-15 04:00 5.62 119000 355000 (2019) 48800 (1964) 156000 59700 68800 82400 88700 133000 210000 244000 290000 321000
2021-02-15 03:30 5.62 119000 355000 (2019) 48800 (1964) 156000 59700 68800 82400 88700 133000 210000 244000 290000 321000
2021-02-15 03:00 5.63 120000 355000 (2019) 48800 (1964) 156000 59700 68800 82400 88700 133000 210000 244000 290000 321000
2021-02-15 02:30 5.66 120000 355000 (2019) 48800 (1964) 156000 59700 68800 82400 88700 133000 210000 244000 290000 321000
2021-02-15 02:00 5.62 119000 355000 (2019) 48800 (1964) 156000 59700 68800 82400 88700 133000 210000 244000 290000 321000
2021-02-15 01:30 5.65 120000 355000 (2019) 48800 (1964) 156000 59700 68800 82400 88700 133000 210000 244000 290000 321000
2021-02-15 01:00 5.64 120000 355000 (2019) 48800 (1964) 156000 59700 68800 82400 88700 133000 210000 244000 290000 321000
2021-02-15 00:30 5.66 120000 355000 (2019) 48800 (1964) 156000 59700 68800 82400 88700 133000 210000 244000 290000 321000
2021-02-15 00:00 5.69 120000 355000 (2019) 48800 (1964) 156000 59700 68800 82400 88700 133000 210000 244000 290000 321000
2021-02-14 23:30 5.69 120000 355000 (1966) 52300 (1964) 155000 57300 66200 83700 87900 135000 209000 234000 278000 326000
2021-02-14 23:00 5.70 120000 355000 (1966) 52300 (1964) 155000 57300 66200 83700 87900 135000 209000 234000 278000 326000
2021-02-14 22:30 5.71 120000 355000 (1966) 52300 (1964) 155000 57300 66200 83700 87900 135000 209000 234000 278000 326000
2021-02-14 22:00 5.72 120000 355000 (1966) 52300 (1964) 155000 57300 66200 83700 87900 135000 209000 234000 278000 326000
2021-02-14 21:30 5.71 120000 355000 (1966) 52300 (1964) 155000 57300 66200 83700 87900 135000 209000 234000 278000 326000
2021-02-14 21:00 5.72 120000 355000 (1966) 52300 (1964) 155000 57300 66200 83700 87900 135000 209000 234000 278000 326000
2021-02-14 20:30 5.72 120000 355000 (1966) 52300 (1964) 155000 57300 66200 83700 87900 135000 209000 234000 278000 326000
2021-02-14 20:00 5.73 120000 355000 (1966) 52300 (1964) 155000 57300 66200 83700 87900 135000 209000 234000 278000 326000
2021-02-14 19:30 5.73 120000 355000 (1966) 52300 (1964) 155000 57300 66200 83700 87900 135000 209000 234000 278000 326000
2021-02-14 19:00 5.75 121000 355000 (1966) 52300 (1964) 155000 57300 66200 83700 87900 135000 209000 234000 278000 326000
2021-02-14 18:30 5.75 121000 355000 (1966) 52300 (1964) 155000 57300 66200 83700 87900 135000 209000 234000 278000 326000
2021-02-14 18:00 5.77 121000 355000 (1966) 52300 (1964) 155000 57300 66200 83700 87900 135000 209000 234000 278000 326000
2021-02-14 17:30 5.79 121000 355000 (1966) 52300 (1964) 155000 57300 66200 83700 87900 135000 209000 234000 278000 326000
2021-02-14 17:00 5.80 121000 355000 (1966) 52300 (1964) 155000 57300 66200 83700 87900 135000 209000 234000 278000 326000
2021-02-14 16:30 5.81 121000 355000 (1966) 52300 (1964) 155000 57300 66200 83700 87900 135000 209000 234000 278000 326000
2021-02-14 16:00 5.76 121000 355000 (1966) 52300 (1964) 155000 57300 66200 83700 87900 135000 209000 234000 278000 326000
2021-02-14 15:30 5.84 121000 355000 (1966) 52300 (1964) 155000 57300 66200 83700 87900 135000 209000 234000 278000 326000
2021-02-14 15:00 5.87 122000 355000 (1966) 52300 (1964) 155000 57300 66200 83700 87900 135000 209000 234000 278000 326000
2021-02-14 14:30 5.88 122000 355000 (1966) 52300 (1964) 155000 57300 66200 83700 87900 135000 209000 234000 278000 326000
2021-02-14 14:00 5.89 122000 355000 (1966) 52300 (1964) 155000 57300 66200 83700 87900 135000 209000 234000 278000 326000
2021-02-14 13:30 5.91 122000 355000 (1966) 52300 (1964) 155000 57300 66200 83700 87900 135000 209000 234000 278000 326000
2021-02-14 13:00 5.97 123000 355000 (1966) 52300 (1964) 155000 57300 66200 83700 87900 135000 209000 234000 278000 326000
2021-02-14 12:30 5.96 123000 355000 (1966) 52300 (1964) 155000 57300 66200 83700 87900 135000 209000 234000 278000 326000
2021-02-14 12:00 5.98 123000 355000 (1966) 52300 (1964) 155000 57300 66200 83700 87900 135000 209000 234000 278000 326000
2021-02-14 11:30 6.00 123000 355000 (1966) 52300 (1964) 155000 57300 66200 83700 87900 135000 209000 234000 278000 326000
2021-02-14 11:00 6.02 123000 355000 (1966) 52300 (1964) 155000 57300 66200 83700 87900 135000 209000 234000 278000 326000
2021-02-14 10:30 6.05 123000 355000 (1966) 52300 (1964) 155000 57300 66200 83700 87900 135000 209000 234000 278000 326000
2021-02-14 10:00 6.00 123000 355000 (1966) 52300 (1964) 155000 57300 66200 83700 87900 135000 209000 234000 278000 326000
2021-02-14 09:30 6.07 124000 355000 (1966) 52300 (1964) 155000 57300 66200 83700 87900 135000 209000 234000 278000 326000
2021-02-14 09:00 6.11 124000 355000 (1966) 52300 (1964) 155000 57300 66200 83700 87900 135000 209000 234000 278000 326000
2021-02-14 08:30 6.13 124000 355000 (1966) 52300 (1964) 155000 57300 66200 83700 87900 135000 209000 234000 278000 326000
2021-02-14 08:00 6.14 124000 355000 (1966) 52300 (1964) 155000 57300 66200 83700 87900 135000 209000 234000 278000 326000
2021-02-14 07:30 6.16 124000 355000 (1966) 52300 (1964) 155000 57300 66200 83700 87900 135000 209000 234000 278000 326000
2021-02-14 07:00 6.16 124000 355000 (1966) 52300 (1964) 155000 57300 66200 83700 87900 135000 209000 234000 278000 326000
2021-02-14 06:30 6.15 124000 355000 (1966) 52300 (1964) 155000 57300 66200 83700 87900 135000 209000 234000 278000 326000
2021-02-14 06:00 6.14 124000 355000 (1966) 52300 (1964) 155000 57300 66200 83700 87900 135000 209000 234000 278000 326000
2021-02-14 05:30 6.24 125000 355000 (1966) 52300 (1964) 155000 57300 66200 83700 87900 135000 209000 234000 278000 326000
2021-02-14 05:00 6.26 125000 355000 (1966) 52300 (1964) 155000 57300 66200 83700 87900 135000 209000 234000 278000 326000
2021-02-14 04:30 6.27 125000 355000 (1966) 52300 (1964) 155000 57300 66200 83700 87900 135000 209000 234000 278000 326000
2021-02-14 04:00 6.29 126000 355000 (1966) 52300 (1964) 155000 57300 66200 83700 87900 135000 209000 234000 278000 326000
2021-02-14 03:30 6.31 126000 355000 (1966) 52300 (1964) 155000 57300 66200 83700 87900 135000 209000 234000 278000 326000
2021-02-14 03:00 6.25 125000 355000 (1966) 52300 (1964) 155000 57300 66200 83700 87900 135000 209000 234000 278000 326000
2021-02-14 02:30 6.35 126000 355000 (1966) 52300 (1964) 155000 57300 66200 83700 87900 135000 209000 234000 278000 326000
2021-02-14 02:00 6.36 126000 355000 (1966) 52300 (1964) 155000 57300 66200 83700 87900 135000 209000 234000 278000 326000
2021-02-14 01:30 6.37 126000 355000 (1966) 52300 (1964) 155000 57300 66200 83700 87900 135000 209000 234000 278000 326000
2021-02-14 01:00 6.38 126000 355000 (1966) 52300 (1964) 155000 57300 66200 83700 87900 135000 209000 234000 278000 326000
2021-02-14 00:30 6.39 127000 355000 (1966) 52300 (1964) 155000 57300 66200 83700 87900 135000 209000 234000 278000 326000
2021-02-14 00:00 6.42 127000 355000 (1966) 52300 (1964) 155000 57300 66200 83700 87900 135000 209000 234000 278000 326000
2021-02-13 23:30 6.41 127000 357000 (2019) 48100 (1964) 154000 56200 63700 78400 86000 138000 210000 229000 273000 337000
2021-02-13 23:00 6.44 127000 357000 (2019) 48100 (1964) 154000 56200 63700 78400 86000 138000 210000 229000 273000 337000
2021-02-13 22:30 6.46 127000 357000 (2019) 48100 (1964) 154000 56200 63700 78400 86000 138000 210000 229000 273000 337000
2021-02-13 22:00 6.47 127000 357000 (2019) 48100 (1964) 154000 56200 63700 78400 86000 138000 210000 229000 273000 337000
2021-02-13 21:30 6.48 127000 357000 (2019) 48100 (1964) 154000 56200 63700 78400 86000 138000 210000 229000 273000 337000
2021-02-13 21:00 6.51 128000 357000 (2019) 48100 (1964) 154000 56200 63700 78400 86000 138000 210000 229000 273000 337000
2021-02-13 20:30 6.50 128000 357000 (2019) 48100 (1964) 154000 56200 63700 78400 86000 138000 210000 229000 273000 337000
2021-02-13 20:00 6.51 128000 357000 (2019) 48100 (1964) 154000 56200 63700 78400 86000 138000 210000 229000 273000 337000
2021-02-13 19:30 6.51 128000 357000 (2019) 48100 (1964) 154000 56200 63700 78400 86000 138000 210000 229000 273000 337000
2021-02-13 19:00 6.53 128000 357000 (2019) 48100 (1964) 154000 56200 63700 78400 86000 138000 210000 229000 273000 337000
2021-02-13 18:30 6.53 128000 357000 (2019) 48100 (1964) 154000 56200 63700 78400 86000 138000 210000 229000 273000 337000
2021-02-13 18:00 6.55 128000 357000 (2019) 48100 (1964) 154000 56200 63700 78400 86000 138000 210000 229000 273000 337000
2021-02-13 17:30 6.55 128000 357000 (2019) 48100 (1964) 154000 56200 63700 78400 86000 138000 210000 229000 273000 337000
2021-02-13 17:00 6.56 128000 357000 (2019) 48100 (1964) 154000 56200 63700 78400 86000 138000 210000 229000 273000 337000
2021-02-13 16:30 6.58 128000 357000 (2019) 48100 (1964) 154000 56200 63700 78400 86000 138000 210000 229000 273000 337000
2021-02-13 16:00 6.59 128000 357000 (2019) 48100 (1964) 154000 56200 63700 78400 86000 138000 210000 229000 273000 337000
2021-02-13 15:30 6.63 129000 357000 (2019) 48100 (1964) 154000 56200 63700 78400 86000 138000 210000 229000 273000 337000
2021-02-13 15:00 6.64 129000 357000 (2019) 48100 (1964) 154000 56200 63700 78400 86000 138000 210000 229000 273000 337000
2021-02-13 14:30 6.62 129000 357000 (2019) 48100 (1964) 154000 56200 63700 78400 86000 138000 210000 229000 273000 337000
2021-02-13 14:00 6.64 129000 357000 (2019) 48100 (1964) 154000 56200 63700 78400 86000 138000 210000 229000 273000 337000
2021-02-13 13:30 6.64 129000 357000 (2019) 48100 (1964) 154000 56200 63700 78400 86000 138000 210000 229000 273000 337000
2021-02-13 13:00 6.65 129000 357000 (2019) 48100 (1964) 154000 56200 63700 78400 86000 138000 210000 229000 273000 337000
2021-02-13 12:30 6.65 129000 357000 (2019) 48100 (1964) 154000 56200 63700 78400 86000 138000 210000 229000 273000 337000
2021-02-13 12:00 6.66 129000 357000 (2019) 48100 (1964) 154000 56200 63700 78400 86000 138000 210000 229000 273000 337000
2021-02-13 11:30 6.63 129000 357000 (2019) 48100 (1964) 154000 56200 63700 78400 86000 138000 210000 229000 273000 337000
2021-02-13 11:00 6.66 129000 357000 (2019) 48100 (1964) 154000 56200 63700 78400 86000 138000 210000 229000 273000 337000
2021-02-13 10:30 6.66 129000 357000 (2019) 48100 (1964) 154000 56200 63700 78400 86000 138000 210000 229000 273000 337000
2021-02-13 10:00 6.71 130000 357000 (2019) 48100 (1964) 154000 56200 63700 78400 86000 138000 210000 229000 273000 337000
2021-02-13 09:30 6.70 129000 357000 (2019) 48100 (1964) 154000 56200 63700 78400 86000 138000 210000 229000 273000 337000
2021-02-13 09:00 6.73 130000 357000 (2019) 48100 (1964) 154000 56200 63700 78400 86000 138000 210000 229000 273000 337000
2021-02-13 08:30 6.73 130000 357000 (2019) 48100 (1964) 154000 56200 63700 78400 86000 138000 210000 229000 273000 337000
2021-02-13 08:00 6.71 130000 357000 (2019) 48100 (1964) 154000 56200 63700 78400 86000 138000 210000 229000 273000 337000
2021-02-13 07:30 6.76 130000 357000 (2019) 48100 (1964) 154000 56200 63700 78400 86000 138000 210000 229000 273000 337000
2021-02-13 07:00 6.74 130000 357000 (2019) 48100 (1964) 154000 56200 63700 78400 86000 138000 210000 229000 273000 337000
2021-02-13 06:30 6.74 130000 357000 (2019) 48100 (1964) 154000 56200 63700 78400 86000 138000 210000 229000 273000 337000
2021-02-13 06:00 6.74 130000 357000 (2019) 48100 (1964) 154000 56200 63700 78400 86000 138000 210000 229000 273000 337000
2021-02-13 05:30 6.75 130000 357000 (2019) 48100 (1964) 154000 56200 63700 78400 86000 138000 210000 229000 273000 337000
2021-02-13 05:00 6.75 130000 357000 (2019) 48100 (1964) 154000 56200 63700 78400 86000 138000 210000 229000 273000 337000
2021-02-13 04:30 6.73 130000 357000 (2019) 48100 (1964) 154000 56200 63700 78400 86000 138000 210000 229000 273000 337000
2021-02-13 04:00 6.75 130000 357000 (2019) 48100 (1964) 154000 56200 63700 78400 86000 138000 210000 229000 273000 337000
2021-02-13 03:30 6.72 130000 357000 (2019) 48100 (1964) 154000 56200 63700 78400 86000 138000 210000 229000 273000 337000
2021-02-13 03:00 6.71 130000 357000 (2019) 48100 (1964) 154000 56200 63700 78400 86000 138000 210000 229000 273000 337000
2021-02-13 02:30 6.71 130000 357000 (2019) 48100 (1964) 154000 56200 63700 78400 86000 138000 210000 229000 273000 337000
2021-02-13 02:00 6.69 129000 357000 (2019) 48100 (1964) 154000 56200 63700 78400 86000 138000 210000 229000 273000 337000
2021-02-13 01:30 6.71 130000 357000 (2019) 48100 (1964) 154000 56200 63700 78400 86000 138000 210000 229000 273000 337000
2021-02-13 01:00 6.69 129000 357000 (2019) 48100 (1964) 154000 56200 63700 78400 86000 138000 210000 229000 273000 337000
2021-02-13 00:30 6.67 129000 357000 (2019) 48100 (1964) 154000 56200 63700 78400 86000 138000 210000 229000 273000 337000
2021-02-13 00:00 6.66 129000 357000 (2019) 48100 (1964) 154000 56200 63700 78400 86000 138000 210000 229000 273000 337000
2021-02-12 23:30 6.66 129000 373000 (2019) 49500 (1964) 155000 54900 66100 77100 83300 136000 201000 227000 289000 352000
2021-02-12 23:00 6.62 129000 373000 (2019) 49500 (1964) 155000 54900 66100 77100 83300 136000 201000 227000 289000 352000
2021-02-12 22:30 6.66 129000 373000 (2019) 49500 (1964) 155000 54900 66100 77100 83300 136000 201000 227000 289000 352000
2021-02-12 22:00 6.62 129000 373000 (2019) 49500 (1964) 155000 54900 66100 77100 83300 136000 201000 227000 289000 352000
2021-02-12 21:30 6.62 129000 373000 (2019) 49500 (1964) 155000 54900 66100 77100 83300 136000 201000 227000 289000 352000
2021-02-12 21:00 6.61 129000 373000 (2019) 49500 (1964) 155000 54900 66100 77100 83300 136000 201000 227000 289000 352000
2021-02-12 20:30 6.59 128000 373000 (2019) 49500 (1964) 155000 54900 66100 77100 83300 136000 201000 227000 289000 352000
2021-02-12 20:00 6.58 128000 373000 (2019) 49500 (1964) 155000 54900 66100 77100 83300 136000 201000 227000 289000 352000
2021-02-12 19:30 6.55 128000 373000 (2019) 49500 (1964) 155000 54900 66100 77100 83300 136000 201000 227000 289000 352000
2021-02-12 19:00 6.57 128000 373000 (2019) 49500 (1964) 155000 54900 66100 77100 83300 136000 201000 227000 289000 352000
2021-02-12 18:30 6.57 128000 373000 (2019) 49500 (1964) 155000 54900 66100 77100 83300 136000 201000 227000 289000 352000
2021-02-12 18:00 6.55 128000 373000 (2019) 49500 (1964) 155000 54900 66100 77100 83300 136000 201000 227000 289000 352000
2021-02-12 17:30 6.55 128000 373000 (2019) 49500 (1964) 155000 54900 66100 77100 83300 136000 201000 227000 289000 352000
2021-02-12 17:00 6.54 128000 373000 (2019) 49500 (1964) 155000 54900 66100 77100 83300 136000 201000 227000 289000 352000
2021-02-12 16:30 6.55 128000 373000 (2019) 49500 (1964) 155000 54900 66100 77100 83300 136000 201000 227000 289000 352000
2021-02-12 16:00 6.54 128000 373000 (2019) 49500 (1964) 155000 54900 66100 77100 83300 136000 201000 227000 289000 352000
2021-02-12 15:30 6.53 128000 373000 (2019) 49500 (1964) 155000 54900 66100 77100 83300 136000 201000 227000 289000 352000
2021-02-12 15:00 6.52 128000 373000 (2019) 49500 (1964) 155000 54900 66100 77100 83300 136000 201000 227000 289000 352000
2021-02-12 14:30 6.55 128000 373000 (2019) 49500 (1964) 155000 54900 66100 77100 83300 136000 201000 227000 289000 352000
2021-02-12 14:00 6.53 128000 373000 (2019) 49500 (1964) 155000 54900 66100 77100 83300 136000 201000 227000 289000 352000
2021-02-12 13:30 6.54 128000 373000 (2019) 49500 (1964) 155000 54900 66100 77100 83300 136000 201000 227000 289000 352000
2021-02-12 13:00 6.53 128000 373000 (2019) 49500 (1964) 155000 54900 66100 77100 83300 136000 201000 227000 289000 352000
2021-02-12 12:30 6.52 128000 373000 (2019) 49500 (1964) 155000 54900 66100 77100 83300 136000 201000 227000 289000 352000
2021-02-12 12:00 6.53 128000 373000 (2019) 49500 (1964) 155000 54900 66100 77100 83300 136000 201000 227000 289000 352000
2021-02-12 11:30 6.55 128000 373000 (2019) 49500 (1964) 155000 54900 66100 77100 83300 136000 201000 227000 289000 352000
2021-02-12 11:00 6.53 128000 373000 (2019) 49500 (1964) 155000 54900 66100 77100 83300 136000 201000 227000 289000 352000
2021-02-12 10:30 6.53 128000 373000 (2019) 49500 (1964) 155000 54900 66100 77100 83300 136000 201000 227000 289000 352000
2021-02-12 10:00 6.53 128000 373000 (2019) 49500 (1964) 155000 54900 66100 77100 83300 136000 201000 227000 289000 352000
2021-02-12 09:30 6.53 128000 373000 (2019) 49500 (1964) 155000 54900 66100 77100 83300 136000 201000 227000 289000 352000
2021-02-12 09:00 6.54 128000 373000 (2019) 49500 (1964) 155000 54900 66100 77100 83300 136000 201000 227000 289000 352000
2021-02-12 08:30 6.53 128000 373000 (2019) 49500 (1964) 155000 54900 66100 77100 83300 136000 201000 227000 289000 352000
2021-02-12 08:00 6.57 128000 373000 (2019) 49500 (1964) 155000 54900 66100 77100 83300 136000 201000 227000 289000 352000
2021-02-12 07:30 6.55 128000 373000 (2019) 49500 (1964) 155000 54900 66100 77100 83300 136000 201000 227000 289000 352000
2021-02-12 07:00 6.53 128000 373000 (2019) 49500 (1964) 155000 54900 66100 77100 83300 136000 201000 227000 289000 352000
2021-02-12 06:30 6.53 128000 373000 (2019) 49500 (1964) 155000 54900 66100 77100 83300 136000 201000 227000 289000 352000
2021-02-12 06:00 6.52 128000 373000 (2019) 49500 (1964) 155000 54900 66100 77100 83300 136000 201000 227000 289000 352000
2021-02-12 05:30 6.54 128000 373000 (2019) 49500 (1964) 155000 54900 66100 77100 83300 136000 201000 227000 289000 352000
2021-02-12 05:00 6.53 128000 373000 (2019) 49500 (1964) 155000 54900 66100 77100 83300 136000 201000 227000 289000 352000
2021-02-12 04:30 6.53 128000 373000 (2019) 49500 (1964) 155000 54900 66100 77100 83300 136000 201000 227000 289000 352000
2021-02-12 04:00 6.55 128000 373000 (2019) 49500 (1964) 155000 54900 66100 77100 83300 136000 201000 227000 289000 352000
2021-02-12 03:30 6.57 128000 373000 (2019) 49500 (1964) 155000 54900 66100 77100 83300 136000 201000 227000 289000 352000
2021-02-12 03:00 6.55 128000 373000 (2019) 49500 (1964) 155000 54900 66100 77100 83300 136000 201000 227000 289000 352000
2021-02-12 02:30 6.57 128000 373000 (2019) 49500 (1964) 155000 54900 66100 77100 83300 136000 201000 227000 289000 352000
2021-02-12 02:00 6.51 128000 373000 (2019) 49500 (1964) 155000 54900 66100 77100 83300 136000 201000 227000 289000 352000
2021-02-12 01:30 6.54 128000 373000 (2019) 49500 (1964) 155000 54900 66100 77100 83300 136000 201000 227000 289000 352000
2021-02-12 01:00 6.51 128000 373000 (2019) 49500 (1964) 155000 54900 66100 77100 83300 136000 201000 227000 289000 352000
2021-02-12 00:30 6.49 127000 373000 (2019) 49500 (1964) 155000 54900 66100 77100 83300 136000 201000 227000 289000 352000
2021-02-12 00:00 6.50 128000 373000 (2019) 49500 (1964) 155000 54900 66100 77100 83300 136000 201000 227000 289000 352000
2021-02-11 23:30 6.49 127000 393000 (2019) 48100 (1977) 153000 54500 62500 78500 83100 134000 189000 224000 271000 363000
2021-02-11 23:00 6.39 127000 393000 (2019) 48100 (1977) 153000 54500 62500 78500 83100 134000 189000 224000 271000 363000
2021-02-11 22:30 6.49 127000 393000 (2019) 48100 (1977) 153000 54500 62500 78500 83100 134000 189000 224000 271000 363000
2021-02-11 22:00 6.48 127000 393000 (2019) 48100 (1977) 153000 54500 62500 78500 83100 134000 189000 224000 271000 363000
2021-02-11 21:30 6.49 127000 393000 (2019) 48100 (1977) 153000 54500 62500 78500 83100 134000 189000 224000 271000 363000
2021-02-11 21:00 6.30 126000 393000 (2019) 48100 (1977) 153000 54500 62500 78500 83100 134000 189000 224000 271000 363000
2021-02-11 20:30 6.48 127000 393000 (2019) 48100 (1977) 153000 54500 62500 78500 83100 134000 189000 224000 271000 363000
2021-02-11 20:00 6.47 127000 393000 (2019) 48100 (1977) 153000 54500 62500 78500 83100 134000 189000 224000 271000 363000
2021-02-11 19:30 6.46 127000 393000 (2019) 48100 (1977) 153000 54500 62500 78500 83100 134000 189000 224000 271000 363000
2021-02-11 19:00 6.45 127000 393000 (2019) 48100 (1977) 153000 54500 62500 78500 83100 134000 189000 224000 271000 363000
2021-02-11 18:30 6.45 127000 393000 (2019) 48100 (1977) 153000 54500 62500 78500 83100 134000 189000 224000 271000 363000
2021-02-11 18:00 6.44 127000 393000 (2019) 48100 (1977) 153000 54500 62500 78500 83100 134000 189000 224000 271000 363000
2021-02-11 17:30 6.43 127000 393000 (2019) 48100 (1977) 153000 54500 62500 78500 83100 134000 189000 224000 271000 363000
2021-02-11 17:00 6.42 127000 393000 (2019) 48100 (1977) 153000 54500 62500 78500 83100 134000 189000 224000 271000 363000
2021-02-11 16:30 6.43 127000 393000 (2019) 48100 (1977) 153000 54500 62500 78500 83100 134000 189000 224000 271000 363000
2021-02-11 16:00 6.43 127000 393000 (2019) 48100 (1977) 153000 54500 62500 78500 83100 134000 189000 224000 271000 363000
2021-02-11 15:30 6.40 127000 393000 (2019) 48100 (1977) 153000 54500 62500 78500 83100 134000 189000 224000 271000 363000
2021-02-11 15:00 6.41 127000 393000 (2019) 48100 (1977) 153000 54500 62500 78500 83100 134000 189000 224000 271000 363000
2021-02-11 14:30 6.41 127000 393000 (2019) 48100 (1977) 153000 54500 62500 78500 83100 134000 189000 224000 271000 363000
2021-02-11 14:00 6.42 127000 393000 (2019) 48100 (1977) 153000 54500 62500 78500 83100 134000 189000 224000 271000 363000
2021-02-11 13:30 6.41 127000 393000 (2019) 48100 (1977) 153000 54500 62500 78500 83100 134000 189000 224000 271000 363000
2021-02-11 13:00 6.41 127000 393000 (2019) 48100 (1977) 153000 54500 62500 78500 83100 134000 189000 224000 271000 363000
2021-02-11 12:30 6.41 127000 393000 (2019) 48100 (1977) 153000 54500 62500 78500 83100 134000 189000 224000 271000 363000
2021-02-11 12:00 6.43 127000 393000 (2019) 48100 (1977) 153000 54500 62500 78500 83100 134000 189000 224000 271000 363000
2021-02-11 11:30 6.43 127000 393000 (2019) 48100 (1977) 153000 54500 62500 78500 83100 134000 189000 224000 271000 363000
2021-02-11 11:00 6.44 127000 393000 (2019) 48100 (1977) 153000 54500 62500 78500 83100 134000 189000 224000 271000 363000
2021-02-11 10:30 6.47 127000 393000 (2019) 48100 (1977) 153000 54500 62500 78500 83100 134000 189000 224000 271000 363000
2021-02-11 10:00 6.47 127000 393000 (2019) 48100 (1977) 153000 54500 62500 78500 83100 134000 189000 224000 271000 363000
2021-02-11 09:30 6.47 127000 393000 (2019) 48100 (1977) 153000 54500 62500 78500 83100 134000 189000 224000 271000 363000
2021-02-11 09:00 6.50 128000 393000 (2019) 48100 (1977) 153000 54500 62500 78500 83100 134000 189000 224000 271000 363000
2021-02-11 08:30 6.50 128000 393000 (2019) 48100 (1977) 153000 54500 62500 78500 83100 134000 189000 224000 271000 363000
2021-02-11 08:00 6.50 128000 393000 (2019) 48100 (1977) 153000 54500 62500 78500 83100 134000 189000 224000 271000 363000
2021-02-11 07:30 6.49 127000 393000 (2019) 48100 (1977) 153000 54500 62500 78500 83100 134000 189000 224000 271000 363000
2021-02-11 07:00 6.51 128000 393000 (2019) 48100 (1977) 153000 54500 62500 78500 83100 134000 189000 224000 271000 363000
2021-02-11 06:30 6.55 128000 393000 (2019) 48100 (1977) 153000 54500 62500 78500 83100 134000 189000 224000 271000 363000
2021-02-11 06:00 6.59 128000 393000 (2019) 48100 (1977) 153000 54500 62500 78500 83100 134000 189000 224000 271000 363000
2021-02-11 05:30 6.61 129000 393000 (2019) 48100 (1977) 153000 54500 62500 78500 83100 134000 189000 224000 271000 363000
2021-02-11 05:00 6.60 129000 393000 (2019) 48100 (1977) 153000 54500 62500 78500 83100 134000 189000 224000 271000 363000
2021-02-11 04:30 6.64 129000 393000 (2019) 48100 (1977) 153000 54500 62500 78500 83100 134000 189000 224000 271000 363000
2021-02-11 04:00 6.65 129000 393000 (2019) 48100 (1977) 153000 54500 62500 78500 83100 134000 189000 224000 271000 363000
2021-02-11 03:30 6.66 129000 393000 (2019) 48100 (1977) 153000 54500 62500 78500 83100 134000 189000 224000 271000 363000
2021-02-11 03:00 6.71 130000 393000 (2019) 48100 (1977) 153000 54500 62500 78500 83100 134000 189000 224000 271000 363000
2021-02-11 02:30 6.71 130000 393000 (2019) 48100 (1977) 153000 54500 62500 78500 83100 134000 189000 224000 271000 363000
2021-02-11 02:00 6.71 130000 393000 (2019) 48100 (1977) 153000 54500 62500 78500 83100 134000 189000 224000 271000 363000
2021-02-11 01:30 6.75 130000 393000 (2019) 48100 (1977) 153000 54500 62500 78500 83100 134000 189000 224000 271000 363000
2021-02-11 01:00 6.78 130000 393000 (2019) 48100 (1977) 153000 54500 62500 78500 83100 134000 189000 224000 271000 363000
2021-02-11 00:30 6.80 130000 393000 (2019) 48100 (1977) 153000 54500 62500 78500 83100 134000 189000 224000 271000 363000
2021-02-11 00:00 6.81 131000 393000 (2019) 48100 (1977) 153000 54500 62500 78500 83100 134000 189000 224000 271000 363000
2021-02-10 23:30 6.83 131000 416000 (2019) 48000 (1977) 150000 53000 63300 79500 82700 118000 189000 223000 279000 360000
2021-02-10 23:00 6.82 131000 416000 (2019) 48000 (1977) 150000 53000 63300 79500 82700 118000 189000 223000 279000 360000
2021-02-10 22:30 6.87 131000 416000 (2019) 48000 (1977) 150000 53000 63300 79500 82700 118000 189000 223000 279000 360000
2021-02-10 22:00 6.89 131000 416000 (2019) 48000 (1977) 150000 53000 63300 79500 82700 118000 189000 223000 279000 360000
2021-02-10 21:30 6.90 131000 416000 (2019) 48000 (1977) 150000 53000 63300 79500 82700 118000 189000 223000 279000 360000
2021-02-10 21:00 6.94 132000 416000 (2019) 48000 (1977) 150000 53000 63300 79500 82700 118000 189000 223000 279000 360000
2021-02-10 20:30 6.93 132000 416000 (2019) 48000 (1977) 150000 53000 63300 79500 82700 118000 189000 223000 279000 360000
2021-02-10 20:00 6.97 132000 416000 (2019) 48000 (1977) 150000 53000 63300 79500 82700 118000 189000 223000 279000 360000
2021-02-10 19:30 7.01 132000 416000 (2019) 48000 (1977) 150000 53000 63300 79500 82700 118000 189000 223000 279000 360000
2021-02-10 19:00 6.86 131000 416000 (2019) 48000 (1977) 150000 53000 63300 79500 82700 118000 189000 223000 279000 360000
2021-02-10 18:30 7.07 133000 416000 (2019) 48000 (1977) 150000 53000 63300 79500 82700 118000 189000 223000 279000 360000
2021-02-10 18:00 7.07 133000 416000 (2019) 48000 (1977) 150000 53000 63300 79500 82700 118000 189000 223000 279000 360000
2021-02-10 17:30 7.11 133000 416000 (2019) 48000 (1977) 150000 53000 63300 79500 82700 118000 189000 223000 279000 360000
2021-02-10 17:00 7.11 133000 416000 (2019) 48000 (1977) 150000 53000 63300 79500 82700 118000 189000 223000 279000 360000
2021-02-10 16:30 7.18 134000 416000 (2019) 48000 (1977) 150000 53000 63300 79500 82700 118000 189000 223000 279000 360000
2021-02-10 16:00 7.19 134000 416000 (2019) 48000 (1977) 150000 53000 63300 79500 82700 118000 189000 223000 279000 360000
2021-02-10 15:30 7.21 134000 416000 (2019) 48000 (1977) 150000 53000 63300 79500 82700 118000 189000 223000 279000 360000
2021-02-10 15:00 7.20 134000 416000 (2019) 48000 (1977) 150000 53000 63300 79500 82700 118000 189000 223000 279000 360000
2021-02-10 14:30 7.22 134000 416000 (2019) 48000 (1977) 150000 53000 63300 79500 82700 118000 189000 223000 279000 360000
2021-02-10 14:00 7.29 135000 416000 (2019) 48000 (1977) 150000 53000 63300 79500 82700 118000 189000 223000 279000 360000
2021-02-10 13:30 7.29 135000 416000 (2019) 48000 (1977) 150000 53000 63300 79500 82700 118000 189000 223000 279000 360000
2021-02-10 13:00 7.29 135000 416000 (2019) 48000 (1977) 150000 53000 63300 79500 82700 118000 189000 223000 279000 360000
2021-02-10 12:30 7.30 135000 416000 (2019) 48000 (1977) 150000 53000 63300 79500 82700 118000 189000 223000 279000 360000
2021-02-10 12:00 7.35 136000 416000 (2019) 48000 (1977) 150000 53000 63300 79500 82700 118000 189000 223000 279000 360000
2021-02-10 11:30 7.35 136000 416000 (2019) 48000 (1977) 150000 53000 63300 79500 82700 118000 189000 223000 279000 360000
2021-02-10 11:00 7.38 136000 416000 (2019) 48000 (1977) 150000 53000 63300 79500 82700 118000 189000 223000 279000 360000
2021-02-10 10:30 7.41 136000 416000 (2019) 48000 (1977) 150000 53000 63300 79500 82700 118000 189000 223000 279000 360000
2021-02-10 10:00 7.43 136000 416000 (2019) 48000 (1977) 150000 53000 63300 79500 82700 118000 189000 223000 279000 360000
2021-02-10 09:30 7.46 137000 416000 (2019) 48000 (1977) 150000 53000 63300 79500 82700 118000 189000 223000 279000 360000
2021-02-10 09:00 7.46 137000 416000 (2019) 48000 (1977) 150000 53000 63300 79500 82700 118000 189000 223000 279000 360000
2021-02-10 08:30 7.49 137000 416000 (2019) 48000 (1977) 150000 53000 63300 79500 82700 118000 189000 223000 279000 360000
2021-02-10 08:00 7.54 138000 416000 (2019) 48000 (1977) 150000 53000 63300 79500 82700 118000 189000 223000 279000 360000
2021-02-10 07:30 7.56 138000 416000 (2019) 48000 (1977) 150000 53000 63300 79500 82700 118000 189000 223000 279000 360000
2021-02-10 07:00 7.58 138000 416000 (2019) 48000 (1977) 150000 53000 63300 79500 82700 118000 189000 223000 279000 360000
2021-02-10 06:30 7.60 138000 416000 (2019) 48000 (1977) 150000 53000 63300 79500 82700 118000 189000 223000 279000 360000
2021-02-10 06:00 7.63 138000 416000 (2019) 48000 (1977) 150000 53000 63300 79500 82700 118000 189000 223000 279000 360000
2021-02-10 05:30 7.64 139000 416000 (2019) 48000 (1977) 150000 53000 63300 79500 82700 118000 189000 223000 279000 360000
2021-02-10 05:00 7.68 139000 416000 (2019) 48000 (1977) 150000 53000 63300 79500 82700 118000 189000 223000 279000 360000
2021-02-10 04:30 7.72 139000 416000 (2019) 48000 (1977) 150000 53000 63300 79500 82700 118000 189000 223000 279000 360000
2021-02-10 04:00 7.72 139000 416000 (2019) 48000 (1977) 150000 53000 63300 79500 82700 118000 189000 223000 279000 360000
2021-02-10 03:30 7.75 140000 416000 (2019) 48000 (1977) 150000 53000 63300 79500 82700 118000 189000 223000 279000 360000
2021-02-10 03:00 7.74 140000 416000 (2019) 48000 (1977) 150000 53000 63300 79500 82700 118000 189000 223000 279000 360000
2021-02-10 02:30 7.80 140000 416000 (2019) 48000 (1977) 150000 53000 63300 79500 82700 118000 189000 223000 279000 360000
2021-02-10 02:00 7.83 140000 416000 (2019) 48000 (1977) 150000 53000 63300 79500 82700 118000 189000 223000 279000 360000
2021-02-10 01:30 7.84 141000 416000 (2019) 48000 (1977) 150000 53000 63300 79500 82700 118000 189000 223000 279000 360000
2021-02-10 01:00 7.88 141000 416000 (2019) 48000 (1977) 150000 53000 63300 79500 82700 118000 189000 223000 279000 360000
2021-02-10 00:30 7.90 141000 416000 (2019) 48000 (1977) 150000 53000 63300 79500 82700 118000 189000 223000 279000 360000
2021-02-10 00:00 7.96 142000 416000 (2019) 48000 (1977) 150000 53000 63300 79500 82700 118000 189000 223000 279000 360000
2021-02-09 23:30 7.96 142000 433000 (2019) 49500 (1964) 151000 52100 66000 79100 85300 121000 202000 229000 264000 363000
2021-02-09 23:00 7.98 142000 433000 (2019) 49500 (1964) 151000 52100 66000 79100 85300 121000 202000 229000 264000 363000
2021-02-09 22:30 8.01 142000 433000 (2019) 49500 (1964) 151000 52100 66000 79100 85300 121000 202000 229000 264000 363000
2021-02-09 22:00 8.03 142000 433000 (2019) 49500 (1964) 151000 52100 66000 79100 85300 121000 202000 229000 264000 363000
2021-02-09 21:30 8.02 142000 433000 (2019) 49500 (1964) 151000 52100 66000 79100 85300 121000 202000 229000 264000 363000
2021-02-09 21:00 8.06 143000 433000 (2019) 49500 (1964) 151000 52100 66000 79100 85300 121000 202000 229000 264000 363000
2021-02-09 20:30 8.09 143000 433000 (2019) 49500 (1964) 151000 52100 66000 79100 85300 121000 202000 229000 264000 363000
2021-02-09 20:00 8.10 143000 433000 (2019) 49500 (1964) 151000 52100 66000 79100 85300 121000 202000 229000 264000 363000
2021-02-09 19:30 8.15 144000 433000 (2019) 49500 (1964) 151000 52100 66000 79100 85300 121000 202000 229000 264000 363000
2021-02-09 19:00 8.17 144000 433000 (2019) 49500 (1964) 151000 52100 66000 79100 85300 121000 202000 229000 264000 363000
2021-02-09 18:30 8.18 144000 433000 (2019) 49500 (1964) 151000 52100 66000 79100 85300 121000 202000 229000 264000 363000
2021-02-09 18:00 8.25 145000 433000 (2019) 49500 (1964) 151000 52100 66000 79100 85300 121000 202000 229000 264000 363000
2021-02-09 17:30 8.24 145000 433000 (2019) 49500 (1964) 151000 52100 66000 79100 85300 121000 202000 229000 264000 363000
2021-02-09 17:00 8.29 145000 433000 (2019) 49500 (1964) 151000 52100 66000 79100 85300 121000 202000 229000 264000 363000
2021-02-09 16:30 8.33 145000 433000 (2019) 49500 (1964) 151000 52100 66000 79100 85300 121000 202000 229000 264000 363000
2021-02-09 16:00 8.32 145000 433000 (2019) 49500 (1964) 151000 52100 66000 79100 85300 121000 202000 229000 264000 363000
2021-02-09 15:30 8.37 146000 433000 (2019) 49500 (1964) 151000 52100 66000 79100 85300 121000 202000 229000 264000 363000
2021-02-09 15:00 8.41 146000 433000 (2019) 49500 (1964) 151000 52100 66000 79100 85300 121000 202000 229000 264000 363000
2021-02-09 14:30 8.45 147000 433000 (2019) 49500 (1964) 151000 52100 66000 79100 85300 121000 202000 229000 264000 363000
2021-02-09 14:00 8.47 147000 433000 (2019) 49500 (1964) 151000 52100 66000 79100 85300 121000 202000 229000 264000 363000
2021-02-09 13:30 8.51 147000 433000 (2019) 49500 (1964) 151000 52100 66000 79100 85300 121000 202000 229000 264000 363000
2021-02-09 13:00 8.51 147000 433000 (2019) 49500 (1964) 151000 52100 66000 79100 85300 121000 202000 229000 264000 363000
2021-02-09 12:30 8.56 148000 433000 (2019) 49500 (1964) 151000 52100 66000 79100 85300 121000 202000 229000 264000 363000
2021-02-09 12:00 8.60 148000 433000 (2019) 49500 (1964) 151000 52100 66000 79100 85300 121000 202000 229000 264000 363000
2021-02-09 11:30 8.58 148000 433000 (2019) 49500 (1964) 151000 52100 66000 79100 85300 121000 202000 229000 264000 363000
2021-02-09 11:00 8.67 149000 433000 (2019) 49500 (1964) 151000 52100 66000 79100 85300 121000 202000 229000 264000 363000
2021-02-09 10:30 8.65 149000 433000 (2019) 49500 (1964) 151000 52100 66000 79100 85300 121000 202000 229000 264000 363000
2021-02-09 10:00 8.72 150000 433000 (2019) 49500 (1964) 151000 52100 66000 79100 85300 121000 202000 229000 264000 363000
2021-02-09 09:30 8.70 149000 433000 (2019) 49500 (1964) 151000 52100 66000 79100 85300 121000 202000 229000 264000 363000
2021-02-09 09:00 8.74 150000 433000 (2019) 49500 (1964) 151000 52100 66000 79100 85300 121000 202000 229000 264000 363000
2021-02-09 08:30 8.76 150000 433000 (2019) 49500 (1964) 151000 52100 66000 79100 85300 121000 202000 229000 264000 363000
2021-02-09 08:00 8.84 151000 433000 (2019) 49500 (1964) 151000 52100 66000 79100 85300 121000 202000 229000 264000 363000
2021-02-09 07:30 8.86 151000 433000 (2019) 49500 (1964) 151000 52100 66000 79100 85300 121000 202000 229000 264000 363000
2021-02-09 07:00 8.89 151000 433000 (2019) 49500 (1964) 151000 52100 66000 79100 85300 121000 202000 229000 264000 363000
2021-02-09 06:30 8.90 151000 433000 (2019) 49500 (1964) 151000 52100 66000 79100 85300 121000 202000 229000 264000 363000
2021-02-09 06:00 8.97 152000 433000 (2019) 49500 (1964) 151000 52100 66000 79100 85300 121000 202000 229000 264000 363000
2021-02-09 05:30 8.97 152000 433000 (2019) 49500 (1964) 151000 52100 66000 79100 85300 121000 202000 229000 264000 363000
2021-02-09 05:00 9.04 153000 433000 (2019) 49500 (1964) 151000 52100 66000 79100 85300 121000 202000 229000 264000 363000
2021-02-09 04:30 9.09 153000 433000 (2019) 49500 (1964) 151000 52100 66000 79100 85300 121000 202000 229000 264000 363000
2021-02-09 04:00 8.97 152000 433000 (2019) 49500 (1964) 151000 52100 66000 79100 85300 121000 202000 229000 264000 363000
2021-02-09 03:30 9.15 154000 433000 (2019) 49500 (1964) 151000 52100 66000 79100 85300 121000 202000 229000 264000 363000
2021-02-09 03:00 9.19 154000 433000 (2019) 49500 (1964) 151000 52100 66000 79100 85300 121000 202000 229000 264000 363000
2021-02-09 02:30 9.22 155000 433000 (2019) 49500 (1964) 151000 52100 66000 79100 85300 121000 202000 229000 264000 363000
2021-02-09 02:00 9.25 155000 433000 (2019) 49500 (1964) 151000 52100 66000 79100 85300 121000 202000 229000 264000 363000
2021-02-09 01:30 9.31 156000 433000 (2019) 49500 (1964) 151000 52100 66000 79100 85300 121000 202000 229000 264000 363000
2021-02-09 01:00 9.31 156000 433000 (2019) 49500 (1964) 151000 52100 66000 79100 85300 121000 202000 229000 264000 363000
2021-02-09 00:30 9.37 157000 433000 (2019) 49500 (1964) 151000 52100 66000 79100 85300 121000 202000 229000 264000 363000
2021-02-09 00:00 9.43 157000 433000 (2019) 49500 (1964) 151000 52100 66000 79100 85300 121000 202000 229000 264000 363000
2021-02-08 23:30 9.44 157000 446000 (1973) 51000 (1977) 152000 53000 64800 79600 84900 123000 199000 212000 284000 370000
2021-02-08 23:00 9.52 158000 446000 (1973) 51000 (1977) 152000 53000 64800 79600 84900 123000 199000 212000 284000 370000
2021-02-08 22:30 9.57 159000 446000 (1973) 51000 (1977) 152000 53000 64800 79600 84900 123000 199000 212000 284000 370000
2021-02-08 22:00 9.58 159000 446000 (1973) 51000 (1977) 152000 53000 64800 79600 84900 123000 199000 212000 284000 370000
2021-02-08 21:30 9.63 160000 446000 (1973) 51000 (1977) 152000 53000 64800 79600 84900 123000 199000 212000 284000 370000
2021-02-08 21:00 9.68 160000 446000 (1973) 51000 (1977) 152000 53000 64800 79600 84900 123000 199000 212000 284000 370000
2021-02-08 20:30 9.72 161000 446000 (1973) 51000 (1977) 152000 53000 64800 79600 84900 123000 199000 212000 284000 370000
2021-02-08 20:00 9.79 161000 446000 (1973) 51000 (1977) 152000 53000 64800 79600 84900 123000 199000 212000 284000 370000
2021-02-08 19:30 9.81 162000 446000 (1973) 51000 (1977) 152000 53000 64800 79600 84900 123000 199000 212000 284000 370000
2021-02-08 19:00 9.85 162000 446000 (1973) 51000 (1977) 152000 53000 64800 79600 84900 123000 199000 212000 284000 370000
2021-02-08 18:30 9.92 163000 446000 (1973) 51000 (1977) 152000 53000 64800 79600 84900 123000 199000 212000 284000 370000
2021-02-08 18:00 9.98 164000 446000 (1973) 51000 (1977) 152000 53000 64800 79600 84900 123000 199000 212000 284000 370000
2021-02-08 17:30 9.99 164000 446000 (1973) 51000 (1977) 152000 53000 64800 79600 84900 123000 199000 212000 284000 370000
2021-02-08 17:00 10.01 164000 446000 (1973) 51000 (1977) 152000 53000 64800 79600 84900 123000 199000 212000 284000 370000
2021-02-08 16:30 10.08 165000 446000 (1973) 51000 (1977) 152000 53000 64800 79600 84900 123000 199000 212000 284000 370000
2021-02-08 16:00 10.12 165000 446000 (1973) 51000 (1977) 152000 53000 64800 79600 84900 123000 199000 212000 284000 370000
2021-02-08 15:30 10.15 166000 446000 (1973) 51000 (1977) 152000 53000 64800 79600 84900 123000 199000 212000 284000 370000
2021-02-08 15:00 10.22 166000 446000 (1973) 51000 (1977) 152000 53000 64800 79600 84900 123000 199000 212000 284000 370000
2021-02-08 14:30 10.24 167000 446000 (1973) 51000 (1977) 152000 53000 64800 79600 84900 123000 199000 212000 284000 370000
2021-02-08 14:00 10.23 167000 446000 (1973) 51000 (1977) 152000 53000 64800 79600 84900 123000 199000 212000 284000 370000
2021-02-08 13:30 10.30 167000 446000 (1973) 51000 (1977) 152000 53000 64800 79600 84900 123000 199000 212000 284000 370000
2021-02-08 13:00 10.36 168000 446000 (1973) 51000 (1977) 152000 53000 64800 79600 84900 123000 199000 212000 284000 370000
2021-02-08 12:30 10.42 169000 446000 (1973) 51000 (1977) 152000 53000 64800 79600 84900 123000 199000 212000 284000 370000
2021-02-08 12:00 10.41 169000 446000 (1973) 51000 (1977) 152000 53000 64800 79600 84900 123000 199000 212000 284000 370000
2021-02-08 11:30 10.28 167000 446000 (1973) 51000 (1977) 152000 53000 64800 79600 84900 123000 199000 212000 284000 370000
2021-02-08 11:00 10.43 169000 446000 (1973) 51000 (1977) 152000 53000 64800 79600 84900 123000 199000 212000 284000 370000
2021-02-08 10:30 10.49 170000 446000 (1973) 51000 (1977) 152000 53000 64800 79600 84900 123000 199000 212000 284000 370000
2021-02-08 10:00 10.49 170000 446000 (1973) 51000 (1977) 152000 53000 64800 79600 84900 123000 199000 212000 284000 370000
2021-02-08 09:30 10.52 170000 446000 (1973) 51000 (1977) 152000 53000 64800 79600 84900 123000 199000 212000 284000 370000
2021-02-08 09:00 10.54 170000 446000 (1973) 51000 (1977) 152000 53000 64800 79600 84900 123000 199000 212000 284000 370000
2021-02-08 08:30 10.62 171000 446000 (1973) 51000 (1977) 152000 53000 64800 79600 84900 123000 199000 212000 284000 370000
2021-02-08 08:00 10.69 172000 446000 (1973) 51000 (1977) 152000 53000 64800 79600 84900 123000 199000 212000 284000 370000
2021-02-08 07:30 10.71 172000 446000 (1973) 51000 (1977) 152000 53000 64800 79600 84900 123000 199000 212000 284000 370000
2021-02-08 07:00 10.71 172000 446000 (1973) 51000 (1977) 152000 53000 64800 79600 84900 123000 199000 212000 284000 370000
2021-02-08 06:30 10.73 173000 446000 (1973) 51000 (1977) 152000 53000 64800 79600 84900 123000 199000 212000 284000 370000
2021-02-08 06:00 10.70 172000 446000 (1973) 51000 (1977) 152000 53000 64800 79600 84900 123000 199000 212000 284000 370000
2021-02-08 05:30 10.74 173000 446000 (1973) 51000 (1977) 152000 53000 64800 79600 84900 123000 199000 212000 284000 370000
2021-02-08 05:00 10.75 173000 446000 (1973) 51000 (1977) 152000 53000 64800 79600 84900 123000 199000 212000 284000 370000
2021-02-08 04:30 10.74 173000 446000 (1973) 51000 (1977) 152000 53000 64800 79600 84900 123000 199000 212000 284000 370000
2021-02-08 04:00 10.82 174000 446000 (1973) 51000 (1977) 152000 53000 64800 79600 84900 123000 199000 212000 284000 370000
2021-02-08 03:30 10.78 173000 446000 (1973) 51000 (1977) 152000 53000 64800 79600 84900 123000 199000 212000 284000 370000
2021-02-08 03:00 10.85 174000 446000 (1973) 51000 (1977) 152000 53000 64800 79600 84900 123000 199000 212000 284000 370000
2021-02-08 02:30 10.87 174000 446000 (1973) 51000 (1977) 152000 53000 64800 79600 84900 123000 199000 212000 284000 370000
2021-02-08 02:00 10.84 174000 446000 (1973) 51000 (1977) 152000 53000 64800 79600 84900 123000 199000 212000 284000 370000
2021-02-08 01:30 10.89 175000 446000 (1973) 51000 (1977) 152000 53000 64800 79600 84900 123000 199000 212000 284000 370000
2021-02-08 01:00 10.90 175000 446000 (1973) 51000 (1977) 152000 53000 64800 79600 84900 123000 199000 212000 284000 370000
2021-02-08 00:30 10.93 175000 446000 (1973) 51000 (1977) 152000 53000 64800 79600 84900 123000 199000 212000 284000 370000
2021-02-08 00:00 10.90 175000 446000 (1973) 51000 (1977) 152000 53000 64800 79600 84900 123000 199000 212000 284000 370000
2021-02-07 23:30 10.93 175000 461000 (1973) 51300 (1961) 152000 55000 60800 76500 80900 122000 201000 218000 290000 350000
2021-02-07 23:00 10.92 175000 461000 (1973) 51300 (1961) 152000 55000 60800 76500 80900 122000 201000 218000 290000 350000
2021-02-07 22:30 10.95 175000 461000 (1973) 51300 (1961) 152000 55000 60800 76500 80900 122000 201000 218000 290000 350000
2021-02-07 22:00 10.95 175000 461000 (1973) 51300 (1961) 152000 55000 60800 76500 80900 122000 201000 218000 290000 350000
2021-02-07 21:30 10.97 176000 461000 (1973) 51300 (1961) 152000 55000 60800 76500 80900 122000 201000 218000 290000 350000
2021-02-07 21:00 10.99 176000 461000 (1973) 51300 (1961) 152000 55000 60800 76500 80900 122000 201000 218000 290000 350000
2021-02-07 20:30 11.00 176000 461000 (1973) 51300 (1961) 152000 55000 60800 76500 80900 122000 201000 218000 290000 350000
2021-02-07 20:00 11.04 176000 461000 (1973) 51300 (1961) 152000 55000 60800 76500 80900 122000 201000 218000 290000 350000
2021-02-07 19:30 11.02 176000 461000 (1973) 51300 (1961) 152000 55000 60800 76500 80900 122000 201000 218000 290000 350000
2021-02-07 19:00 11.07 177000 461000 (1973) 51300 (1961) 152000 55000 60800 76500 80900 122000 201000 218000 290000 350000
2021-02-07 18:30 11.10 177000 461000 (1973) 51300 (1961) 152000 55000 60800 76500 80900 122000 201000 218000 290000 350000
2021-02-07 18:00 11.07 177000 461000 (1973) 51300 (1961) 152000 55000 60800 76500 80900 122000 201000 218000 290000 350000
2021-02-07 17:30 10.96 175000 461000 (1973) 51300 (1961) 152000 55000 60800 76500 80900 122000 201000 218000 290000 350000
2021-02-07 17:00 11.16 178000 461000 (1973) 51300 (1961) 152000 55000 60800 76500 80900 122000 201000 218000 290000 350000
2021-02-07 16:30 11.16 178000 461000 (1973) 51300 (1961) 152000 55000 60800 76500 80900 122000 201000 218000 290000 350000
2021-02-07 16:00 11.17 178000 461000 (1973) 51300 (1961) 152000 55000 60800 76500 80900 122000 201000 218000 290000 350000
2021-02-07 15:30 11.19 178000 461000 (1973) 51300 (1961) 152000 55000 60800 76500 80900 122000 201000 218000 290000 350000
2021-02-07 15:00 11.05 177000 461000 (1973) 51300 (1961) 152000 55000 60800 76500 80900 122000 201000 218000 290000 350000
2021-02-07 14:30 11.17 178000 461000 (1973) 51300 (1961) 152000 55000 60800 76500 80900 122000 201000 218000 290000 350000
2021-02-07 14:00 11.26 179000 461000 (1973) 51300 (1961) 152000 55000 60800 76500 80900 122000 201000 218000 290000 350000
2021-02-07 13:30 11.27 179000 461000 (1973) 51300 (1961) 152000 55000 60800 76500 80900 122000 201000 218000 290000 350000
2021-02-07 13:00 11.36 180000 461000 (1973) 51300 (1961) 152000 55000 60800 76500 80900 122000 201000 218000 290000 350000
2021-02-07 12:30 11.39 181000 461000 (1973) 51300 (1961) 152000 55000 60800 76500 80900 122000 201000 218000 290000 350000
2021-02-07 11:00 11.53 183000 461000 (1973) 51300 (1961) 152000 55000 60800 76500 80900 122000 201000 218000 290000 350000
2021-02-07 10:30 11.56 183000 461000 (1973) 51300 (1961) 152000 55000 60800 76500 80900 122000 201000 218000 290000 350000
2021-02-07 10:00 11.62 184000 461000 (1973) 51300 (1961) 152000 55000 60800 76500 80900 122000 201000 218000 290000 350000
2021-02-07 09:30 11.66 184000 461000 (1973) 51300 (1961) 152000 55000 60800 76500 80900 122000 201000 218000 290000 350000
2021-02-07 09:00 11.67 184000 461000 (1973) 51300 (1961) 152000 55000 60800 76500 80900 122000 201000 218000 290000 350000
2021-02-07 08:30 11.71 185000 461000 (1973) 51300 (1961) 152000 55000 60800 76500 80900 122000 201000 218000 290000 350000
2021-02-07 08:00 11.79 186000 461000 (1973) 51300 (1961) 152000 55000 60800 76500 80900 122000 201000 218000 290000 350000
2021-02-07 07:30 11.84 186000 461000 (1973) 51300 (1961) 152000 55000 60800 76500 80900 122000 201000 218000 290000 350000
2021-02-07 07:00 11.85 187000 461000 (1973) 51300 (1961) 152000 55000 60800 76500 80900 122000 201000 218000 290000 350000
2021-02-07 06:30 11.92 188000 461000 (1973) 51300 (1961) 152000 55000 60800 76500 80900 122000 201000 218000 290000 350000
2021-02-07 06:00 11.94 188000 461000 (1973) 51300 (1961) 152000 55000 60800 76500 80900 122000 201000 218000 290000 350000
2021-02-07 05:30 11.97 188000 461000 (1973) 51300 (1961) 152000 55000 60800 76500 80900 122000 201000 218000 290000 350000
2021-02-07 05:00 12.00 189000 461000 (1973) 51300 (1961) 152000 55000 60800 76500 80900 122000 201000 218000 290000 350000
2021-02-07 04:30 12.05 189000 461000 (1973) 51300 (1961) 152000 55000 60800 76500 80900 122000 201000 218000 290000 350000
2021-02-07 04:00 12.14 190000 461000 (1973) 51300 (1961) 152000 55000 60800 76500 80900 122000 201000 218000 290000 350000
2021-02-07 03:30 12.16 191000 461000 (1973) 51300 (1961) 152000 55000 60800 76500 80900 122000 201000 218000 290000 350000
2021-02-07 03:00 12.24 192000 461000 (1973) 51300 (1961) 152000 55000 60800 76500 80900 122000 201000 218000 290000 350000
2021-02-07 02:30 12.24 192000 461000 (1973) 51300 (1961) 152000 55000 60800 76500 80900 122000 201000 218000 290000 350000
2021-02-07 02:00 12.27 192000 461000 (1973) 51300 (1961) 152000 55000 60800 76500 80900 122000 201000 218000 290000 350000
2021-02-07 01:30 12.34 193000 461000 (1973) 51300 (1961) 152000 55000 60800 76500 80900 122000 201000 218000 290000 350000
2021-02-07 01:00 12.39 194000 461000 (1973) 51300 (1961) 152000 55000 60800 76500 80900 122000 201000 218000 290000 350000
2021-02-07 00:30 12.38 193000 461000 (1973) 51300 (1961) 152000 55000 60800 76500 80900 122000 201000 218000 290000 350000
2021-02-07 00:00 12.46 195000 461000 (1973) 51300 (1961) 152000 55000 60800 76500 80900 122000 201000 218000 290000 350000
2021-02-06 23:30 12.53 195000 461000 (1973) 50600 (1961) 152000 53000 58500 77100 81800 121000 190000 234000 286000 345000
2021-02-06 23:00 12.58 196000 461000 (1973) 50600 (1961) 152000 53000 58500 77100 81800 121000 190000 234000 286000 345000
2021-02-06 22:30 12.62 197000 461000 (1973) 50600 (1961) 152000 53000 58500 77100 81800 121000 190000 234000 286000 345000
2021-02-06 22:00 12.63 197000 461000 (1973) 50600 (1961) 152000 53000 58500 77100 81800 121000 190000 234000 286000 345000
2021-02-06 21:30 12.70 198000 461000 (1973) 50600 (1961) 152000 53000 58500 77100 81800 121000 190000 234000 286000 345000
2021-02-06 21:00 12.72 198000 461000 (1973) 50600 (1961) 152000 53000 58500 77100 81800 121000 190000 234000 286000 345000
2021-02-06 20:30 12.79 199000 461000 (1973) 50600 (1961) 152000 53000 58500 77100 81800 121000 190000 234000 286000 345000
2021-02-06 20:00 12.80 199000 461000 (1973) 50600 (1961) 152000 53000 58500 77100 81800 121000 190000 234000 286000 345000
2021-02-06 19:30 12.86 200000 461000 (1973) 50600 (1961) 152000 53000 58500 77100 81800 121000 190000 234000 286000 345000
2021-02-06 19:00 12.88 200000 461000 (1973) 50600 (1961) 152000 53000 58500 77100 81800 121000 190000 234000 286000 345000
2021-02-06 18:30 12.93 201000 461000 (1973) 50600 (1961) 152000 53000 58500 77100 81800 121000 190000 234000 286000 345000
2021-02-06 18:00 12.95 201000 461000 (1973) 50600 (1961) 152000 53000 58500 77100 81800 121000 190000 234000 286000 345000
2021-02-06 17:30 12.93 201000 461000 (1973) 50600 (1961) 152000 53000 58500 77100 81800 121000 190000 234000 286000 345000
2021-02-06 17:00 13.03 202000 461000 (1973) 50600 (1961) 152000 53000 58500 77100 81800 121000 190000 234000 286000 345000
2021-02-06 16:30 13.05 202000 461000 (1973) 50600 (1961) 152000 53000 58500 77100 81800 121000 190000 234000 286000 345000
2021-02-06 16:00 13.06 203000 461000 (1973) 50600 (1961) 152000 53000 58500 77100 81800 121000 190000 234000 286000 345000
2021-02-06 15:30 13.10 203000 461000 (1973) 50600 (1961) 152000 53000 58500 77100 81800 121000 190000 234000 286000 345000
2021-02-06 15:00 13.18 204000 461000 (1973) 50600 (1961) 152000 53000 58500 77100 81800 121000 190000 234000 286000 345000
2021-02-06 14:30 13.20 204000 461000 (1973) 50600 (1961) 152000 53000 58500 77100 81800 121000 190000 234000 286000 345000
2021-02-06 14:00 13.26 205000 461000 (1973) 50600 (1961) 152000 53000 58500 77100 81800 121000 190000 234000 286000 345000
2021-02-06 13:30 13.26 205000 461000 (1973) 50600 (1961) 152000 53000 58500 77100 81800 121000 190000 234000 286000 345000
2021-02-06 13:00 13.22 205000 461000 (1973) 50600 (1961) 152000 53000 58500 77100 81800 121000 190000 234000 286000 345000
2021-02-06 12:30 13.33 206000 461000 (1973) 50600 (1961) 152000 53000 58500 77100 81800 121000 190000 234000 286000 345000
2021-02-06 12:00 13.33 206000 461000 (1973) 50600 (1961) 152000 53000 58500 77100 81800 121000 190000 234000 286000 345000
2021-02-06 11:30 13.34 206000 461000 (1973) 50600 (1961) 152000 53000 58500 77100 81800 121000 190000 234000 286000 345000
2021-02-06 11:00 13.35 206000 461000 (1973) 50600 (1961) 152000 53000 58500 77100 81800 121000 190000 234000 286000 345000
2021-02-06 10:30 13.43 208000 461000 (1973) 50600 (1961) 152000 53000 58500 77100 81800 121000 190000 234000 286000 345000
2021-02-06 10:00 13.47 208000 461000 (1973) 50600 (1961) 152000 53000 58500 77100 81800 121000 190000 234000 286000 345000
2021-02-06 09:30 13.49 208000 461000 (1973) 50600 (1961) 152000 53000 58500 77100 81800 121000 190000 234000 286000 345000
2021-02-06 09:00 13.52 209000 461000 (1973) 50600 (1961) 152000 53000 58500 77100 81800 121000 190000 234000 286000 345000
2021-02-06 08:30 13.52 209000 461000 (1973) 50600 (1961) 152000 53000 58500 77100 81800 121000 190000 234000 286000 345000
2021-02-06 08:00 13.41 207000 461000 (1973) 50600 (1961) 152000 53000 58500 77100 81800 121000 190000 234000 286000 345000
2021-02-06 07:30 13.59 210000 461000 (1973) 50600 (1961) 152000 53000 58500 77100 81800 121000 190000 234000 286000 345000
2021-02-06 07:00 13.53 209000 461000 (1973) 50600 (1961) 152000 53000 58500 77100 81800 121000 190000 234000 286000 345000
2021-02-06 06:30 13.65 211000 461000 (1973) 50600 (1961) 152000 53000 58500 77100 81800 121000 190000 234000 286000 345000
2021-02-06 06:00 13.68 211000 461000 (1973) 50600 (1961) 152000 53000 58500 77100 81800 121000 190000 234000 286000 345000
2021-02-06 05:30 13.62 210000 461000 (1973) 50600 (1961) 152000 53000 58500 77100 81800 121000 190000 234000 286000 345000
2021-02-06 05:00 13.73 212000 461000 (1973) 50600 (1961) 152000 53000 58500 77100 81800 121000 190000 234000 286000 345000
2021-02-06 04:30 13.74 212000 461000 (1973) 50600 (1961) 152000 53000 58500 77100 81800 121000 190000 234000 286000 345000
2021-02-06 04:00 13.73 212000 461000 (1973) 50600 (1961) 152000 53000 58500 77100 81800 121000 190000 234000 286000 345000
2021-02-06 03:30 13.83 213000 461000 (1973) 50600 (1961) 152000 53000 58500 77100 81800 121000 190000 234000 286000 345000
2021-02-06 03:00 13.84 213000 461000 (1973) 50600 (1961) 152000 53000 58500 77100 81800 121000 190000 234000 286000 345000
2021-02-06 02:30 13.84 213000 461000 (1973) 50600 (1961) 152000 53000 58500 77100 81800 121000 190000 234000 286000 345000
2021-02-06 02:00 13.71 211000 461000 (1973) 50600 (1961) 152000 53000 58500 77100 81800 121000 190000 234000 286000 345000
2021-02-06 01:30 13.88 214000 461000 (1973) 50600 (1961) 152000 53000 58500 77100 81800 121000 190000 234000 286000 345000
2021-02-06 01:00 13.87 214000 461000 (1973) 50600 (1961) 152000 53000 58500 77100 81800 121000 190000 234000 286000 345000
2021-02-06 00:30 13.98 215000 461000 (1973) 50600 (1961) 152000 53000 58500 77100 81800 121000 190000 234000 286000 345000
2021-02-06 00:00 13.98 215000 461000 (1973) 50600 (1961) 152000 53000 58500 77100 81800 121000 190000 234000 286000 345000
2021-02-05 23:30 14.05 216000 430000 (1973) 50000 (1951) 151000 53900 57900 77400 84300 120000 195000 248000 277000 319000
2021-02-05 23:00 14.07 216000 430000 (1973) 50000 (1951) 151000 53900 57900 77400 84300 120000 195000 248000 277000 319000
2021-02-05 22:30 14.07 216000 430000 (1973) 50000 (1951) 151000 53900 57900 77400 84300 120000 195000 248000 277000 319000
2021-02-05 22:00 13.96 215000 430000 (1973) 50000 (1951) 151000 53900 57900 77400 84300 120000 195000 248000 277000 319000
2021-02-05 21:30 14.15 218000 430000 (1973) 50000 (1951) 151000 53900 57900 77400 84300 120000 195000 248000 277000 319000
2021-02-05 21:00 14.07 216000 430000 (1973) 50000 (1951) 151000 53900 57900 77400 84300 120000 195000 248000 277000 319000
2021-02-05 20:30 14.15 218000 430000 (1973) 50000 (1951) 151000 53900 57900 77400 84300 120000 195000 248000 277000 319000
2021-02-05 20:00 14.09 217000 430000 (1973) 50000 (1951) 151000 53900 57900 77400 84300 120000 195000 248000 277000 319000
2021-02-05 19:30 14.23 219000 430000 (1973) 50000 (1951) 151000 53900 57900 77400 84300 120000 195000 248000 277000 319000
2021-02-05 19:00 14.29 220000 430000 (1973) 50000 (1951) 151000 53900 57900 77400 84300 120000 195000 248000 277000 319000
2021-02-05 18:30 14.27 219000 430000 (1973) 50000 (1951) 151000 53900 57900 77400 84300 120000 195000 248000 277000 319000
2021-02-05 18:00 14.23 219000 430000 (1973) 50000 (1951) 151000 53900 57900 77400 84300 120000 195000 248000 277000 319000
2021-02-05 17:30 14.31 220000 430000 (1973) 50000 (1951) 151000 53900 57900 77400 84300 120000 195000 248000 277000 319000
2021-02-05 17:00 14.28 219000 430000 (1973) 50000 (1951) 151000 53900 57900 77400 84300 120000 195000 248000 277000 319000
2021-02-05 16:30 14.30 220000 430000 (1973) 50000 (1951) 151000 53900 57900 77400 84300 120000 195000 248000 277000 319000
2021-02-05 16:00 14.37 221000 430000 (1973) 50000 (1951) 151000 53900 57900 77400 84300 120000 195000 248000 277000 319000
2021-02-05 15:30 14.28 219000 430000 (1973) 50000 (1951) 151000 53900 57900 77400 84300 120000 195000 248000 277000 319000
2021-02-05 15:00 14.02 216000 430000 (1973) 50000 (1951) 151000 53900 57900 77400 84300 120000 195000 248000 277000 319000
2021-02-05 14:30 14.41 221000 430000 (1973) 50000 (1951) 151000 53900 57900 77400 84300 120000 195000 248000 277000 319000
2021-02-05 14:00 14.35 220000 430000 (1973) 50000 (1951) 151000 53900 57900 77400 84300 120000 195000 248000 277000 319000
2021-02-05 13:30 14.43 210000 430000 (1973) 50000 (1951) 151000 53900 57900 77400 84300 120000 195000 248000 277000 319000
2021-02-05 13:00 14.38 209000 430000 (1973) 50000 (1951) 151000 53900 57900 77400 84300 120000 195000 248000 277000 319000
2021-02-05 12:30 14.30 208000 430000 (1973) 50000 (1951) 151000 53900 57900 77400 84300 120000 195000 248000 277000 319000
2021-02-05 12:00 14.34 208000 430000 (1973) 50000 (1951) 151000 53900 57900 77400 84300 120000 195000 248000 277000 319000
2021-02-05 11:30 14.31 208000 430000 (1973) 50000 (1951) 151000 53900 57900 77400 84300 120000 195000 248000 277000 319000
2021-02-05 11:00 14.33 208000 430000 (1973) 50000 (1951) 151000 53900 57900 77400 84300 120000 195000 248000 277000 319000
2021-02-05 10:30 14.28 208000 430000 (1973) 50000 (1951) 151000 53900 57900 77400 84300 120000 195000 248000 277000 319000
2021-02-05 10:00 14.25 207000 430000 (1973) 50000 (1951) 151000 53900 57900 77400 84300 120000 195000 248000 277000 319000
2021-02-05 09:30 14.25 207000 430000 (1973) 50000 (1951) 151000 53900 57900 77400 84300 120000 195000 248000 277000 319000
2021-02-05 09:00 14.24 207000 430000 (1973) 50000 (1951) 151000 53900 57900 77400 84300 120000 195000 248000 277000 319000
2021-02-05 08:30 14.19 206000 430000 (1973) 50000 (1951) 151000 53900 57900 77400 84300 120000 195000 248000 277000 319000
2021-02-05 08:00 14.27 207000 430000 (1973) 50000 (1951) 151000 53900 57900 77400 84300 120000 195000 248000 277000 319000
2021-02-05 07:30 14.33 208000 430000 (1973) 50000 (1951) 151000 53900 57900 77400 84300 120000 195000 248000 277000 319000
2021-02-05 07:00 14.27 207000 430000 (1973) 50000 (1951) 151000 53900 57900 77400 84300 120000 195000 248000 277000 319000
2021-02-05 06:30 14.34 208000 430000 (1973) 50000 (1951) 151000 53900 57900 77400 84300 120000 195000 248000 277000 319000
2021-02-05 06:00 14.29 208000 430000 (1973) 50000 (1951) 151000 53900 57900 77400 84300 120000 195000 248000 277000 319000
2021-02-05 05:30 14.34 208000 430000 (1973) 50000 (1951) 151000 53900 57900 77400 84300 120000 195000 248000 277000 319000
2021-02-05 05:00 14.34 208000 430000 (1973) 50000 (1951) 151000 53900 57900 77400 84300 120000 195000 248000 277000 319000
2021-02-05 04:30 14.17 206000 430000 (1973) 50000 (1951) 151000 53900 57900 77400 84300 120000 195000 248000 277000 319000
2021-02-05 04:00 14.34 208000 430000 (1973) 50000 (1951) 151000 53900 57900 77400 84300 120000 195000 248000 277000 319000
2021-02-05 03:30 14.37 209000 430000 (1973) 50000 (1951) 151000 53900 57900 77400 84300 120000 195000 248000 277000 319000
2021-02-05 03:00 14.35 209000 430000 (1973) 50000 (1951) 151000 53900 57900 77400 84300 120000 195000 248000 277000 319000
2021-02-05 02:30 14.31 208000 430000 (1973) 50000 (1951) 151000 53900 57900 77400 84300 120000 195000 248000 277000 319000
2021-02-05 02:00 14.32 208000 430000 (1973) 50000 (1951) 151000 53900 57900 77400 84300 120000 195000 248000 277000 319000
2021-02-05 01:30 14.39 209000 430000 (1973) 50000 (1951) 151000 53900 57900 77400 84300 120000 195000 248000 277000 319000
2021-02-05 01:00 14.36 209000 430000 (1973) 50000 (1951) 151000 53900 57900 77400 84300 120000 195000 248000 277000 319000
2021-02-05 00:30 14.45 210000 430000 (1973) 50000 (1951) 151000 53900 57900 77400 84300 120000 195000 248000 277000 319000
2021-02-05 00:00 14.45 210000 430000 (1973) 50000 (1951) 151000 53900 57900 77400 84300 120000 195000 248000 277000 319000
2021-02-04 23:30 14.41 209000 445000 (1974) 49900 (1961) 151000 52300 58600 78900 82600 124000 205000 232000 268000 326000
2021-02-04 23:00 14.40 209000 445000 (1974) 49900 (1961) 151000 52300 58600 78900 82600 124000 205000 232000 268000 326000
2021-02-04 22:30 14.46 210000 445000 (1974) 49900 (1961) 151000 52300 58600 78900 82600 124000 205000 232000 268000 326000
2021-02-04 22:00 14.47 210000 445000 (1974) 49900 (1961) 151000 52300 58600 78900 82600 124000 205000 232000 268000 326000
2021-02-04 21:30 14.53 211000 445000 (1974) 49900 (1961) 151000 52300 58600 78900 82600 124000 205000 232000 268000 326000
2021-02-04 21:00 14.49 210000 445000 (1974) 49900 (1961) 151000 52300 58600 78900 82600 124000 205000 232000 268000 326000
2021-02-04 20:30 14.51 211000 445000 (1974) 49900 (1961) 151000 52300 58600 78900 82600 124000 205000 232000 268000 326000
2021-02-04 20:00 14.56 211000 445000 (1974) 49900 (1961) 151000 52300 58600 78900 82600 124000 205000 232000 268000 326000
2021-02-04 19:30 14.52 211000 445000 (1974) 49900 (1961) 151000 52300 58600 78900 82600 124000 205000 232000 268000 326000
2021-02-04 19:00 14.45 210000 445000 (1974) 49900 (1961) 151000 52300 58600 78900 82600 124000 205000 232000 268000 326000
2021-02-04 18:30 14.60 212000 445000 (1974) 49900 (1961) 151000 52300 58600 78900 82600 124000 205000 232000 268000 326000
2021-02-04 18:00 14.55 211000 445000 (1974) 49900 (1961) 151000 52300 58600 78900 82600 124000 205000 232000 268000 326000
2021-02-04 17:30 14.58 212000 445000 (1974) 49900 (1961) 151000 52300 58600 78900 82600 124000 205000 232000 268000 326000
2021-02-04 17:00 14.69 213000 445000 (1974) 49900 (1961) 151000 52300 58600 78900 82600 124000 205000 232000 268000 326000
2021-02-04 16:30 14.63 212000 445000 (1974) 49900 (1961) 151000 52300 58600 78900 82600 124000 205000 232000 268000 326000
2021-02-04 16:00 14.64 213000 445000 (1974) 49900 (1961) 151000 52300 58600 78900 82600 124000 205000 232000 268000 326000
2021-02-04 15:30 14.62 212000 445000 (1974) 49900 (1961) 151000 52300 58600 78900 82600 124000 205000 232000 268000 326000
2021-02-04 15:00 14.61 212000 445000 (1974) 49900 (1961) 151000 52300 58600 78900 82600 124000 205000 232000 268000 326000
2021-02-04 14:30 14.66 213000 445000 (1974) 49900 (1961) 151000 52300 58600 78900 82600 124000 205000 232000 268000 326000
2021-02-04 14:00 14.70 213000 445000 (1974) 49900 (1961) 151000 52300 58600 78900 82600 124000 205000 232000 268000 326000
2021-02-04 13:30 14.72 214000 445000 (1974) 49900 (1961) 151000 52300 58600 78900 82600 124000 205000 232000 268000 326000
2021-02-04 13:00 14.70 213000 445000 (1974) 49900 (1961) 151000 52300 58600 78900 82600 124000 205000 232000 268000 326000
2021-02-04 12:30 14.65 213000 445000 (1974) 49900 (1961) 151000 52300 58600 78900 82600 124000 205000 232000 268000 326000
2021-02-04 12:00 14.76 214000 445000 (1974) 49900 (1961) 151000 52300 58600 78900 82600 124000 205000 232000 268000 326000
2021-02-04 11:30 14.77 214000 445000 (1974) 49900 (1961) 151000 52300 58600 78900 82600 124000 205000 232000 268000 326000
2021-02-04 11:00 14.77 214000 445000 (1974) 49900 (1961) 151000 52300 58600 78900 82600 124000 205000 232000 268000 326000
2021-02-04 10:30 14.80 215000 445000 (1974) 49900 (1961) 151000 52300 58600 78900 82600 124000 205000 232000 268000 326000
2021-02-04 10:00 14.81 215000 445000 (1974) 49900 (1961) 151000 52300 58600 78900 82600 124000 205000 232000 268000 326000
2021-02-04 09:30 14.82 215000 445000 (1974) 49900 (1961) 151000 52300 58600 78900 82600 124000 205000 232000 268000 326000
2021-02-04 09:00 14.85 215000 445000 (1974) 49900 (1961) 151000 52300 58600 78900 82600 124000 205000 232000 268000 326000
2021-02-04 08:30 14.83 215000 445000 (1974) 49900 (1961) 151000 52300 58600 78900 82600 124000 205000 232000 268000 326000
2021-02-04 08:00 14.85 215000 445000 (1974) 49900 (1961) 151000 52300 58600 78900 82600 124000 205000 232000 268000 326000
2021-02-04 07:30 14.88 216000 445000 (1974) 49900 (1961) 151000 52300 58600 78900 82600 124000 205000 232000 268000 326000
2021-02-04 07:00 14.89 216000 445000 (1974) 49900 (1961) 151000 52300 58600 78900 82600 124000 205000 232000 268000 326000
2021-02-04 06:30 14.90 216000 445000 (1974) 49900 (1961) 151000 52300 58600 78900 82600 124000 205000 232000 268000 326000
2021-02-04 06:00 14.85 215000 445000 (1974) 49900 (1961) 151000 52300 58600 78900 82600 124000 205000 232000 268000 326000
2021-02-04 05:30 14.88 216000 445000 (1974) 49900 (1961) 151000 52300 58600 78900 82600 124000 205000 232000 268000 326000
2021-02-04 05:00 14.96 217000 445000 (1974) 49900 (1961) 151000 52300 58600 78900 82600 124000 205000 232000 268000 326000
2021-02-04 04:30 14.86 216000 445000 (1974) 49900 (1961) 151000 52300 58600 78900 82600 124000 205000 232000 268000 326000
2021-02-04 04:00 14.98 217000 445000 (1974) 49900 (1961) 151000 52300 58600 78900 82600 124000 205000 232000 268000 326000
2021-02-04 03:30 15.00 218000 445000 (1974) 49900 (1961) 151000 52300 58600 78900 82600 124000 205000 232000 268000 326000
2021-02-04 03:00 15.01 218000 445000 (1974) 49900 (1961) 151000 52300 58600 78900 82600 124000 205000 232000 268000 326000
2021-02-04 02:30 15.02 218000 445000 (1974) 49900 (1961) 151000 52300 58600 78900 82600 124000 205000 232000 268000 326000
2021-02-04 02:00 14.96 217000 445000 (1974) 49900 (1961) 151000 52300 58600 78900 82600 124000 205000 232000 268000 326000
2021-02-04 01:30 15.03 218000 445000 (1974) 49900 (1961) 151000 52300 58600 78900 82600 124000 205000 232000 268000 326000
2021-02-04 01:00 15.05 218000 445000 (1974) 49900 (1961) 151000 52300 58600 78900 82600 124000 205000 232000 268000 326000
2021-02-04 00:30 15.07 219000 445000 (1974) 49900 (1961) 151000 52300 58600 78900 82600 124000 205000 232000 268000 326000
2021-02-04 00:00 15.08 219000 445000 (1974) 49900 (1961) 151000 52300 58600 78900 82600 124000 205000 232000 268000 326000
2021-02-03 23:30 15.04 218000 467000 (1974) 49500 (1963) 151000 51900 59800 80100 85400 129000 200000 219000 293000 347000
2021-02-03 23:00 15.09 219000 467000 (1974) 49500 (1963) 151000 51900 59800 80100 85400 129000 200000 219000 293000 347000
2021-02-03 22:30 15.13 219000 467000 (1974) 49500 (1963) 151000 51900 59800 80100 85400 129000 200000 219000 293000 347000
2021-02-03 22:00 15.14 220000 467000 (1974) 49500 (1963) 151000 51900 59800 80100 85400 129000 200000 219000 293000 347000
2021-02-03 21:30 15.17 220000 467000 (1974) 49500 (1963) 151000 51900 59800 80100 85400 129000 200000 219000 293000 347000
2021-02-03 21:00 15.16 220000 467000 (1974) 49500 (1963) 151000 51900 59800 80100 85400 129000 200000 219000 293000 347000
2021-02-03 20:30 15.19 220000 467000 (1974) 49500 (1963) 151000 51900 59800 80100 85400 129000 200000 219000 293000 347000
2021-02-03 20:00 15.18 220000 467000 (1974) 49500 (1963) 151000 51900 59800 80100 85400 129000 200000 219000 293000 347000
2021-02-03 19:30 15.21 221000 467000 (1974) 49500 (1963) 151000 51900 59800 80100 85400 129000 200000 219000 293000 347000
2021-02-03 19:00 15.21 221000 467000 (1974) 49500 (1963) 151000 51900 59800 80100 85400 129000 200000 219000 293000 347000
2021-02-03 18:30 15.18 220000 467000 (1974) 49500 (1963) 151000 51900 59800 80100 85400 129000 200000 219000 293000 347000
2021-02-03 18:00 15.25 221000 467000 (1974) 49500 (1963) 151000 51900 59800 80100 85400 129000 200000 219000 293000 347000
2021-02-03 17:30 15.32 222000 467000 (1974) 49500 (1963) 151000 51900 59800 80100 85400 129000 200000 219000 293000 347000
2021-02-03 17:00 15.34 222000 467000 (1974) 49500 (1963) 151000 51900 59800 80100 85400 129000 200000 219000 293000 347000
2021-02-03 16:30 15.37 223000 467000 (1974) 49500 (1963) 151000 51900 59800 80100 85400 129000 200000 219000 293000 347000
2021-02-03 16:00 15.38 223000 467000 (1974) 49500 (1963) 151000 51900 59800 80100 85400 129000 200000 219000 293000 347000
2021-02-03 15:30 15.36 223000 467000 (1974) 49500 (1963) 151000 51900 59800 80100 85400 129000 200000 219000 293000 347000
2021-02-03 15:00 15.33 222000 467000 (1974) 49500 (1963) 151000 51900 59800 80100 85400 129000 200000 219000 293000 347000
2021-02-03 14:30 15.33 222000 467000 (1974) 49500 (1963) 151000 51900 59800 80100 85400 129000 200000 219000 293000 347000
2021-02-03 14:00 15.38 223000 467000 (1974) 49500 (1963) 151000 51900 59800 80100 85400 129000 200000 219000 293000 347000
2021-02-03 13:30 15.37 223000 467000 (1974) 49500 (1963) 151000 51900 59800 80100 85400 129000 200000 219000 293000 347000
2021-02-03 13:00 15.41 223000 467000 (1974) 49500 (1963) 151000 51900 59800 80100 85400 129000 200000 219000 293000 347000
2021-02-03 12:30 15.42 224000 467000 (1974) 49500 (1963) 151000 51900 59800 80100 85400 129000 200000 219000 293000 347000
2021-02-03 12:00 15.44 224000 467000 (1974) 49500 (1963) 151000 51900 59800 80100 85400 129000 200000 219000 293000 347000
2021-02-03 11:30 15.41 223000 467000 (1974) 49500 (1963) 151000 51900 59800 80100 85400 129000 200000 219000 293000 347000
2021-02-03 11:00 15.46 224000 467000 (1974) 49500 (1963) 151000 51900 59800 80100 85400 129000 200000 219000 293000 347000
2021-02-03 10:30 15.44 224000 467000 (1974) 49500 (1963) 151000 51900 59800 80100 85400 129000 200000 219000 293000 347000
2021-02-03 10:00 15.47 224000 467000 (1974) 49500 (1963) 151000 51900 59800 80100 85400 129000 200000 219000 293000 347000
2021-02-03 09:30 15.42 224000 467000 (1974) 49500 (1963) 151000 51900 59800 80100 85400 129000 200000 219000 293000 347000
2021-02-03 09:00 15.52 225000 467000 (1974) 49500 (1963) 151000 51900 59800 80100 85400 129000 200000 219000 293000 347000
2021-02-03 08:30 15.55 225000 467000 (1974) 49500 (1963) 151000 51900 59800 80100 85400 129000 200000 219000 293000 347000
2021-02-03 08:00 15.54 225000 467000 (1974) 49500 (1963) 151000 51900 59800 80100 85400 129000 200000 219000 293000 347000
2021-02-03 07:30 15.56 226000 467000 (1974) 49500 (1963) 151000 51900 59800 80100 85400 129000 200000 219000 293000 347000
2021-02-03 07:00 15.62 226000 467000 (1974) 49500 (1963) 151000 51900 59800 80100 85400 129000 200000 219000 293000 347000
2021-02-03 06:30 15.62 226000 467000 (1974) 49500 (1963) 151000 51900 59800 80100 85400 129000 200000 219000 293000 347000
2021-02-03 06:00 15.67 227000 467000 (1974) 49500 (1963) 151000 51900 59800 80100 85400 129000 200000 219000 293000 347000
2021-02-03 05:30 15.67 227000 467000 (1974) 49500 (1963) 151000 51900 59800 80100 85400 129000 200000 219000 293000 347000
2021-02-03 05:00 15.77 229000 467000 (1974) 49500 (1963) 151000 51900 59800 80100 85400 129000 200000 219000 293000 347000
2021-02-03 04:30 15.73 228000 467000 (1974) 49500 (1963) 151000 51900 59800 80100 85400 129000 200000 219000 293000 347000
2021-02-03 04:00 15.83 230000 467000 (1974) 49500 (1963) 151000 51900 59800 80100 85400 129000 200000 219000 293000 347000
2021-02-03 03:30 15.88 230000 467000 (1974) 49500 (1963) 151000 51900 59800 80100 85400 129000 200000 219000 293000 347000
2021-02-03 03:00 15.92 231000 467000 (1974) 49500 (1963) 151000 51900 59800 80100 85400 129000 200000 219000 293000 347000
2021-02-03 02:30 15.95 231000 467000 (1974) 49500 (1963) 151000 51900 59800 80100 85400 129000 200000 219000 293000 347000
2021-02-03 02:00 15.87 230000 467000 (1974) 49500 (1963) 151000 51900 59800 80100 85400 129000 200000 219000 293000 347000
2021-02-03 01:30 16.03 232000 467000 (1974) 49500 (1963) 151000 51900 59800 80100 85400 129000 200000 219000 293000 347000
2021-02-03 01:00 16.06 233000 467000 (1974) 49500 (1963) 151000 51900 59800 80100 85400 129000 200000 219000 293000 347000
2021-02-03 00:30 16.10 233000 467000 (1974) 49500 (1963) 151000 51900 59800 80100 85400 129000 200000 219000 293000 347000
2021-02-03 00:00 16.15 234000 467000 (1974) 49500 (1963) 151000 51900 59800 80100 85400 129000 200000 219000 293000 347000
2021-02-02 23:30 16.15 234000 486000 (1974) 48800 (1963) 151000 50300 61400 82800 84900 129000 203000 220000 301000 345000
2021-02-02 23:00 16.25 236000 486000 (1974) 48800 (1963) 151000 50300 61400 82800 84900 129000 203000 220000 301000 345000
2021-02-02 22:30 16.26 236000 486000 (1974) 48800 (1963) 151000 50300 61400 82800 84900 129000 203000 220000 301000 345000
2021-02-02 22:00 16.33 237000 486000 (1974) 48800 (1963) 151000 50300 61400 82800 84900 129000 203000 220000 301000 345000
2021-02-02 21:30 16.34 237000 486000 (1974) 48800 (1963) 151000 50300 61400 82800 84900 129000 203000 220000 301000 345000
2021-02-02 21:00 16.43 238000 486000 (1974) 48800 (1963) 151000 50300 61400 82800 84900 129000 203000 220000 301000 345000
2021-02-02 20:30 16.48 239000 486000 (1974) 48800 (1963) 151000 50300 61400 82800 84900 129000 203000 220000 301000 345000
2021-02-02 20:00 16.54 240000 486000 (1974) 48800 (1963) 151000 50300 61400 82800 84900 129000 203000 220000 301000 345000
2021-02-02 19:30 16.58 241000 486000 (1974) 48800 (1963) 151000 50300 61400 82800 84900 129000 203000 220000 301000 345000
2021-02-02 19:00 16.63 241000 486000 (1974) 48800 (1963) 151000 50300 61400 82800 84900 129000 203000 220000 301000 345000
2021-02-02 18:30 16.70 242000 486000 (1974) 48800 (1963) 151000 50300 61400 82800 84900 129000 203000 220000 301000 345000
2021-02-02 18:00 16.79 244000 486000 (1974) 48800 (1963) 151000 50300 61400 82800 84900 129000 203000 220000 301000 345000
2021-02-02 17:30 16.87 245000 486000 (1974) 48800 (1963) 151000 50300 61400 82800 84900 129000 203000 220000 301000 345000
2021-02-02 17:00 16.95 246000 486000 (1974) 48800 (1963) 151000 50300 61400 82800 84900 129000 203000 220000 301000 345000
2021-02-02 16:30 16.94 246000 486000 (1974) 48800 (1963) 151000 50300 61400 82800 84900 129000 203000 220000 301000 345000
2021-02-02 16:00 17.05 248000 486000 (1974) 48800 (1963) 151000 50300 61400 82800 84900 129000 203000 220000 301000 345000
2021-02-02 15:30 17.06 248000 486000 (1974) 48800 (1963) 151000 50300 61400 82800 84900 129000 203000 220000 301000 345000
2021-02-02 15:00 17.05 248000 486000 (1974) 48800 (1963) 151000 50300 61400 82800 84900 129000 203000 220000 301000 345000
2021-02-02 14:30 17.16 249000 486000 (1974) 48800 (1963) 151000 50300 61400 82800 84900 129000 203000 220000 301000 345000
2021-02-02 14:00 17.15 249000 486000 (1974) 48800 (1963) 151000 50300 61400 82800 84900 129000 203000 220000 301000 345000
2021-02-02 13:30 17.17 250000 486000 (1974) 48800 (1963) 151000 50300 61400 82800 84900 129000 203000 220000 301000 345000
2021-02-02 13:00 17.22 250000 486000 (1974) 48800 (1963) 151000 50300 61400 82800 84900 129000 203000 220000 301000 345000
2021-02-02 12:30 17.21 250000 486000 (1974) 48800 (1963) 151000 50300 61400 82800 84900 129000 203000 220000 301000 345000
2021-02-02 12:00 17.27 251000 486000 (1974) 48800 (1963) 151000 50300 61400 82800 84900 129000 203000 220000 301000 345000
2021-02-02 11:30 17.29 251000 486000 (1974) 48800 (1963) 151000 50300 61400 82800 84900 129000 203000 220000 301000 345000
2021-02-02 11:00 17.28 251000 486000 (1974) 48800 (1963) 151000 50300 61400 82800 84900 129000 203000 220000 301000 345000
2021-02-02 10:30 17.35 252000 486000 (1974) 48800 (1963) 151000 50300 61400 82800 84900 129000 203000 220000 301000 345000
2021-02-02 10:00 17.40 253000 486000 (1974) 48800 (1963) 151000 50300 61400 82800 84900 129000 203000 220000 301000 345000
2021-02-02 09:30 17.47 254000 486000 (1974) 48800 (1963) 151000 50300 61400 82800 84900 129000 203000 220000 301000 345000
2021-02-02 09:00 17.44 254000 486000 (1974) 48800 (1963) 151000 50300 61400 82800 84900 129000 203000 220000 301000 345000
2021-02-02 08:30 17.44 254000 486000 (1974) 48800 (1963) 151000 50300 61400 82800 84900 129000 203000 220000 301000 345000
2021-02-02 08:00 17.52 255000 486000 (1974) 48800 (1963) 151000 50300 61400 82800 84900 129000 203000 220000 301000 345000
2021-02-02 07:30 17.55 256000 486000 (1974) 48800 (1963) 151000 50300 61400 82800 84900 129000 203000 220000 301000 345000
2021-02-02 07:00 17.61 256000 486000 (1974) 48800 (1963) 151000 50300 61400 82800 84900 129000 203000 220000 301000 345000
2021-02-02 06:30 17.60 256000 486000 (1974) 48800 (1963) 151000 50300 61400 82800 84900 129000 203000 220000 301000 345000
2021-02-02 06:00 17.62 257000 486000 (1974) 48800 (1963) 151000 50300 61400 82800 84900 129000 203000 220000 301000 345000
2021-02-02 05:30 17.68 258000 486000 (1974) 48800 (1963) 151000 50300 61400 82800 84900 129000 203000 220000 301000 345000
2021-02-02 05:00 17.72 258000 486000 (1974) 48800 (1963) 151000 50300 61400 82800 84900 129000 203000 220000 301000 345000
2021-02-02 04:30 17.67 257000 486000 (1974) 48800 (1963) 151000 50300 61400 82800 84900 129000 203000 220000 301000 345000
2021-02-02 04:00 17.70 258000 486000 (1974) 48800 (1963) 151000 50300 61400 82800 84900 129000 203000 220000 301000 345000
2021-02-02 03:30 17.72 258000 486000 (1974) 48800 (1963) 151000 50300 61400 82800 84900 129000 203000 220000 301000 345000
2021-02-02 03:00 17.74 258000 486000 (1974) 48800 (1963) 151000 50300 61400 82800 84900 129000 203000 220000 301000 345000
2021-02-02 02:30 17.69 258000 486000 (1974) 48800 (1963) 151000 50300 61400 82800 84900 129000 203000 220000 301000 345000
2021-02-02 02:00 17.77 259000 486000 (1974) 48800 (1963) 151000 50300 61400 82800 84900 129000 203000 220000 301000 345000
2021-02-02 01:30 17.77 259000 486000 (1974) 48800 (1963) 151000 50300 61400 82800 84900 129000 203000 220000 301000 345000
2021-02-02 01:00 17.75 259000 486000 (1974) 48800 (1963) 151000 50300 61400 82800 84900 129000 203000 220000 301000 345000
2021-02-02 00:30 17.75 259000 486000 (1974) 48800 (1963) 151000 50300 61400 82800 84900 129000 203000 220000 301000 345000
2021-02-02 00:00 17.74 258000 486000 (1974) 48800 (1963) 151000 50300 61400 82800 84900 129000 203000 220000 301000 345000
2021-02-01 23:30 17.69 258000 498000 (1974) 47400 (1963) 148000 50300 62700 81200 86100 125000 193000 210000 274000 343000
2021-02-01 23:00 17.70 258000 498000 (1974) 47400 (1963) 148000 50300 62700 81200 86100 125000 193000 210000 274000 343000
2021-02-01 22:30 17.76 259000 498000 (1974) 47400 (1963) 148000 50300 62700 81200 86100 125000 193000 210000 274000 343000
2021-02-01 22:00 17.67 257000 498000 (1974) 47400 (1963) 148000 50300 62700 81200 86100 125000 193000 210000 274000 343000
2021-02-01 21:30 17.67 257000 498000 (1974) 47400 (1963) 148000 50300 62700 81200 86100 125000 193000 210000 274000 343000
2021-02-01 21:00 17.59 256000 498000 (1974) 47400 (1963) 148000 50300 62700 81200 86100 125000 193000 210000 274000 343000
2021-02-01 20:30 17.57 256000 498000 (1974) 47400 (1963) 148000 50300 62700 81200 86100 125000 193000 210000 274000 343000
2021-02-01 20:00 17.54 255000 498000 (1974) 47400 (1963) 148000 50300 62700 81200 86100 125000 193000 210000 274000 343000
2021-02-01 19:30 17.38 253000 498000 (1974) 47400 (1963) 148000 50300 62700 81200 86100 125000 193000 210000 274000 343000
2021-02-01 19:00 17.50 255000 498000 (1974) 47400 (1963) 148000 50300 62700 81200 86100 125000 193000 210000 274000 343000
2021-02-01 18:30 17.50 255000 498000 (1974) 47400 (1963) 148000 50300 62700 81200 86100 125000 193000 210000 274000 343000
2021-02-01 18:00 17.43 254000 498000 (1974) 47400 (1963) 148000 50300 62700 81200 86100 125000 193000 210000 274000 343000
2021-02-01 17:30 17.44 254000 498000 (1974) 47400 (1963) 148000 50300 62700 81200 86100 125000 193000 210000 274000 343000
2021-02-01 17:00 17.34 252000 498000 (1974) 47400 (1963) 148000 50300 62700 81200 86100 125000 193000 210000 274000 343000
2021-02-01 16:30 17.21 250000 498000 (1974) 47400 (1963) 148000 50300 62700 81200 86100 125000 193000 210000 274000 343000
2021-02-01 16:00 17.29 251000 498000 (1974) 47400 (1963) 148000 50300 62700 81200 86100 125000 193000 210000 274000 343000
2021-02-01 15:30 17.24 251000 498000 (1974) 47400 (1963) 148000 50300 62700 81200 86100 125000 193000 210000 274000 343000
2021-02-01 15:00 17.06 248000 498000 (1974) 47400 (1963) 148000 50300 62700 81200 86100 125000 193000 210000 274000 343000
2021-02-01 14:30 17.01 247000 498000 (1974) 47400 (1963) 148000 50300 62700 81200 86100 125000 193000 210000 274000 343000
2021-02-01 14:00 16.96 246000 498000 (1974) 47400 (1963) 148000 50300 62700 81200 86100 125000 193000 210000 274000 343000
2021-02-01 13:30 16.96 246000 498000 (1974) 47400 (1963) 148000 50300 62700 81200 86100 125000 193000 210000 274000 343000
2021-02-01 13:00 16.74 243000 498000 (1974) 47400 (1963) 148000 50300 62700 81200 86100 125000 193000 210000 274000 343000
2021-02-01 12:30 16.85 245000 498000 (1974) 47400 (1963) 148000 50300 62700 81200 86100 125000 193000 210000 274000 343000
2021-02-01 12:00 16.79 244000 498000 (1974) 47400 (1963) 148000 50300 62700 81200 86100 125000 193000 210000 274000 343000
2021-02-01 11:30 16.74 243000 498000 (1974) 47400 (1963) 148000 50300 62700 81200 86100 125000 193000 210000 274000 343000
2021-02-01 11:00 16.66 242000 498000 (1974) 47400 (1963) 148000 50300 62700 81200 86100 125000 193000 210000 274000 343000
2021-02-01 10:30 16.45 239000 498000 (1974) 47400 (1963) 148000 50300 62700 81200 86100 125000 193000 210000 274000 343000
2021-02-01 10:00 16.41 238000 498000 (1974) 47400 (1963) 148000 50300 62700 81200 86100 125000 193000 210000 274000 343000
2021-02-01 09:30 16.42 238000 498000 (1974) 47400 (1963) 148000 50300 62700 81200 86100 125000 193000 210000 274000 343000
2021-02-01 09:00 16.22 235000 498000 (1974) 47400 (1963) 148000 50300 62700 81200 86100 125000 193000 210000 274000 343000
2021-02-01 08:30 16.14 234000 498000 (1974) 47400 (1963) 148000 50300 62700 81200 86100 125000 193000 210000 274000 343000
2021-02-01 08:00 16.05 233000 498000 (1974) 47400 (1963) 148000 50300 62700 81200 86100 125000 193000 210000 274000 343000
2021-02-01 07:30 15.91 231000 498000 (1974) 47400 (1963) 148000 50300 62700 81200 86100 125000 193000 210000 274000 343000
2021-02-01 07:00 15.90 231000 498000 (1974) 47400 (1963) 148000 50300 62700 81200 86100 125000 193000 210000 274000 343000
2021-02-01 06:30 15.82 229000 498000 (1974) 47400 (1963) 148000 50300 62700 81200 86100 125000 193000 210000 274000 343000
2021-02-01 06:00 15.78 229000 498000 (1974) 47400 (1963) 148000 50300 62700 81200 86100 125000 193000 210000 274000 343000
2021-02-01 05:30 15.64 227000 498000 (1974) 47400 (1963) 148000 50300 62700 81200 86100 125000 193000 210000 274000 343000
2021-02-01 05:00 15.58 226000 498000 (1974) 47400 (1963) 148000 50300 62700 81200 86100 125000 193000 210000 274000 343000
2021-02-01 04:30 15.41 223000 498000 (1974) 47400 (1963) 148000 50300 62700 81200 86100 125000 193000 210000 274000 343000
2021-02-01 04:00 15.31 222000 498000 (1974) 47400 (1963) 148000 50300 62700 81200 86100 125000 193000 210000 274000 343000
2021-02-01 03:30 15.26 221000 498000 (1974) 47400 (1963) 148000 50300 62700 81200 86100 125000 193000 210000 274000 343000
2021-02-01 03:00 15.18 220000 498000 (1974) 47400 (1963) 148000 50300 62700 81200 86100 125000 193000 210000 274000 343000
2021-02-01 02:30 14.99 217000 498000 (1974) 47400 (1963) 148000 50300 62700 81200 86100 125000 193000 210000 274000 343000
2021-02-01 02:00 14.99 217000 498000 (1974) 47400 (1963) 148000 50300 62700 81200 86100 125000 193000 210000 274000 343000
2021-02-01 01:30 14.87 216000 498000 (1974) 47400 (1963) 148000 50300 62700 81200 86100 125000 193000 210000 274000 343000
2021-02-01 01:00 14.74 214000 498000 (1974) 47400 (1963) 148000 50300 62700 81200 86100 125000 193000 210000 274000 343000
2021-02-01 00:30 14.63 212000 498000 (1974) 47400 (1963) 148000 50300 62700 81200 86100 125000 193000 210000 274000 343000
2021-02-01 00:00 14.60 212000 498000 (1974) 47400 (1963) 148000 50300 62700 81200 86100 125000 193000 210000 274000 343000

A total of 1469 rows are displayed for years 1943 through 2020.